﻿<?xml version="1.0" encoding="UTF-8" standalone="no" ?>
<gpx xmlns="http://www.topografix.com/GPX/1/1" creator="CompeGPS" version="1.1" xmlns:xsi="http://www.w3.org/2001/XMLSchema-instance" xsi:schemaLocation="http://www.topografix.com/GPX/1/1 http://www.topografix.com/GPX/1/1/gpx.xsd http://www.garmin.com/xmlschemas/GpxExtensions/v3 http://www.garmin.com/xmlschemas/GpxExtensionsv3.xsd http://www.garmin.com/xmlschemas/TrackPointExtension/v1 http://www.garmin.com/xmlschemas/TrackPointExtensionv1.xsd" xmlns:gpxtpx="http://www.garmin.com/xmlschemas/TrackPointExtension/v1">
  <metadata>
    <link href="http://www.compegps.com">
      <text>CompeGPS TEAM, SL</text>
    </link>
    <time>2017-07-25T18:18:50Z</time>
    <bounds maxlat="42.177108" maxlon="1.698925" minlat="42.128573" minlon="1.665064"/>
  </metadata>
  <trk>
    <name>ruta-de-valls-fins-al-pont-quebradis</name>
    <trkseg>
      <trkpt lat="42.128573" lon="1.665130">
        <ele>831.6</ele>
        <time>2012-05-13T09:53:04Z</time>
      </trkpt>
      <trkpt lat="42.128686" lon="1.665124">
        <ele>832.4</ele>
        <time>2012-05-13T09:53:44Z</time>
      </trkpt>
      <trkpt lat="42.128799" lon="1.665118">
        <ele>832.9</ele>
        <time>2012-05-13T09:54:24Z</time>
      </trkpt>
      <trkpt lat="42.128911" lon="1.665112">
        <ele>833.0</ele>
        <time>2012-05-13T09:55:04Z</time>
      </trkpt>
      <trkpt lat="42.129040" lon="1.665110">
        <ele>833.1</ele>
        <time>2012-05-13T09:55:44Z</time>
      </trkpt>
      <trkpt lat="42.129168" lon="1.665107">
        <ele>832.9</ele>
        <time>2012-05-13T09:56:24Z</time>
      </trkpt>
      <trkpt lat="42.129297" lon="1.665104">
        <ele>832.3</ele>
        <time>2012-05-13T09:57:04Z</time>
      </trkpt>
      <trkpt lat="42.129426" lon="1.665102">
        <ele>831.6</ele>
        <time>2012-05-13T09:57:44Z</time>
      </trkpt>
      <trkpt lat="42.129554" lon="1.665099">
        <ele>831.2</ele>
        <time>2012-05-13T09:58:24Z</time>
      </trkpt>
      <trkpt lat="42.129673" lon="1.665094">
        <ele>830.9</ele>
        <time>2012-05-13T09:59:04Z</time>
      </trkpt>
      <trkpt lat="42.129792" lon="1.665089">
        <ele>830.8</ele>
        <time>2012-05-13T09:59:44Z</time>
      </trkpt>
      <trkpt lat="42.129910" lon="1.665084">
        <ele>830.7</ele>
        <time>2012-05-13T10:00:24Z</time>
      </trkpt>
      <trkpt lat="42.130029" lon="1.665079">
        <ele>830.7</ele>
        <time>2012-05-13T10:01:04Z</time>
      </trkpt>
      <trkpt lat="42.130148" lon="1.665074">
        <ele>830.9</ele>
        <time>2012-05-13T10:01:44Z</time>
      </trkpt>
      <trkpt lat="42.130266" lon="1.665069">
        <ele>831.0</ele>
        <time>2012-05-13T10:02:24Z</time>
      </trkpt>
      <trkpt lat="42.130385" lon="1.665064">
        <ele>831.3</ele>
        <time>2012-05-13T10:03:04Z</time>
      </trkpt>
      <trkpt lat="42.130502" lon="1.665115">
        <ele>831.3</ele>
        <time>2012-05-13T10:03:44Z</time>
      </trkpt>
      <trkpt lat="42.130619" lon="1.665167">
        <ele>832.0</ele>
        <time>2012-05-13T10:04:24Z</time>
      </trkpt>
      <trkpt lat="42.130735" lon="1.665218">
        <ele>832.6</ele>
        <time>2012-05-13T10:05:04Z</time>
      </trkpt>
      <trkpt lat="42.130865" lon="1.665255">
        <ele>833.2</ele>
        <time>2012-05-13T10:05:44Z</time>
      </trkpt>
      <trkpt lat="42.130995" lon="1.665291">
        <ele>834.4</ele>
        <time>2012-05-13T10:06:24Z</time>
      </trkpt>
      <trkpt lat="42.131125" lon="1.665327">
        <ele>835.5</ele>
        <time>2012-05-13T10:07:04Z</time>
      </trkpt>
      <trkpt lat="42.131255" lon="1.665363">
        <ele>835.9</ele>
        <time>2012-05-13T10:07:44Z</time>
      </trkpt>
      <trkpt lat="42.131385" lon="1.665400">
        <ele>835.6</ele>
        <time>2012-05-13T10:08:24Z</time>
      </trkpt>
      <trkpt lat="42.131515" lon="1.665436">
        <ele>837.0</ele>
        <time>2012-05-13T10:09:04Z</time>
      </trkpt>
      <trkpt lat="42.131621" lon="1.665527">
        <ele>837.2</ele>
        <time>2012-05-13T10:09:44Z</time>
      </trkpt>
      <trkpt lat="42.131727" lon="1.665618">
        <ele>836.3</ele>
        <time>2012-05-13T10:10:24Z</time>
      </trkpt>
      <trkpt lat="42.131833" lon="1.665708">
        <ele>837.3</ele>
        <time>2012-05-13T10:11:04Z</time>
      </trkpt>
      <trkpt lat="42.131940" lon="1.665799">
        <ele>837.8</ele>
        <time>2012-05-13T10:11:44Z</time>
      </trkpt>
      <trkpt lat="42.132046" lon="1.665890">
        <ele>838.4</ele>
        <time>2012-05-13T10:12:24Z</time>
      </trkpt>
      <trkpt lat="42.132152" lon="1.665981">
        <ele>837.8</ele>
        <time>2012-05-13T10:13:04Z</time>
      </trkpt>
      <trkpt lat="42.132217" lon="1.666098">
        <ele>837.8</ele>
        <time>2012-05-13T10:13:44Z</time>
      </trkpt>
      <trkpt lat="42.132283" lon="1.666216">
        <ele>837.8</ele>
        <time>2012-05-13T10:14:24Z</time>
      </trkpt>
      <trkpt lat="42.132349" lon="1.666333">
        <ele>837.9</ele>
        <time>2012-05-13T10:15:04Z</time>
      </trkpt>
      <trkpt lat="42.132414" lon="1.666451">
        <ele>837.8</ele>
        <time>2012-05-13T10:15:44Z</time>
      </trkpt>
      <trkpt lat="42.132480" lon="1.666568">
        <ele>837.8</ele>
        <time>2012-05-13T10:16:24Z</time>
      </trkpt>
      <trkpt lat="42.132498" lon="1.666605">
        <ele>837.8</ele>
        <time>2012-05-13T10:17:04Z</time>
      </trkpt>
      <trkpt lat="42.132498" lon="1.666605">
        <ele>837.8</ele>
        <time>2012-05-13T10:17:44Z</time>
      </trkpt>
      <trkpt lat="42.132565" lon="1.666747">
        <ele>838.1</ele>
        <time>2012-05-13T10:18:24Z</time>
      </trkpt>
      <trkpt lat="42.132633" lon="1.666890">
        <ele>838.7</ele>
        <time>2012-05-13T10:19:04Z</time>
      </trkpt>
      <trkpt lat="42.132700" lon="1.667032">
        <ele>839.1</ele>
        <time>2012-05-13T10:19:44Z</time>
      </trkpt>
      <trkpt lat="42.132817" lon="1.667113">
        <ele>839.7</ele>
        <time>2012-05-13T10:20:24Z</time>
      </trkpt>
      <trkpt lat="42.132934" lon="1.667195">
        <ele>839.8</ele>
        <time>2012-05-13T10:21:04Z</time>
      </trkpt>
      <trkpt lat="42.133051" lon="1.667277">
        <ele>840.4</ele>
        <time>2012-05-13T10:21:44Z</time>
      </trkpt>
      <trkpt lat="42.133123" lon="1.667406">
        <ele>839.6</ele>
        <time>2012-05-13T10:22:24Z</time>
      </trkpt>
      <trkpt lat="42.133195" lon="1.667535">
        <ele>839.4</ele>
        <time>2012-05-13T10:23:04Z</time>
      </trkpt>
      <trkpt lat="42.133267" lon="1.667664">
        <ele>838.9</ele>
        <time>2012-05-13T10:23:44Z</time>
      </trkpt>
      <trkpt lat="42.133339" lon="1.667793">
        <ele>839.8</ele>
        <time>2012-05-13T10:24:24Z</time>
      </trkpt>
      <trkpt lat="42.133426" lon="1.667885">
        <ele>840.5</ele>
        <time>2012-05-13T10:25:04Z</time>
      </trkpt>
      <trkpt lat="42.133513" lon="1.667977">
        <ele>841.7</ele>
        <time>2012-05-13T10:25:44Z</time>
      </trkpt>
      <trkpt lat="42.133600" lon="1.668068">
        <ele>842.3</ele>
        <time>2012-05-13T10:26:24Z</time>
      </trkpt>
      <trkpt lat="42.133686" lon="1.668160">
        <ele>843.1</ele>
        <time>2012-05-13T10:27:04Z</time>
      </trkpt>
      <trkpt lat="42.133773" lon="1.668252">
        <ele>840.3</ele>
        <time>2012-05-13T10:27:44Z</time>
      </trkpt>
      <trkpt lat="42.133897" lon="1.668240">
        <ele>843.2</ele>
        <time>2012-05-13T10:28:24Z</time>
      </trkpt>
      <trkpt lat="42.134021" lon="1.668229">
        <ele>845.2</ele>
        <time>2012-05-13T10:29:04Z</time>
      </trkpt>
      <trkpt lat="42.134145" lon="1.668217">
        <ele>844.9</ele>
        <time>2012-05-13T10:29:44Z</time>
      </trkpt>
      <trkpt lat="42.134269" lon="1.668206">
        <ele>843.8</ele>
        <time>2012-05-13T10:30:24Z</time>
      </trkpt>
      <trkpt lat="42.134390" lon="1.668239">
        <ele>840.9</ele>
        <time>2012-05-13T10:31:04Z</time>
      </trkpt>
      <trkpt lat="42.134511" lon="1.668273">
        <ele>840.5</ele>
        <time>2012-05-13T10:31:44Z</time>
      </trkpt>
      <trkpt lat="42.134632" lon="1.668306">
        <ele>842.0</ele>
        <time>2012-05-13T10:32:24Z</time>
      </trkpt>
      <trkpt lat="42.134753" lon="1.668340">
        <ele>845.3</ele>
        <time>2012-05-13T10:33:04Z</time>
      </trkpt>
      <trkpt lat="42.134788" lon="1.668469">
        <ele>843.3</ele>
        <time>2012-05-13T10:33:44Z</time>
      </trkpt>
      <trkpt lat="42.134823" lon="1.668599">
        <ele>843.1</ele>
        <time>2012-05-13T10:34:24Z</time>
      </trkpt>
      <trkpt lat="42.134858" lon="1.668729">
        <ele>842.7</ele>
        <time>2012-05-13T10:35:04Z</time>
      </trkpt>
      <trkpt lat="42.134893" lon="1.668859">
        <ele>842.4</ele>
        <time>2012-05-13T10:35:44Z</time>
      </trkpt>
      <trkpt lat="42.134985" lon="1.668940">
        <ele>844.1</ele>
        <time>2012-05-13T10:36:24Z</time>
      </trkpt>
      <trkpt lat="42.135077" lon="1.669021">
        <ele>846.0</ele>
        <time>2012-05-13T10:37:04Z</time>
      </trkpt>
      <trkpt lat="42.135169" lon="1.669102">
        <ele>847.4</ele>
        <time>2012-05-13T10:37:44Z</time>
      </trkpt>
      <trkpt lat="42.135261" lon="1.669183">
        <ele>846.7</ele>
        <time>2012-05-13T10:38:24Z</time>
      </trkpt>
      <trkpt lat="42.135354" lon="1.669264">
        <ele>847.1</ele>
        <time>2012-05-13T10:39:04Z</time>
      </trkpt>
      <trkpt lat="42.135443" lon="1.669384">
        <ele>847.3</ele>
        <time>2012-05-13T10:39:44Z</time>
      </trkpt>
      <trkpt lat="42.135533" lon="1.669505">
        <ele>847.1</ele>
        <time>2012-05-13T10:40:24Z</time>
      </trkpt>
      <trkpt lat="42.135623" lon="1.669625">
        <ele>848.0</ele>
        <time>2012-05-13T10:41:04Z</time>
      </trkpt>
      <trkpt lat="42.135713" lon="1.669746">
        <ele>848.2</ele>
        <time>2012-05-13T10:41:44Z</time>
      </trkpt>
      <trkpt lat="42.135803" lon="1.669867">
        <ele>849.7</ele>
        <time>2012-05-13T10:42:24Z</time>
      </trkpt>
      <trkpt lat="42.135864" lon="1.670004">
        <ele>849.1</ele>
        <time>2012-05-13T10:43:04Z</time>
      </trkpt>
      <trkpt lat="42.135925" lon="1.670142">
        <ele>849.6</ele>
        <time>2012-05-13T10:43:44Z</time>
      </trkpt>
      <trkpt lat="42.135986" lon="1.670279">
        <ele>849.7</ele>
        <time>2012-05-13T10:44:24Z</time>
      </trkpt>
      <trkpt lat="42.136047" lon="1.670417">
        <ele>850.2</ele>
        <time>2012-05-13T10:45:04Z</time>
      </trkpt>
      <trkpt lat="42.136108" lon="1.670555">
        <ele>850.5</ele>
        <time>2012-05-13T10:45:44Z</time>
      </trkpt>
      <trkpt lat="42.136169" lon="1.670693">
        <ele>851.0</ele>
        <time>2012-05-13T10:46:24Z</time>
      </trkpt>
      <trkpt lat="42.136230" lon="1.670830">
        <ele>851.6</ele>
        <time>2012-05-13T10:47:04Z</time>
      </trkpt>
      <trkpt lat="42.136282" lon="1.670991">
        <ele>851.7</ele>
        <time>2012-05-13T10:47:44Z</time>
      </trkpt>
      <trkpt lat="42.136335" lon="1.671152">
        <ele>852.1</ele>
        <time>2012-05-13T10:48:24Z</time>
      </trkpt>
      <trkpt lat="42.136388" lon="1.671313">
        <ele>852.6</ele>
        <time>2012-05-13T10:49:04Z</time>
      </trkpt>
      <trkpt lat="42.136441" lon="1.671474">
        <ele>853.3</ele>
        <time>2012-05-13T10:49:44Z</time>
      </trkpt>
      <trkpt lat="42.136494" lon="1.671635">
        <ele>853.2</ele>
        <time>2012-05-13T10:50:24Z</time>
      </trkpt>
      <trkpt lat="42.136570" lon="1.671700">
        <ele>853.6</ele>
        <time>2012-05-13T10:51:04Z</time>
      </trkpt>
      <trkpt lat="42.136647" lon="1.671764">
        <ele>853.9</ele>
        <time>2012-05-13T10:51:44Z</time>
      </trkpt>
      <trkpt lat="42.136724" lon="1.671828">
        <ele>853.2</ele>
        <time>2012-05-13T10:52:24Z</time>
      </trkpt>
      <trkpt lat="42.136770" lon="1.671700">
        <ele>853.7</ele>
        <time>2012-05-13T10:53:04Z</time>
      </trkpt>
      <trkpt lat="42.136770" lon="1.671700">
        <ele>853.7</ele>
        <time>2012-05-13T10:53:44Z</time>
      </trkpt>
      <trkpt lat="42.136819" lon="1.671561">
        <ele>854.2</ele>
        <time>2012-05-13T10:54:24Z</time>
      </trkpt>
      <trkpt lat="42.136869" lon="1.671423">
        <ele>854.3</ele>
        <time>2012-05-13T10:55:04Z</time>
      </trkpt>
      <trkpt lat="42.136918" lon="1.671284">
        <ele>854.2</ele>
        <time>2012-05-13T10:55:44Z</time>
      </trkpt>
      <trkpt lat="42.136940" lon="1.671139">
        <ele>854.6</ele>
        <time>2012-05-13T10:56:24Z</time>
      </trkpt>
      <trkpt lat="42.136962" lon="1.670995">
        <ele>854.4</ele>
        <time>2012-05-13T10:57:04Z</time>
      </trkpt>
      <trkpt lat="42.136984" lon="1.670850">
        <ele>854.6</ele>
        <time>2012-05-13T10:57:44Z</time>
      </trkpt>
      <trkpt lat="42.137006" lon="1.670706">
        <ele>855.0</ele>
        <time>2012-05-13T10:58:24Z</time>
      </trkpt>
      <trkpt lat="42.137049" lon="1.670591">
        <ele>854.7</ele>
        <time>2012-05-13T10:59:04Z</time>
      </trkpt>
      <trkpt lat="42.137092" lon="1.670476">
        <ele>854.9</ele>
        <time>2012-05-13T10:59:44Z</time>
      </trkpt>
      <trkpt lat="42.137136" lon="1.670361">
        <ele>855.8</ele>
        <time>2012-05-13T11:00:24Z</time>
      </trkpt>
      <trkpt lat="42.137259" lon="1.670340">
        <ele>855.2</ele>
        <time>2012-05-13T11:01:04Z</time>
      </trkpt>
      <trkpt lat="42.137383" lon="1.670320">
        <ele>854.9</ele>
        <time>2012-05-13T11:01:44Z</time>
      </trkpt>
      <trkpt lat="42.137507" lon="1.670299">
        <ele>855.7</ele>
        <time>2012-05-13T11:02:24Z</time>
      </trkpt>
      <trkpt lat="42.137631" lon="1.670279">
        <ele>858.3</ele>
        <time>2012-05-13T11:03:04Z</time>
      </trkpt>
      <trkpt lat="42.137756" lon="1.670327">
        <ele>857.9</ele>
        <time>2012-05-13T11:03:44Z</time>
      </trkpt>
      <trkpt lat="42.137882" lon="1.670375">
        <ele>859.0</ele>
        <time>2012-05-13T11:04:24Z</time>
      </trkpt>
      <trkpt lat="42.138008" lon="1.670424">
        <ele>860.4</ele>
        <time>2012-05-13T11:05:04Z</time>
      </trkpt>
      <trkpt lat="42.138133" lon="1.670472">
        <ele>860.5</ele>
        <time>2012-05-13T11:05:44Z</time>
      </trkpt>
      <trkpt lat="42.138259" lon="1.670521">
        <ele>860.5</ele>
        <time>2012-05-13T11:06:24Z</time>
      </trkpt>
      <trkpt lat="42.138385" lon="1.670569">
        <ele>861.6</ele>
        <time>2012-05-13T11:07:04Z</time>
      </trkpt>
      <trkpt lat="42.138519" lon="1.670575">
        <ele>864.4</ele>
        <time>2012-05-13T11:07:44Z</time>
      </trkpt>
      <trkpt lat="42.138653" lon="1.670581">
        <ele>864.6</ele>
        <time>2012-05-13T11:08:24Z</time>
      </trkpt>
      <trkpt lat="42.138787" lon="1.670588">
        <ele>863.4</ele>
        <time>2012-05-13T11:09:04Z</time>
      </trkpt>
      <trkpt lat="42.138921" lon="1.670594">
        <ele>863.0</ele>
        <time>2012-05-13T11:09:44Z</time>
      </trkpt>
      <trkpt lat="42.139047" lon="1.670588">
        <ele>863.6</ele>
        <time>2012-05-13T11:10:24Z</time>
      </trkpt>
      <trkpt lat="42.139173" lon="1.670581">
        <ele>864.3</ele>
        <time>2012-05-13T11:11:04Z</time>
      </trkpt>
      <trkpt lat="42.139299" lon="1.670575">
        <ele>865.6</ele>
        <time>2012-05-13T11:11:44Z</time>
      </trkpt>
      <trkpt lat="42.139425" lon="1.670569">
        <ele>867.1</ele>
        <time>2012-05-13T11:12:24Z</time>
      </trkpt>
      <trkpt lat="42.139551" lon="1.670563">
        <ele>867.4</ele>
        <time>2012-05-13T11:13:04Z</time>
      </trkpt>
      <trkpt lat="42.139667" lon="1.670581">
        <ele>867.5</ele>
        <time>2012-05-13T11:13:44Z</time>
      </trkpt>
      <trkpt lat="42.139784" lon="1.670600">
        <ele>868.2</ele>
        <time>2012-05-13T11:14:24Z</time>
      </trkpt>
      <trkpt lat="42.139900" lon="1.670618">
        <ele>868.2</ele>
        <time>2012-05-13T11:15:04Z</time>
      </trkpt>
      <trkpt lat="42.140016" lon="1.670637">
        <ele>869.1</ele>
        <time>2012-05-13T11:15:44Z</time>
      </trkpt>
      <trkpt lat="42.140133" lon="1.670655">
        <ele>869.9</ele>
        <time>2012-05-13T11:16:24Z</time>
      </trkpt>
      <trkpt lat="42.140249" lon="1.670674">
        <ele>870.5</ele>
        <time>2012-05-13T11:17:04Z</time>
      </trkpt>
      <trkpt lat="42.140327" lon="1.670802">
        <ele>869.2</ele>
        <time>2012-05-13T11:17:44Z</time>
      </trkpt>
      <trkpt lat="42.140404" lon="1.670929">
        <ele>870.3</ele>
        <time>2012-05-13T11:18:24Z</time>
      </trkpt>
      <trkpt lat="42.140482" lon="1.671056">
        <ele>870.9</ele>
        <time>2012-05-13T11:19:04Z</time>
      </trkpt>
      <trkpt lat="42.140559" lon="1.671184">
        <ele>871.6</ele>
        <time>2012-05-13T11:19:44Z</time>
      </trkpt>
      <trkpt lat="42.140636" lon="1.671311">
        <ele>871.6</ele>
        <time>2012-05-13T11:20:24Z</time>
      </trkpt>
      <trkpt lat="42.140714" lon="1.671439">
        <ele>871.3</ele>
        <time>2012-05-13T11:21:04Z</time>
      </trkpt>
      <trkpt lat="42.140802" lon="1.671563">
        <ele>870.8</ele>
        <time>2012-05-13T11:21:44Z</time>
      </trkpt>
      <trkpt lat="42.140891" lon="1.671687">
        <ele>871.4</ele>
        <time>2012-05-13T11:22:24Z</time>
      </trkpt>
      <trkpt lat="42.140980" lon="1.671811">
        <ele>871.5</ele>
        <time>2012-05-13T11:23:04Z</time>
      </trkpt>
      <trkpt lat="42.141068" lon="1.671936">
        <ele>874.4</ele>
        <time>2012-05-13T11:23:44Z</time>
      </trkpt>
      <trkpt lat="42.141083" lon="1.672090">
        <ele>873.3</ele>
        <time>2012-05-13T11:24:24Z</time>
      </trkpt>
      <trkpt lat="42.141099" lon="1.672245">
        <ele>872.4</ele>
        <time>2012-05-13T11:25:04Z</time>
      </trkpt>
      <trkpt lat="42.141114" lon="1.672400">
        <ele>871.6</ele>
        <time>2012-05-13T11:25:44Z</time>
      </trkpt>
      <trkpt lat="42.141129" lon="1.672554">
        <ele>871.7</ele>
        <time>2012-05-13T11:26:24Z</time>
      </trkpt>
      <trkpt lat="42.141144" lon="1.672709">
        <ele>872.1</ele>
        <time>2012-05-13T11:27:04Z</time>
      </trkpt>
      <trkpt lat="42.141193" lon="1.672843">
        <ele>873.9</ele>
        <time>2012-05-13T11:27:44Z</time>
      </trkpt>
      <trkpt lat="42.141241" lon="1.672977">
        <ele>873.3</ele>
        <time>2012-05-13T11:28:24Z</time>
      </trkpt>
      <trkpt lat="42.141362" lon="1.673016">
        <ele>876.1</ele>
        <time>2012-05-13T11:29:04Z</time>
      </trkpt>
      <trkpt lat="42.141483" lon="1.673056">
        <ele>877.8</ele>
        <time>2012-05-13T11:29:44Z</time>
      </trkpt>
      <trkpt lat="42.141604" lon="1.673095">
        <ele>878.8</ele>
        <time>2012-05-13T11:30:24Z</time>
      </trkpt>
      <trkpt lat="42.141694" lon="1.673209">
        <ele>877.5</ele>
        <time>2012-05-13T11:31:04Z</time>
      </trkpt>
      <trkpt lat="42.141784" lon="1.673322">
        <ele>878.5</ele>
        <time>2012-05-13T11:31:44Z</time>
      </trkpt>
      <trkpt lat="42.141874" lon="1.673436">
        <ele>879.9</ele>
        <time>2012-05-13T11:32:24Z</time>
      </trkpt>
      <trkpt lat="42.141964" lon="1.673549">
        <ele>881.3</ele>
        <time>2012-05-13T11:33:04Z</time>
      </trkpt>
      <trkpt lat="42.142053" lon="1.673662">
        <ele>883.6</ele>
        <time>2012-05-13T11:33:44Z</time>
      </trkpt>
      <trkpt lat="42.142114" lon="1.673805">
        <ele>884.0</ele>
        <time>2012-05-13T11:34:24Z</time>
      </trkpt>
      <trkpt lat="42.142175" lon="1.673948">
        <ele>885.8</ele>
        <time>2012-05-13T11:35:04Z</time>
      </trkpt>
      <trkpt lat="42.142235" lon="1.674091">
        <ele>886.2</ele>
        <time>2012-05-13T11:35:44Z</time>
      </trkpt>
      <trkpt lat="42.142296" lon="1.674234">
        <ele>886.4</ele>
        <time>2012-05-13T11:36:24Z</time>
      </trkpt>
      <trkpt lat="42.142357" lon="1.674377">
        <ele>886.2</ele>
        <time>2012-05-13T11:37:04Z</time>
      </trkpt>
      <trkpt lat="42.142434" lon="1.674495">
        <ele>887.3</ele>
        <time>2012-05-13T11:37:44Z</time>
      </trkpt>
      <trkpt lat="42.142511" lon="1.674613">
        <ele>888.2</ele>
        <time>2012-05-13T11:38:24Z</time>
      </trkpt>
      <trkpt lat="42.142588" lon="1.674732">
        <ele>890.8</ele>
        <time>2012-05-13T11:39:04Z</time>
      </trkpt>
      <trkpt lat="42.142634" lon="1.674862">
        <ele>889.8</ele>
        <time>2012-05-13T11:39:44Z</time>
      </trkpt>
      <trkpt lat="42.142679" lon="1.674991">
        <ele>890.6</ele>
        <time>2012-05-13T11:40:24Z</time>
      </trkpt>
      <trkpt lat="42.142724" lon="1.675121">
        <ele>894.0</ele>
        <time>2012-05-13T11:41:04Z</time>
      </trkpt>
      <trkpt lat="42.142769" lon="1.675251">
        <ele>895.5</ele>
        <time>2012-05-13T11:41:44Z</time>
      </trkpt>
      <trkpt lat="42.142893" lon="1.675210">
        <ele>905.3</ele>
        <time>2012-05-13T11:42:24Z</time>
      </trkpt>
      <trkpt lat="42.143017" lon="1.675169">
        <ele>906.3</ele>
        <time>2012-05-13T11:43:04Z</time>
      </trkpt>
      <trkpt lat="42.143017" lon="1.675169">
        <ele>906.3</ele>
        <time>2012-05-13T11:43:44Z</time>
      </trkpt>
      <trkpt lat="42.143062" lon="1.675154">
        <ele>905.1</ele>
        <time>2012-05-13T11:44:24Z</time>
      </trkpt>
      <trkpt lat="42.143102" lon="1.675117">
        <ele>904.8</ele>
        <time>2012-05-13T11:45:04Z</time>
      </trkpt>
      <trkpt lat="42.143196" lon="1.675080">
        <ele>901.6</ele>
        <time>2012-05-13T11:45:44Z</time>
      </trkpt>
      <trkpt lat="42.143289" lon="1.675042">
        <ele>899.3</ele>
        <time>2012-05-13T11:46:24Z</time>
      </trkpt>
      <trkpt lat="42.143383" lon="1.675004">
        <ele>897.0</ele>
        <time>2012-05-13T11:47:04Z</time>
      </trkpt>
      <trkpt lat="42.143483" lon="1.675019">
        <ele>893.0</ele>
        <time>2012-05-13T11:47:44Z</time>
      </trkpt>
      <trkpt lat="42.143584" lon="1.675035">
        <ele>895.1</ele>
        <time>2012-05-13T11:48:24Z</time>
      </trkpt>
      <trkpt lat="42.143545" lon="1.675176">
        <ele>894.2</ele>
        <time>2012-05-13T11:49:04Z</time>
      </trkpt>
      <trkpt lat="42.143507" lon="1.675316">
        <ele>895.6</ele>
        <time>2012-05-13T11:49:44Z</time>
      </trkpt>
      <trkpt lat="42.143468" lon="1.675457">
        <ele>899.3</ele>
        <time>2012-05-13T11:50:24Z</time>
      </trkpt>
      <trkpt lat="42.143430" lon="1.675597">
        <ele>901.9</ele>
        <time>2012-05-13T11:51:04Z</time>
      </trkpt>
      <trkpt lat="42.143438" lon="1.675741">
        <ele>907.0</ele>
        <time>2012-05-13T11:51:44Z</time>
      </trkpt>
      <trkpt lat="42.143446" lon="1.675885">
        <ele>908.7</ele>
        <time>2012-05-13T11:52:24Z</time>
      </trkpt>
      <trkpt lat="42.143455" lon="1.676029">
        <ele>905.1</ele>
        <time>2012-05-13T11:53:04Z</time>
      </trkpt>
      <trkpt lat="42.143463" lon="1.676173">
        <ele>902.5</ele>
        <time>2012-05-13T11:53:44Z</time>
      </trkpt>
      <trkpt lat="42.143551" lon="1.676261">
        <ele>906.2</ele>
        <time>2012-05-13T11:54:24Z</time>
      </trkpt>
      <trkpt lat="42.143639" lon="1.676349">
        <ele>907.0</ele>
        <time>2012-05-13T11:55:04Z</time>
      </trkpt>
      <trkpt lat="42.143725" lon="1.676395">
        <ele>903.7</ele>
        <time>2012-05-13T11:55:44Z</time>
      </trkpt>
      <trkpt lat="42.143810" lon="1.676442">
        <ele>901.6</ele>
        <time>2012-05-13T11:56:24Z</time>
      </trkpt>
      <trkpt lat="42.143896" lon="1.676488">
        <ele>901.3</ele>
        <time>2012-05-13T11:57:04Z</time>
      </trkpt>
      <trkpt lat="42.143971" lon="1.676590">
        <ele>899.4</ele>
        <time>2012-05-13T11:57:44Z</time>
      </trkpt>
      <trkpt lat="42.144045" lon="1.676692">
        <ele>897.0</ele>
        <time>2012-05-13T11:58:24Z</time>
      </trkpt>
      <trkpt lat="42.144120" lon="1.676794">
        <ele>894.6</ele>
        <time>2012-05-13T11:59:04Z</time>
      </trkpt>
      <trkpt lat="42.144195" lon="1.676896">
        <ele>891.3</ele>
        <time>2012-05-13T11:59:44Z</time>
      </trkpt>
      <trkpt lat="42.144283" lon="1.676957">
        <ele>891.7</ele>
        <time>2012-05-13T12:00:24Z</time>
      </trkpt>
      <trkpt lat="42.144371" lon="1.677018">
        <ele>890.0</ele>
        <time>2012-05-13T12:01:04Z</time>
      </trkpt>
      <trkpt lat="42.144496" lon="1.677022">
        <ele>889.2</ele>
        <time>2012-05-13T12:01:44Z</time>
      </trkpt>
      <trkpt lat="42.144621" lon="1.677025">
        <ele>889.1</ele>
        <time>2012-05-13T12:02:24Z</time>
      </trkpt>
      <trkpt lat="42.144746" lon="1.677029">
        <ele>890.1</ele>
        <time>2012-05-13T12:03:04Z</time>
      </trkpt>
      <trkpt lat="42.144874" lon="1.677085">
        <ele>889.1</ele>
        <time>2012-05-13T12:03:44Z</time>
      </trkpt>
      <trkpt lat="42.145002" lon="1.677140">
        <ele>889.6</ele>
        <time>2012-05-13T12:04:24Z</time>
      </trkpt>
      <trkpt lat="42.145130" lon="1.677196">
        <ele>891.0</ele>
        <time>2012-05-13T12:05:04Z</time>
      </trkpt>
      <trkpt lat="42.145258" lon="1.677252">
        <ele>892.2</ele>
        <time>2012-05-13T12:05:44Z</time>
      </trkpt>
      <trkpt lat="42.145356" lon="1.677340">
        <ele>893.4</ele>
        <time>2012-05-13T12:06:24Z</time>
      </trkpt>
      <trkpt lat="42.145453" lon="1.677428">
        <ele>892.0</ele>
        <time>2012-05-13T12:07:04Z</time>
      </trkpt>
      <trkpt lat="42.145551" lon="1.677516">
        <ele>891.3</ele>
        <time>2012-05-13T12:07:44Z</time>
      </trkpt>
      <trkpt lat="42.145648" lon="1.677604">
        <ele>890.3</ele>
        <time>2012-05-13T12:08:24Z</time>
      </trkpt>
      <trkpt lat="42.145746" lon="1.677692">
        <ele>890.1</ele>
        <time>2012-05-13T12:09:04Z</time>
      </trkpt>
      <trkpt lat="42.145838" lon="1.677773">
        <ele>889.6</ele>
        <time>2012-05-13T12:09:44Z</time>
      </trkpt>
      <trkpt lat="42.145930" lon="1.677854">
        <ele>888.8</ele>
        <time>2012-05-13T12:10:24Z</time>
      </trkpt>
      <trkpt lat="42.146022" lon="1.677935">
        <ele>889.1</ele>
        <time>2012-05-13T12:11:04Z</time>
      </trkpt>
      <trkpt lat="42.146115" lon="1.678016">
        <ele>890.5</ele>
        <time>2012-05-13T12:11:44Z</time>
      </trkpt>
      <trkpt lat="42.146207" lon="1.678097">
        <ele>890.9</ele>
        <time>2012-05-13T12:12:24Z</time>
      </trkpt>
      <trkpt lat="42.146301" lon="1.678194">
        <ele>889.5</ele>
        <time>2012-05-13T12:13:04Z</time>
      </trkpt>
      <trkpt lat="42.146396" lon="1.678291">
        <ele>889.5</ele>
        <time>2012-05-13T12:13:44Z</time>
      </trkpt>
      <trkpt lat="42.146491" lon="1.678388">
        <ele>890.9</ele>
        <time>2012-05-13T12:14:24Z</time>
      </trkpt>
      <trkpt lat="42.146586" lon="1.678485">
        <ele>892.4</ele>
        <time>2012-05-13T12:15:04Z</time>
      </trkpt>
      <trkpt lat="42.146665" lon="1.678601">
        <ele>893.6</ele>
        <time>2012-05-13T12:15:44Z</time>
      </trkpt>
      <trkpt lat="42.146743" lon="1.678716">
        <ele>892.5</ele>
        <time>2012-05-13T12:16:24Z</time>
      </trkpt>
      <trkpt lat="42.146822" lon="1.678832">
        <ele>893.1</ele>
        <time>2012-05-13T12:17:04Z</time>
      </trkpt>
      <trkpt lat="42.146900" lon="1.678947">
        <ele>891.3</ele>
        <time>2012-05-13T12:17:44Z</time>
      </trkpt>
      <trkpt lat="42.146984" lon="1.679043">
        <ele>892.3</ele>
        <time>2012-05-13T12:18:24Z</time>
      </trkpt>
      <trkpt lat="42.147068" lon="1.679138">
        <ele>893.2</ele>
        <time>2012-05-13T12:19:04Z</time>
      </trkpt>
      <trkpt lat="42.147153" lon="1.679234">
        <ele>893.2</ele>
        <time>2012-05-13T12:19:44Z</time>
      </trkpt>
      <trkpt lat="42.147237" lon="1.679329">
        <ele>893.7</ele>
        <time>2012-05-13T12:20:24Z</time>
      </trkpt>
      <trkpt lat="42.147321" lon="1.679425">
        <ele>892.3</ele>
        <time>2012-05-13T12:21:04Z</time>
      </trkpt>
      <trkpt lat="42.147425" lon="1.679400">
        <ele>896.8</ele>
        <time>2012-05-13T12:21:44Z</time>
      </trkpt>
      <trkpt lat="42.147528" lon="1.679375">
        <ele>901.1</ele>
        <time>2012-05-13T12:22:24Z</time>
      </trkpt>
      <trkpt lat="42.147632" lon="1.679351">
        <ele>903.8</ele>
        <time>2012-05-13T12:23:04Z</time>
      </trkpt>
      <trkpt lat="42.147735" lon="1.679326">
        <ele>905.1</ele>
        <time>2012-05-13T12:23:44Z</time>
      </trkpt>
      <trkpt lat="42.147842" lon="1.679301">
        <ele>907.8</ele>
        <time>2012-05-13T12:24:24Z</time>
      </trkpt>
      <trkpt lat="42.147949" lon="1.679277">
        <ele>910.2</ele>
        <time>2012-05-13T12:25:04Z</time>
      </trkpt>
      <trkpt lat="42.148056" lon="1.679252">
        <ele>910.8</ele>
        <time>2012-05-13T12:25:44Z</time>
      </trkpt>
      <trkpt lat="42.148163" lon="1.679227">
        <ele>908.5</ele>
        <time>2012-05-13T12:26:24Z</time>
      </trkpt>
      <trkpt lat="42.148262" lon="1.679164">
        <ele>910.7</ele>
        <time>2012-05-13T12:27:04Z</time>
      </trkpt>
      <trkpt lat="42.148360" lon="1.679101">
        <ele>913.1</ele>
        <time>2012-05-13T12:27:44Z</time>
      </trkpt>
      <trkpt lat="42.148459" lon="1.679037">
        <ele>911.9</ele>
        <time>2012-05-13T12:28:24Z</time>
      </trkpt>
      <trkpt lat="42.148557" lon="1.678974">
        <ele>912.4</ele>
        <time>2012-05-13T12:29:04Z</time>
      </trkpt>
      <trkpt lat="42.148656" lon="1.678911">
        <ele>914.3</ele>
        <time>2012-05-13T12:29:44Z</time>
      </trkpt>
      <trkpt lat="42.148771" lon="1.678951">
        <ele>908.8</ele>
        <time>2012-05-13T12:30:24Z</time>
      </trkpt>
      <trkpt lat="42.148887" lon="1.678992">
        <ele>905.1</ele>
        <time>2012-05-13T12:31:04Z</time>
      </trkpt>
      <trkpt lat="42.149003" lon="1.679033">
        <ele>902.5</ele>
        <time>2012-05-13T12:31:44Z</time>
      </trkpt>
      <trkpt lat="42.149119" lon="1.679074">
        <ele>901.0</ele>
        <time>2012-05-13T12:32:24Z</time>
      </trkpt>
      <trkpt lat="42.149234" lon="1.679115">
        <ele>898.2</ele>
        <time>2012-05-13T12:33:04Z</time>
      </trkpt>
      <trkpt lat="42.149349" lon="1.679080">
        <ele>897.8</ele>
        <time>2012-05-13T12:33:44Z</time>
      </trkpt>
      <trkpt lat="42.149464" lon="1.679045">
        <ele>898.2</ele>
        <time>2012-05-13T12:34:24Z</time>
      </trkpt>
      <trkpt lat="42.149579" lon="1.679010">
        <ele>897.5</ele>
        <time>2012-05-13T12:35:04Z</time>
      </trkpt>
      <trkpt lat="42.149694" lon="1.678975">
        <ele>897.2</ele>
        <time>2012-05-13T12:35:44Z</time>
      </trkpt>
      <trkpt lat="42.149809" lon="1.678941">
        <ele>897.2</ele>
        <time>2012-05-13T12:36:24Z</time>
      </trkpt>
      <trkpt lat="42.149908" lon="1.678862">
        <ele>899.0</ele>
        <time>2012-05-13T12:37:04Z</time>
      </trkpt>
      <trkpt lat="42.150008" lon="1.678783">
        <ele>898.8</ele>
        <time>2012-05-13T12:37:44Z</time>
      </trkpt>
      <trkpt lat="42.150108" lon="1.678705">
        <ele>900.0</ele>
        <time>2012-05-13T12:38:24Z</time>
      </trkpt>
      <trkpt lat="42.150207" lon="1.678626">
        <ele>901.3</ele>
        <time>2012-05-13T12:39:04Z</time>
      </trkpt>
      <trkpt lat="42.150324" lon="1.678574">
        <ele>902.8</ele>
        <time>2012-05-13T12:39:44Z</time>
      </trkpt>
      <trkpt lat="42.150441" lon="1.678522">
        <ele>903.3</ele>
        <time>2012-05-13T12:40:24Z</time>
      </trkpt>
      <trkpt lat="42.150557" lon="1.678470">
        <ele>904.2</ele>
        <time>2012-05-13T12:41:04Z</time>
      </trkpt>
      <trkpt lat="42.150674" lon="1.678418">
        <ele>905.9</ele>
        <time>2012-05-13T12:41:44Z</time>
      </trkpt>
      <trkpt lat="42.150789" lon="1.678426">
        <ele>905.2</ele>
        <time>2012-05-13T12:42:24Z</time>
      </trkpt>
      <trkpt lat="42.150904" lon="1.678433">
        <ele>904.4</ele>
        <time>2012-05-13T12:43:04Z</time>
      </trkpt>
      <trkpt lat="42.151019" lon="1.678441">
        <ele>904.5</ele>
        <time>2012-05-13T12:43:44Z</time>
      </trkpt>
      <trkpt lat="42.151019" lon="1.678441">
        <ele>904.5</ele>
        <time>2012-05-13T12:44:24Z</time>
      </trkpt>
      <trkpt lat="42.151114" lon="1.678447">
        <ele>905.3</ele>
        <time>2012-05-13T12:45:04Z</time>
      </trkpt>
      <trkpt lat="42.151209" lon="1.678453">
        <ele>907.0</ele>
        <time>2012-05-13T12:45:44Z</time>
      </trkpt>
      <trkpt lat="42.151305" lon="1.678459">
        <ele>908.8</ele>
        <time>2012-05-13T12:46:24Z</time>
      </trkpt>
      <trkpt lat="42.151431" lon="1.678412">
        <ele>914.1</ele>
        <time>2012-05-13T12:47:04Z</time>
      </trkpt>
      <trkpt lat="42.151558" lon="1.678364">
        <ele>923.1</ele>
        <time>2012-05-13T12:47:44Z</time>
      </trkpt>
      <trkpt lat="42.151673" lon="1.678397">
        <ele>923.0</ele>
        <time>2012-05-13T12:48:24Z</time>
      </trkpt>
      <trkpt lat="42.151787" lon="1.678431">
        <ele>916.9</ele>
        <time>2012-05-13T12:49:04Z</time>
      </trkpt>
      <trkpt lat="42.151894" lon="1.678411">
        <ele>913.4</ele>
        <time>2012-05-13T12:49:44Z</time>
      </trkpt>
      <trkpt lat="42.152001" lon="1.678391">
        <ele>914.4</ele>
        <time>2012-05-13T12:50:24Z</time>
      </trkpt>
      <trkpt lat="42.152108" lon="1.678370">
        <ele>915.0</ele>
        <time>2012-05-13T12:51:04Z</time>
      </trkpt>
      <trkpt lat="42.152215" lon="1.678350">
        <ele>915.4</ele>
        <time>2012-05-13T12:51:44Z</time>
      </trkpt>
      <trkpt lat="42.152322" lon="1.678330">
        <ele>917.0</ele>
        <time>2012-05-13T12:52:24Z</time>
      </trkpt>
      <trkpt lat="42.152434" lon="1.678317">
        <ele>919.0</ele>
        <time>2012-05-13T12:53:04Z</time>
      </trkpt>
      <trkpt lat="42.152547" lon="1.678304">
        <ele>920.7</ele>
        <time>2012-05-13T12:53:44Z</time>
      </trkpt>
      <trkpt lat="42.152659" lon="1.678291">
        <ele>922.0</ele>
        <time>2012-05-13T12:54:24Z</time>
      </trkpt>
      <trkpt lat="42.152772" lon="1.678277">
        <ele>923.6</ele>
        <time>2012-05-13T12:55:04Z</time>
      </trkpt>
      <trkpt lat="42.152884" lon="1.678264">
        <ele>925.2</ele>
        <time>2012-05-13T12:55:44Z</time>
      </trkpt>
      <trkpt lat="42.153011" lon="1.678266">
        <ele>925.2</ele>
        <time>2012-05-13T12:56:24Z</time>
      </trkpt>
      <trkpt lat="42.153139" lon="1.678268">
        <ele>924.8</ele>
        <time>2012-05-13T12:57:04Z</time>
      </trkpt>
      <trkpt lat="42.153266" lon="1.678270">
        <ele>925.0</ele>
        <time>2012-05-13T12:57:44Z</time>
      </trkpt>
      <trkpt lat="42.153394" lon="1.678272">
        <ele>925.0</ele>
        <time>2012-05-13T12:58:24Z</time>
      </trkpt>
      <trkpt lat="42.153500" lon="1.678197">
        <ele>924.6</ele>
        <time>2012-05-13T12:59:04Z</time>
      </trkpt>
      <trkpt lat="42.153606" lon="1.678123">
        <ele>926.3</ele>
        <time>2012-05-13T12:59:44Z</time>
      </trkpt>
      <trkpt lat="42.153727" lon="1.678143">
        <ele>925.6</ele>
        <time>2012-05-13T13:00:24Z</time>
      </trkpt>
      <trkpt lat="42.153848" lon="1.678163">
        <ele>926.9</ele>
        <time>2012-05-13T13:01:04Z</time>
      </trkpt>
      <trkpt lat="42.153969" lon="1.678183">
        <ele>928.7</ele>
        <time>2012-05-13T13:01:44Z</time>
      </trkpt>
      <trkpt lat="42.154090" lon="1.678203">
        <ele>928.7</ele>
        <time>2012-05-13T13:02:24Z</time>
      </trkpt>
      <trkpt lat="42.154204" lon="1.678241">
        <ele>927.3</ele>
        <time>2012-05-13T13:03:04Z</time>
      </trkpt>
      <trkpt lat="42.154319" lon="1.678279">
        <ele>926.9</ele>
        <time>2012-05-13T13:03:44Z</time>
      </trkpt>
      <trkpt lat="42.154433" lon="1.678318">
        <ele>926.4</ele>
        <time>2012-05-13T13:04:24Z</time>
      </trkpt>
      <trkpt lat="42.154548" lon="1.678356">
        <ele>927.8</ele>
        <time>2012-05-13T13:05:04Z</time>
      </trkpt>
      <trkpt lat="42.154650" lon="1.678318">
        <ele>930.9</ele>
        <time>2012-05-13T13:05:44Z</time>
      </trkpt>
      <trkpt lat="42.154752" lon="1.678279">
        <ele>931.5</ele>
        <time>2012-05-13T13:06:24Z</time>
      </trkpt>
      <trkpt lat="42.154854" lon="1.678241">
        <ele>932.0</ele>
        <time>2012-05-13T13:07:04Z</time>
      </trkpt>
      <trkpt lat="42.154948" lon="1.678239">
        <ele>932.9</ele>
        <time>2012-05-13T13:07:44Z</time>
      </trkpt>
      <trkpt lat="42.155042" lon="1.678237">
        <ele>935.4</ele>
        <time>2012-05-13T13:08:24Z</time>
      </trkpt>
      <trkpt lat="42.155136" lon="1.678271">
        <ele>937.2</ele>
        <time>2012-05-13T13:09:04Z</time>
      </trkpt>
      <trkpt lat="42.155231" lon="1.678306">
        <ele>935.1</ele>
        <time>2012-05-13T13:09:44Z</time>
      </trkpt>
      <trkpt lat="42.155325" lon="1.678340">
        <ele>934.0</ele>
        <time>2012-05-13T13:10:24Z</time>
      </trkpt>
      <trkpt lat="42.155391" lon="1.678284">
        <ele>937.9</ele>
        <time>2012-05-13T13:11:04Z</time>
      </trkpt>
      <trkpt lat="42.155458" lon="1.678229">
        <ele>939.6</ele>
        <time>2012-05-13T13:11:44Z</time>
      </trkpt>
      <trkpt lat="42.155547" lon="1.678313">
        <ele>936.3</ele>
        <time>2012-05-13T13:12:24Z</time>
      </trkpt>
      <trkpt lat="42.155637" lon="1.678398">
        <ele>930.5</ele>
        <time>2012-05-13T13:13:04Z</time>
      </trkpt>
      <trkpt lat="42.155726" lon="1.678483">
        <ele>929.1</ele>
        <time>2012-05-13T13:13:44Z</time>
      </trkpt>
      <trkpt lat="42.155815" lon="1.678567">
        <ele>927.2</ele>
        <time>2012-05-13T13:14:24Z</time>
      </trkpt>
      <trkpt lat="42.155905" lon="1.678652">
        <ele>924.4</ele>
        <time>2012-05-13T13:15:04Z</time>
      </trkpt>
      <trkpt lat="42.156006" lon="1.678713">
        <ele>920.5</ele>
        <time>2012-05-13T13:15:44Z</time>
      </trkpt>
      <trkpt lat="42.156107" lon="1.678774">
        <ele>918.3</ele>
        <time>2012-05-13T13:16:24Z</time>
      </trkpt>
      <trkpt lat="42.156103" lon="1.678945">
        <ele>916.6</ele>
        <time>2012-05-13T13:17:04Z</time>
      </trkpt>
      <trkpt lat="42.156088" lon="1.678929">
        <ele>916.9</ele>
        <time>2012-05-13T13:17:44Z</time>
      </trkpt>
      <trkpt lat="42.156195" lon="1.678967">
        <ele>913.1</ele>
        <time>2012-05-13T13:18:24Z</time>
      </trkpt>
      <trkpt lat="42.156303" lon="1.679005">
        <ele>910.7</ele>
        <time>2012-05-13T13:19:04Z</time>
      </trkpt>
      <trkpt lat="42.156410" lon="1.679043">
        <ele>909.9</ele>
        <time>2012-05-13T13:19:44Z</time>
      </trkpt>
      <trkpt lat="42.156404" lon="1.678888">
        <ele>913.2</ele>
        <time>2012-05-13T13:20:24Z</time>
      </trkpt>
      <trkpt lat="42.156398" lon="1.678732">
        <ele>916.7</ele>
        <time>2012-05-13T13:21:04Z</time>
      </trkpt>
      <trkpt lat="42.156392" lon="1.678577">
        <ele>918.8</ele>
        <time>2012-05-13T13:21:44Z</time>
      </trkpt>
      <trkpt lat="42.156390" lon="1.678430">
        <ele>920.8</ele>
        <time>2012-05-13T13:22:24Z</time>
      </trkpt>
      <trkpt lat="42.156389" lon="1.678284">
        <ele>923.6</ele>
        <time>2012-05-13T13:23:04Z</time>
      </trkpt>
      <trkpt lat="42.156473" lon="1.678377">
        <ele>927.2</ele>
        <time>2012-05-13T13:23:44Z</time>
      </trkpt>
      <trkpt lat="42.156558" lon="1.678470">
        <ele>929.1</ele>
        <time>2012-05-13T13:24:24Z</time>
      </trkpt>
      <trkpt lat="42.156661" lon="1.678485">
        <ele>933.0</ele>
        <time>2012-05-13T13:25:04Z</time>
      </trkpt>
      <trkpt lat="42.156764" lon="1.678500">
        <ele>936.3</ele>
        <time>2012-05-13T13:25:44Z</time>
      </trkpt>
      <trkpt lat="42.156724" lon="1.678397">
        <ele>937.3</ele>
        <time>2012-05-13T13:26:24Z</time>
      </trkpt>
      <trkpt lat="42.156684" lon="1.678295">
        <ele>938.2</ele>
        <time>2012-05-13T13:27:04Z</time>
      </trkpt>
      <trkpt lat="42.156665" lon="1.678134">
        <ele>941.5</ele>
        <time>2012-05-13T13:27:44Z</time>
      </trkpt>
      <trkpt lat="42.156646" lon="1.677973">
        <ele>944.6</ele>
        <time>2012-05-13T13:28:24Z</time>
      </trkpt>
      <trkpt lat="42.156627" lon="1.677813">
        <ele>946.6</ele>
        <time>2012-05-13T13:29:04Z</time>
      </trkpt>
      <trkpt lat="42.156583" lon="1.677676">
        <ele>947.3</ele>
        <time>2012-05-13T13:29:44Z</time>
      </trkpt>
      <trkpt lat="42.156538" lon="1.677539">
        <ele>948.7</ele>
        <time>2012-05-13T13:30:24Z</time>
      </trkpt>
      <trkpt lat="42.156494" lon="1.677401">
        <ele>950.6</ele>
        <time>2012-05-13T13:31:04Z</time>
      </trkpt>
      <trkpt lat="42.156476" lon="1.677238">
        <ele>952.4</ele>
        <time>2012-05-13T13:31:44Z</time>
      </trkpt>
      <trkpt lat="42.156458" lon="1.677074">
        <ele>955.1</ele>
        <time>2012-05-13T13:32:24Z</time>
      </trkpt>
      <trkpt lat="42.156440" lon="1.676911">
        <ele>958.1</ele>
        <time>2012-05-13T13:33:04Z</time>
      </trkpt>
      <trkpt lat="42.156422" lon="1.676747">
        <ele>960.7</ele>
        <time>2012-05-13T13:33:44Z</time>
      </trkpt>
      <trkpt lat="42.156399" lon="1.676586">
        <ele>963.9</ele>
        <time>2012-05-13T13:34:24Z</time>
      </trkpt>
      <trkpt lat="42.156376" lon="1.676426">
        <ele>967.3</ele>
        <time>2012-05-13T13:35:04Z</time>
      </trkpt>
      <trkpt lat="42.156353" lon="1.676265">
        <ele>970.3</ele>
        <time>2012-05-13T13:35:44Z</time>
      </trkpt>
      <trkpt lat="42.156274" lon="1.676153">
        <ele>970.5</ele>
        <time>2012-05-13T13:36:24Z</time>
      </trkpt>
      <trkpt lat="42.156196" lon="1.676041">
        <ele>972.7</ele>
        <time>2012-05-13T13:37:04Z</time>
      </trkpt>
      <trkpt lat="42.156117" lon="1.675928">
        <ele>975.2</ele>
        <time>2012-05-13T13:37:44Z</time>
      </trkpt>
      <trkpt lat="42.156039" lon="1.675816">
        <ele>977.5</ele>
        <time>2012-05-13T13:38:24Z</time>
      </trkpt>
      <trkpt lat="42.155961" lon="1.675704">
        <ele>980.0</ele>
        <time>2012-05-13T13:39:04Z</time>
      </trkpt>
      <trkpt lat="42.155917" lon="1.675584">
        <ele>982.1</ele>
        <time>2012-05-13T13:39:44Z</time>
      </trkpt>
      <trkpt lat="42.155872" lon="1.675464">
        <ele>983.8</ele>
        <time>2012-05-13T13:40:24Z</time>
      </trkpt>
      <trkpt lat="42.155828" lon="1.675344">
        <ele>985.7</ele>
        <time>2012-05-13T13:41:04Z</time>
      </trkpt>
      <trkpt lat="42.155829" lon="1.675186">
        <ele>988.8</ele>
        <time>2012-05-13T13:41:44Z</time>
      </trkpt>
      <trkpt lat="42.155829" lon="1.675028">
        <ele>990.8</ele>
        <time>2012-05-13T13:42:24Z</time>
      </trkpt>
      <trkpt lat="42.155829" lon="1.674869">
        <ele>991.5</ele>
        <time>2012-05-13T13:43:04Z</time>
      </trkpt>
      <trkpt lat="42.155829" lon="1.674711">
        <ele>993.3</ele>
        <time>2012-05-13T13:43:44Z</time>
      </trkpt>
      <trkpt lat="42.155830" lon="1.674553">
        <ele>995.0</ele>
        <time>2012-05-13T13:44:24Z</time>
      </trkpt>
      <trkpt lat="42.155830" lon="1.674395">
        <ele>996.9</ele>
        <time>2012-05-13T13:45:04Z</time>
      </trkpt>
      <trkpt lat="42.155818" lon="1.674229">
        <ele>999.5</ele>
        <time>2012-05-13T13:45:44Z</time>
      </trkpt>
      <trkpt lat="42.155806" lon="1.674064">
        <ele>1002.3</ele>
        <time>2012-05-13T13:46:24Z</time>
      </trkpt>
      <trkpt lat="42.155793" lon="1.673899">
        <ele>1005.1</ele>
        <time>2012-05-13T13:47:04Z</time>
      </trkpt>
      <trkpt lat="42.155781" lon="1.673733">
        <ele>1008.3</ele>
        <time>2012-05-13T13:47:44Z</time>
      </trkpt>
      <trkpt lat="42.155769" lon="1.673568">
        <ele>1011.2</ele>
        <time>2012-05-13T13:48:24Z</time>
      </trkpt>
      <trkpt lat="42.155806" lon="1.673399">
        <ele>1015.7</ele>
        <time>2012-05-13T13:49:04Z</time>
      </trkpt>
      <trkpt lat="42.155842" lon="1.673230">
        <ele>1019.4</ele>
        <time>2012-05-13T13:49:44Z</time>
      </trkpt>
      <trkpt lat="42.155879" lon="1.673061">
        <ele>1022.1</ele>
        <time>2012-05-13T13:50:24Z</time>
      </trkpt>
      <trkpt lat="42.155915" lon="1.672892">
        <ele>1022.6</ele>
        <time>2012-05-13T13:51:04Z</time>
      </trkpt>
      <trkpt lat="42.155895" lon="1.672762">
        <ele>1020.1</ele>
        <time>2012-05-13T13:51:44Z</time>
      </trkpt>
      <trkpt lat="42.155874" lon="1.672634">
        <ele>1019.8</ele>
        <time>2012-05-13T13:52:24Z</time>
      </trkpt>
      <trkpt lat="42.155840" lon="1.672496">
        <ele>1022.4</ele>
        <time>2012-05-13T13:53:04Z</time>
      </trkpt>
      <trkpt lat="42.155807" lon="1.672359">
        <ele>1024.8</ele>
        <time>2012-05-13T13:53:44Z</time>
      </trkpt>
      <trkpt lat="42.155773" lon="1.672221">
        <ele>1026.9</ele>
        <time>2012-05-13T13:54:24Z</time>
      </trkpt>
      <trkpt lat="42.155739" lon="1.672084">
        <ele>1029.4</ele>
        <time>2012-05-13T13:55:04Z</time>
      </trkpt>
      <trkpt lat="42.155802" lon="1.671971">
        <ele>1028.9</ele>
        <time>2012-05-13T13:55:44Z</time>
      </trkpt>
      <trkpt lat="42.155865" lon="1.671857">
        <ele>1030.0</ele>
        <time>2012-05-13T13:56:24Z</time>
      </trkpt>
      <trkpt lat="42.155934" lon="1.671718">
        <ele>1031.2</ele>
        <time>2012-05-13T13:57:04Z</time>
      </trkpt>
      <trkpt lat="42.156003" lon="1.671578">
        <ele>1033.7</ele>
        <time>2012-05-13T13:57:44Z</time>
      </trkpt>
      <trkpt lat="42.156072" lon="1.671439">
        <ele>1034.9</ele>
        <time>2012-05-13T13:58:24Z</time>
      </trkpt>
      <trkpt lat="42.156141" lon="1.671299">
        <ele>1037.4</ele>
        <time>2012-05-13T13:59:04Z</time>
      </trkpt>
      <trkpt lat="42.156223" lon="1.671202">
        <ele>1039.4</ele>
        <time>2012-05-13T13:59:44Z</time>
      </trkpt>
      <trkpt lat="42.156306" lon="1.671106">
        <ele>1041.1</ele>
        <time>2012-05-13T14:00:24Z</time>
      </trkpt>
      <trkpt lat="42.156388" lon="1.671009">
        <ele>1040.6</ele>
        <time>2012-05-13T14:01:04Z</time>
      </trkpt>
      <trkpt lat="42.156470" lon="1.670912">
        <ele>1042.4</ele>
        <time>2012-05-13T14:01:44Z</time>
      </trkpt>
      <trkpt lat="42.156512" lon="1.670802">
        <ele>1044.6</ele>
        <time>2012-05-13T14:02:24Z</time>
      </trkpt>
      <trkpt lat="42.156553" lon="1.670692">
        <ele>1047.4</ele>
        <time>2012-05-13T14:03:04Z</time>
      </trkpt>
      <trkpt lat="42.156595" lon="1.670582">
        <ele>1049.2</ele>
        <time>2012-05-13T14:03:44Z</time>
      </trkpt>
      <trkpt lat="42.156615" lon="1.670455">
        <ele>1051.0</ele>
        <time>2012-05-13T14:04:24Z</time>
      </trkpt>
      <trkpt lat="42.156635" lon="1.670328">
        <ele>1052.0</ele>
        <time>2012-05-13T14:05:04Z</time>
      </trkpt>
      <trkpt lat="42.156655" lon="1.670201">
        <ele>1052.6</ele>
        <time>2012-05-13T14:05:44Z</time>
      </trkpt>
      <trkpt lat="42.156763" lon="1.670104">
        <ele>1052.7</ele>
        <time>2012-05-13T14:06:24Z</time>
      </trkpt>
      <trkpt lat="42.156871" lon="1.670007">
        <ele>1053.7</ele>
        <time>2012-05-13T14:07:04Z</time>
      </trkpt>
      <trkpt lat="42.156967" lon="1.670004">
        <ele>1053.5</ele>
        <time>2012-05-13T14:07:44Z</time>
      </trkpt>
      <trkpt lat="42.157063" lon="1.670002">
        <ele>1054.2</ele>
        <time>2012-05-13T14:08:24Z</time>
      </trkpt>
      <trkpt lat="42.157180" lon="1.670086">
        <ele>1058.8</ele>
        <time>2012-05-13T14:09:04Z</time>
      </trkpt>
      <trkpt lat="42.157264" lon="1.669952">
        <ele>1061.6</ele>
        <time>2012-05-13T14:09:44Z</time>
      </trkpt>
      <trkpt lat="42.157348" lon="1.669818">
        <ele>1064.1</ele>
        <time>2012-05-13T14:10:24Z</time>
      </trkpt>
      <trkpt lat="42.157432" lon="1.669684">
        <ele>1066.6</ele>
        <time>2012-05-13T14:11:04Z</time>
      </trkpt>
      <trkpt lat="42.157541" lon="1.669582">
        <ele>1070.1</ele>
        <time>2012-05-13T14:11:44Z</time>
      </trkpt>
      <trkpt lat="42.157651" lon="1.669479">
        <ele>1072.2</ele>
        <time>2012-05-13T14:12:24Z</time>
      </trkpt>
      <trkpt lat="42.157760" lon="1.669377">
        <ele>1073.1</ele>
        <time>2012-05-13T14:13:04Z</time>
      </trkpt>
      <trkpt lat="42.157869" lon="1.669274">
        <ele>1075.5</ele>
        <time>2012-05-13T14:13:44Z</time>
      </trkpt>
      <trkpt lat="42.157978" lon="1.669172">
        <ele>1078.6</ele>
        <time>2012-05-13T14:14:24Z</time>
      </trkpt>
      <trkpt lat="42.158100" lon="1.669135">
        <ele>1082.3</ele>
        <time>2012-05-13T14:15:04Z</time>
      </trkpt>
      <trkpt lat="42.158222" lon="1.669098">
        <ele>1085.7</ele>
        <time>2012-05-13T14:15:44Z</time>
      </trkpt>
      <trkpt lat="42.158198" lon="1.668937">
        <ele>1084.4</ele>
        <time>2012-05-13T14:16:24Z</time>
      </trkpt>
      <trkpt lat="42.158175" lon="1.668777">
        <ele>1084.2</ele>
        <time>2012-05-13T14:17:04Z</time>
      </trkpt>
      <trkpt lat="42.158152" lon="1.668616">
        <ele>1082.4</ele>
        <time>2012-05-13T14:17:44Z</time>
      </trkpt>
      <trkpt lat="42.158281" lon="1.668657">
        <ele>1088.1</ele>
        <time>2012-05-13T14:18:24Z</time>
      </trkpt>
      <trkpt lat="42.158409" lon="1.668697">
        <ele>1091.4</ele>
        <time>2012-05-13T14:19:04Z</time>
      </trkpt>
      <trkpt lat="42.158538" lon="1.668738">
        <ele>1094.8</ele>
        <time>2012-05-13T14:19:44Z</time>
      </trkpt>
      <trkpt lat="42.158667" lon="1.668778">
        <ele>1098.7</ele>
        <time>2012-05-13T14:20:24Z</time>
      </trkpt>
      <trkpt lat="42.158789" lon="1.668793">
        <ele>1102.3</ele>
        <time>2012-05-13T14:21:04Z</time>
      </trkpt>
      <trkpt lat="42.158912" lon="1.668807">
        <ele>1106.4</ele>
        <time>2012-05-13T14:21:44Z</time>
      </trkpt>
      <trkpt lat="42.158899" lon="1.668877">
        <ele>1107.6</ele>
        <time>2012-05-13T14:22:24Z</time>
      </trkpt>
      <trkpt lat="42.158863" lon="1.669015">
        <ele>1110.3</ele>
        <time>2012-05-13T14:23:04Z</time>
      </trkpt>
      <trkpt lat="42.158826" lon="1.669154">
        <ele>1112.0</ele>
        <time>2012-05-13T14:23:44Z</time>
      </trkpt>
      <trkpt lat="42.158758" lon="1.669259">
        <ele>1112.1</ele>
        <time>2012-05-13T14:24:24Z</time>
      </trkpt>
      <trkpt lat="42.158691" lon="1.669364">
        <ele>1111.5</ele>
        <time>2012-05-13T14:25:04Z</time>
      </trkpt>
      <trkpt lat="42.158624" lon="1.669469">
        <ele>1110.8</ele>
        <time>2012-05-13T14:25:44Z</time>
      </trkpt>
      <trkpt lat="42.158587" lon="1.669639">
        <ele>1112.3</ele>
        <time>2012-05-13T14:26:24Z</time>
      </trkpt>
      <trkpt lat="42.158551" lon="1.669809">
        <ele>1113.5</ele>
        <time>2012-05-13T14:27:04Z</time>
      </trkpt>
      <trkpt lat="42.158514" lon="1.669979">
        <ele>1116.9</ele>
        <time>2012-05-13T14:27:44Z</time>
      </trkpt>
      <trkpt lat="42.158478" lon="1.670149">
        <ele>1120.3</ele>
        <time>2012-05-13T14:28:24Z</time>
      </trkpt>
      <trkpt lat="42.158441" lon="1.670319">
        <ele>1122.9</ele>
        <time>2012-05-13T14:29:04Z</time>
      </trkpt>
      <trkpt lat="42.158441" lon="1.670481">
        <ele>1125.0</ele>
        <time>2012-05-13T14:29:44Z</time>
      </trkpt>
      <trkpt lat="42.158442" lon="1.670642">
        <ele>1127.4</ele>
        <time>2012-05-13T14:30:24Z</time>
      </trkpt>
      <trkpt lat="42.158442" lon="1.670804">
        <ele>1129.7</ele>
        <time>2012-05-13T14:31:04Z</time>
      </trkpt>
      <trkpt lat="42.158442" lon="1.670966">
        <ele>1131.3</ele>
        <time>2012-05-13T14:31:44Z</time>
      </trkpt>
      <trkpt lat="42.158443" lon="1.671128">
        <ele>1133.0</ele>
        <time>2012-05-13T14:32:24Z</time>
      </trkpt>
      <trkpt lat="42.158443" lon="1.671290">
        <ele>1135.0</ele>
        <time>2012-05-13T14:33:04Z</time>
      </trkpt>
      <trkpt lat="42.158443" lon="1.671451">
        <ele>1137.1</ele>
        <time>2012-05-13T14:33:44Z</time>
      </trkpt>
      <trkpt lat="42.158443" lon="1.671451">
        <ele>1137.1</ele>
        <time>2012-05-13T14:34:24Z</time>
      </trkpt>
      <trkpt lat="42.158443" lon="1.671613">
        <ele>1139.3</ele>
        <time>2012-05-13T14:35:04Z</time>
      </trkpt>
      <trkpt lat="42.158403" lon="1.671739">
        <ele>1139.9</ele>
        <time>2012-05-13T14:35:44Z</time>
      </trkpt>
      <trkpt lat="42.158363" lon="1.671865">
        <ele>1141.6</ele>
        <time>2012-05-13T14:36:24Z</time>
      </trkpt>
      <trkpt lat="42.158323" lon="1.671991">
        <ele>1144.1</ele>
        <time>2012-05-13T14:37:04Z</time>
      </trkpt>
      <trkpt lat="42.158282" lon="1.672117">
        <ele>1146.7</ele>
        <time>2012-05-13T14:37:44Z</time>
      </trkpt>
      <trkpt lat="42.158187" lon="1.672240">
        <ele>1145.9</ele>
        <time>2012-05-13T14:38:24Z</time>
      </trkpt>
      <trkpt lat="42.158092" lon="1.672363">
        <ele>1143.9</ele>
        <time>2012-05-13T14:39:04Z</time>
      </trkpt>
      <trkpt lat="42.158107" lon="1.672535">
        <ele>1148.5</ele>
        <time>2012-05-13T14:39:44Z</time>
      </trkpt>
      <trkpt lat="42.158193" lon="1.672493">
        <ele>1152.8</ele>
        <time>2012-05-13T14:40:24Z</time>
      </trkpt>
      <trkpt lat="42.158277" lon="1.672451">
        <ele>1156.1</ele>
        <time>2012-05-13T14:41:04Z</time>
      </trkpt>
      <trkpt lat="42.158363" lon="1.672409">
        <ele>1158.5</ele>
        <time>2012-05-13T14:41:44Z</time>
      </trkpt>
      <trkpt lat="42.158462" lon="1.672381">
        <ele>1160.9</ele>
        <time>2012-05-13T14:42:24Z</time>
      </trkpt>
      <trkpt lat="42.158561" lon="1.672353">
        <ele>1163.1</ele>
        <time>2012-05-13T14:43:04Z</time>
      </trkpt>
      <trkpt lat="42.158660" lon="1.672325">
        <ele>1165.6</ele>
        <time>2012-05-13T14:43:44Z</time>
      </trkpt>
      <trkpt lat="42.158759" lon="1.672297">
        <ele>1168.2</ele>
        <time>2012-05-13T14:44:24Z</time>
      </trkpt>
      <trkpt lat="42.158796" lon="1.672132">
        <ele>1163.8</ele>
        <time>2012-05-13T14:45:04Z</time>
      </trkpt>
      <trkpt lat="42.158833" lon="1.671968">
        <ele>1162.2</ele>
        <time>2012-05-13T14:45:44Z</time>
      </trkpt>
      <trkpt lat="42.158913" lon="1.671859">
        <ele>1165.0</ele>
        <time>2012-05-13T14:46:24Z</time>
      </trkpt>
      <trkpt lat="42.158993" lon="1.671751">
        <ele>1167.1</ele>
        <time>2012-05-13T14:47:04Z</time>
      </trkpt>
      <trkpt lat="42.159073" lon="1.671643">
        <ele>1169.2</ele>
        <time>2012-05-13T14:47:44Z</time>
      </trkpt>
      <trkpt lat="42.159153" lon="1.671535">
        <ele>1170.7</ele>
        <time>2012-05-13T14:48:24Z</time>
      </trkpt>
      <trkpt lat="42.159233" lon="1.671427">
        <ele>1172.8</ele>
        <time>2012-05-13T14:49:04Z</time>
      </trkpt>
      <trkpt lat="42.159313" lon="1.671319">
        <ele>1175.8</ele>
        <time>2012-05-13T14:49:44Z</time>
      </trkpt>
      <trkpt lat="42.159376" lon="1.671447">
        <ele>1178.4</ele>
        <time>2012-05-13T14:50:24Z</time>
      </trkpt>
      <trkpt lat="42.159438" lon="1.671575">
        <ele>1181.7</ele>
        <time>2012-05-13T14:51:04Z</time>
      </trkpt>
      <trkpt lat="42.159501" lon="1.671703">
        <ele>1185.9</ele>
        <time>2012-05-13T14:51:44Z</time>
      </trkpt>
      <trkpt lat="42.159563" lon="1.671831">
        <ele>1188.2</ele>
        <time>2012-05-13T14:52:24Z</time>
      </trkpt>
      <trkpt lat="42.159662" lon="1.671887">
        <ele>1191.5</ele>
        <time>2012-05-13T14:53:04Z</time>
      </trkpt>
      <trkpt lat="42.159761" lon="1.671942">
        <ele>1193.7</ele>
        <time>2012-05-13T14:53:44Z</time>
      </trkpt>
      <trkpt lat="42.159860" lon="1.671998">
        <ele>1196.7</ele>
        <time>2012-05-13T14:54:24Z</time>
      </trkpt>
      <trkpt lat="42.159977" lon="1.672082">
        <ele>1201.2</ele>
        <time>2012-05-13T14:55:04Z</time>
      </trkpt>
      <trkpt lat="42.160094" lon="1.672166">
        <ele>1205.0</ele>
        <time>2012-05-13T14:55:44Z</time>
      </trkpt>
      <trkpt lat="42.160202" lon="1.672129">
        <ele>1207.1</ele>
        <time>2012-05-13T14:56:24Z</time>
      </trkpt>
      <trkpt lat="42.160311" lon="1.672092">
        <ele>1208.7</ele>
        <time>2012-05-13T14:57:04Z</time>
      </trkpt>
      <trkpt lat="42.160315" lon="1.672097">
        <ele>1208.8</ele>
        <time>2012-05-13T14:57:44Z</time>
      </trkpt>
      <trkpt lat="42.160361" lon="1.672206">
        <ele>1211.4</ele>
        <time>2012-05-13T14:58:24Z</time>
      </trkpt>
      <trkpt lat="42.160408" lon="1.672314">
        <ele>1213.9</ele>
        <time>2012-05-13T14:59:04Z</time>
      </trkpt>
      <trkpt lat="42.160454" lon="1.672423">
        <ele>1216.1</ele>
        <time>2012-05-13T14:59:44Z</time>
      </trkpt>
      <trkpt lat="42.160471" lon="1.672588">
        <ele>1216.5</ele>
        <time>2012-05-13T15:00:24Z</time>
      </trkpt>
      <trkpt lat="42.160488" lon="1.672754">
        <ele>1217.9</ele>
        <time>2012-05-13T15:01:04Z</time>
      </trkpt>
      <trkpt lat="42.160505" lon="1.672920">
        <ele>1219.7</ele>
        <time>2012-05-13T15:01:44Z</time>
      </trkpt>
      <trkpt lat="42.160446" lon="1.673051">
        <ele>1220.5</ele>
        <time>2012-05-13T15:02:24Z</time>
      </trkpt>
      <trkpt lat="42.160388" lon="1.673182">
        <ele>1221.4</ele>
        <time>2012-05-13T15:03:04Z</time>
      </trkpt>
      <trkpt lat="42.160329" lon="1.673312">
        <ele>1222.7</ele>
        <time>2012-05-13T15:03:44Z</time>
      </trkpt>
      <trkpt lat="42.160273" lon="1.673419">
        <ele>1223.1</ele>
        <time>2012-05-13T15:04:24Z</time>
      </trkpt>
      <trkpt lat="42.160217" lon="1.673525">
        <ele>1223.1</ele>
        <time>2012-05-13T15:05:04Z</time>
      </trkpt>
      <trkpt lat="42.160161" lon="1.673632">
        <ele>1223.6</ele>
        <time>2012-05-13T15:05:44Z</time>
      </trkpt>
      <trkpt lat="42.160147" lon="1.673790">
        <ele>1225.5</ele>
        <time>2012-05-13T15:06:24Z</time>
      </trkpt>
      <trkpt lat="42.160133" lon="1.673949">
        <ele>1227.0</ele>
        <time>2012-05-13T15:07:04Z</time>
      </trkpt>
      <trkpt lat="42.160119" lon="1.674107">
        <ele>1228.1</ele>
        <time>2012-05-13T15:07:44Z</time>
      </trkpt>
      <trkpt lat="42.160105" lon="1.674265">
        <ele>1229.1</ele>
        <time>2012-05-13T15:08:24Z</time>
      </trkpt>
      <trkpt lat="42.160102" lon="1.674411">
        <ele>1230.2</ele>
        <time>2012-05-13T15:09:04Z</time>
      </trkpt>
      <trkpt lat="42.160099" lon="1.674557">
        <ele>1231.2</ele>
        <time>2012-05-13T15:09:44Z</time>
      </trkpt>
      <trkpt lat="42.160096" lon="1.674703">
        <ele>1232.0</ele>
        <time>2012-05-13T15:10:24Z</time>
      </trkpt>
      <trkpt lat="42.160094" lon="1.674849">
        <ele>1232.8</ele>
        <time>2012-05-13T15:11:04Z</time>
      </trkpt>
      <trkpt lat="42.160101" lon="1.675019">
        <ele>1234.1</ele>
        <time>2012-05-13T15:11:44Z</time>
      </trkpt>
      <trkpt lat="42.160109" lon="1.675189">
        <ele>1235.3</ele>
        <time>2012-05-13T15:12:24Z</time>
      </trkpt>
      <trkpt lat="42.160104" lon="1.675316">
        <ele>1235.4</ele>
        <time>2012-05-13T15:13:04Z</time>
      </trkpt>
      <trkpt lat="42.160046" lon="1.675463">
        <ele>1232.7</ele>
        <time>2012-05-13T15:13:44Z</time>
      </trkpt>
      <trkpt lat="42.159989" lon="1.675609">
        <ele>1229.4</ele>
        <time>2012-05-13T15:14:24Z</time>
      </trkpt>
      <trkpt lat="42.159931" lon="1.675755">
        <ele>1225.7</ele>
        <time>2012-05-13T15:15:04Z</time>
      </trkpt>
      <trkpt lat="42.159873" lon="1.675902">
        <ele>1223.2</ele>
        <time>2012-05-13T15:15:44Z</time>
      </trkpt>
      <trkpt lat="42.159816" lon="1.676048">
        <ele>1220.4</ele>
        <time>2012-05-13T15:16:24Z</time>
      </trkpt>
      <trkpt lat="42.159847" lon="1.676209">
        <ele>1213.3</ele>
        <time>2012-05-13T15:17:04Z</time>
      </trkpt>
      <trkpt lat="42.159879" lon="1.676371">
        <ele>1201.3</ele>
        <time>2012-05-13T15:17:44Z</time>
      </trkpt>
      <trkpt lat="42.159910" lon="1.676533">
        <ele>1188.0</ele>
        <time>2012-05-13T15:18:24Z</time>
      </trkpt>
      <trkpt lat="42.159941" lon="1.676694">
        <ele>1175.8</ele>
        <time>2012-05-13T15:19:04Z</time>
      </trkpt>
      <trkpt lat="42.159973" lon="1.676856">
        <ele>1165.5</ele>
        <time>2012-05-13T15:19:44Z</time>
      </trkpt>
      <trkpt lat="42.160097" lon="1.676787">
        <ele>1162.1</ele>
        <time>2012-05-13T15:20:24Z</time>
      </trkpt>
      <trkpt lat="42.160221" lon="1.676718">
        <ele>1160.6</ele>
        <time>2012-05-13T15:21:04Z</time>
      </trkpt>
      <trkpt lat="42.160346" lon="1.676650">
        <ele>1161.8</ele>
        <time>2012-05-13T15:21:44Z</time>
      </trkpt>
      <trkpt lat="42.160462" lon="1.676663">
        <ele>1153.8</ele>
        <time>2012-05-13T15:22:24Z</time>
      </trkpt>
      <trkpt lat="42.160580" lon="1.676676">
        <ele>1146.9</ele>
        <time>2012-05-13T15:23:04Z</time>
      </trkpt>
      <trkpt lat="42.160697" lon="1.676689">
        <ele>1143.5</ele>
        <time>2012-05-13T15:23:44Z</time>
      </trkpt>
      <trkpt lat="42.160814" lon="1.676702">
        <ele>1138.3</ele>
        <time>2012-05-13T15:24:24Z</time>
      </trkpt>
      <trkpt lat="42.160930" lon="1.676715">
        <ele>1134.6</ele>
        <time>2012-05-13T15:25:04Z</time>
      </trkpt>
      <trkpt lat="42.161047" lon="1.676728">
        <ele>1130.5</ele>
        <time>2012-05-13T15:25:44Z</time>
      </trkpt>
      <trkpt lat="42.161164" lon="1.676741">
        <ele>1132.6</ele>
        <time>2012-05-13T15:26:24Z</time>
      </trkpt>
      <trkpt lat="42.161295" lon="1.676756">
        <ele>1140.8</ele>
        <time>2012-05-13T15:27:04Z</time>
      </trkpt>
      <trkpt lat="42.161426" lon="1.676771">
        <ele>1136.0</ele>
        <time>2012-05-13T15:27:44Z</time>
      </trkpt>
      <trkpt lat="42.161557" lon="1.676786">
        <ele>1124.4</ele>
        <time>2012-05-13T15:28:24Z</time>
      </trkpt>
      <trkpt lat="42.161688" lon="1.676802">
        <ele>1114.2</ele>
        <time>2012-05-13T15:29:04Z</time>
      </trkpt>
      <trkpt lat="42.161808" lon="1.676796">
        <ele>1108.1</ele>
        <time>2012-05-13T15:29:44Z</time>
      </trkpt>
      <trkpt lat="42.161929" lon="1.676789">
        <ele>1105.1</ele>
        <time>2012-05-13T15:30:24Z</time>
      </trkpt>
      <trkpt lat="42.162050" lon="1.676783">
        <ele>1105.0</ele>
        <time>2012-05-13T15:31:04Z</time>
      </trkpt>
      <trkpt lat="42.162170" lon="1.676777">
        <ele>1103.9</ele>
        <time>2012-05-13T15:31:44Z</time>
      </trkpt>
      <trkpt lat="42.162291" lon="1.676771">
        <ele>1095.1</ele>
        <time>2012-05-13T15:32:24Z</time>
      </trkpt>
      <trkpt lat="42.162392" lon="1.676708">
        <ele>1098.7</ele>
        <time>2012-05-13T15:33:04Z</time>
      </trkpt>
      <trkpt lat="42.162493" lon="1.676645">
        <ele>1103.6</ele>
        <time>2012-05-13T15:33:44Z</time>
      </trkpt>
      <trkpt lat="42.162594" lon="1.676581">
        <ele>1100.8</ele>
        <time>2012-05-13T15:34:24Z</time>
      </trkpt>
      <trkpt lat="42.162695" lon="1.676518">
        <ele>1093.4</ele>
        <time>2012-05-13T15:35:04Z</time>
      </trkpt>
      <trkpt lat="42.162797" lon="1.676454">
        <ele>1083.7</ele>
        <time>2012-05-13T15:35:44Z</time>
      </trkpt>
      <trkpt lat="42.162917" lon="1.676429">
        <ele>1076.9</ele>
        <time>2012-05-13T15:36:24Z</time>
      </trkpt>
      <trkpt lat="42.163037" lon="1.676404">
        <ele>1072.5</ele>
        <time>2012-05-13T15:37:04Z</time>
      </trkpt>
      <trkpt lat="42.163157" lon="1.676379">
        <ele>1070.0</ele>
        <time>2012-05-13T15:37:44Z</time>
      </trkpt>
      <trkpt lat="42.163278" lon="1.676354">
        <ele>1071.5</ele>
        <time>2012-05-13T15:38:24Z</time>
      </trkpt>
      <trkpt lat="42.163385" lon="1.676388">
        <ele>1074.7</ele>
        <time>2012-05-13T15:39:04Z</time>
      </trkpt>
      <trkpt lat="42.163493" lon="1.676422">
        <ele>1079.3</ele>
        <time>2012-05-13T15:39:44Z</time>
      </trkpt>
      <trkpt lat="42.163601" lon="1.676456">
        <ele>1087.1</ele>
        <time>2012-05-13T15:40:24Z</time>
      </trkpt>
      <trkpt lat="42.163708" lon="1.676489">
        <ele>1089.0</ele>
        <time>2012-05-13T15:41:04Z</time>
      </trkpt>
      <trkpt lat="42.163815" lon="1.676440">
        <ele>1088.1</ele>
        <time>2012-05-13T15:41:44Z</time>
      </trkpt>
      <trkpt lat="42.163922" lon="1.676391">
        <ele>1084.5</ele>
        <time>2012-05-13T15:42:24Z</time>
      </trkpt>
      <trkpt lat="42.164028" lon="1.676342">
        <ele>1079.2</ele>
        <time>2012-05-13T15:43:04Z</time>
      </trkpt>
      <trkpt lat="42.164135" lon="1.676293">
        <ele>1073.8</ele>
        <time>2012-05-13T15:43:44Z</time>
      </trkpt>
      <trkpt lat="42.164242" lon="1.676244">
        <ele>1067.8</ele>
        <time>2012-05-13T15:44:24Z</time>
      </trkpt>
      <trkpt lat="42.164339" lon="1.676134">
        <ele>1065.3</ele>
        <time>2012-05-13T15:45:04Z</time>
      </trkpt>
      <trkpt lat="42.164436" lon="1.676024">
        <ele>1062.0</ele>
        <time>2012-05-13T15:45:44Z</time>
      </trkpt>
      <trkpt lat="42.164533" lon="1.675914">
        <ele>1057.6</ele>
        <time>2012-05-13T15:46:24Z</time>
      </trkpt>
      <trkpt lat="42.164630" lon="1.675803">
        <ele>1053.5</ele>
        <time>2012-05-13T15:47:04Z</time>
      </trkpt>
      <trkpt lat="42.164727" lon="1.675693">
        <ele>1048.8</ele>
        <time>2012-05-13T15:47:44Z</time>
      </trkpt>
      <trkpt lat="42.164824" lon="1.675583">
        <ele>1047.1</ele>
        <time>2012-05-13T15:48:24Z</time>
      </trkpt>
      <trkpt lat="42.164921" lon="1.675473">
        <ele>1045.0</ele>
        <time>2012-05-13T15:49:04Z</time>
      </trkpt>
      <trkpt lat="42.165018" lon="1.675363">
        <ele>1045.5</ele>
        <time>2012-05-13T15:49:44Z</time>
      </trkpt>
      <trkpt lat="42.165115" lon="1.675253">
        <ele>1047.5</ele>
        <time>2012-05-13T15:50:24Z</time>
      </trkpt>
      <trkpt lat="42.165232" lon="1.675183">
        <ele>1042.1</ele>
        <time>2012-05-13T15:51:04Z</time>
      </trkpt>
      <trkpt lat="42.165348" lon="1.675113">
        <ele>1035.5</ele>
        <time>2012-05-13T15:51:44Z</time>
      </trkpt>
      <trkpt lat="42.165465" lon="1.675043">
        <ele>1033.4</ele>
        <time>2012-05-13T15:52:24Z</time>
      </trkpt>
      <trkpt lat="42.165581" lon="1.674973">
        <ele>1032.3</ele>
        <time>2012-05-13T15:53:04Z</time>
      </trkpt>
      <trkpt lat="42.165543" lon="1.675118">
        <ele>1030.5</ele>
        <time>2012-05-13T15:53:44Z</time>
      </trkpt>
      <trkpt lat="42.165504" lon="1.675263">
        <ele>1028.6</ele>
        <time>2012-05-13T15:54:24Z</time>
      </trkpt>
      <trkpt lat="42.165465" lon="1.675408">
        <ele>1028.9</ele>
        <time>2012-05-13T15:55:04Z</time>
      </trkpt>
      <trkpt lat="42.165427" lon="1.675553">
        <ele>1035.5</ele>
        <time>2012-05-13T15:55:44Z</time>
      </trkpt>
      <trkpt lat="42.165359" lon="1.675684">
        <ele>1034.8</ele>
        <time>2012-05-13T15:56:24Z</time>
      </trkpt>
      <trkpt lat="42.165291" lon="1.675815">
        <ele>1032.2</ele>
        <time>2012-05-13T15:57:04Z</time>
      </trkpt>
      <trkpt lat="42.165222" lon="1.675946">
        <ele>1033.8</ele>
        <time>2012-05-13T15:57:44Z</time>
      </trkpt>
      <trkpt lat="42.165154" lon="1.676077">
        <ele>1038.9</ele>
        <time>2012-05-13T15:58:24Z</time>
      </trkpt>
      <trkpt lat="42.165086" lon="1.676208">
        <ele>1039.7</ele>
        <time>2012-05-13T15:59:04Z</time>
      </trkpt>
      <trkpt lat="42.165045" lon="1.676375">
        <ele>1040.8</ele>
        <time>2012-05-13T15:59:44Z</time>
      </trkpt>
      <trkpt lat="42.165004" lon="1.676542">
        <ele>1042.0</ele>
        <time>2012-05-13T16:00:24Z</time>
      </trkpt>
      <trkpt lat="42.164963" lon="1.676708">
        <ele>1043.3</ele>
        <time>2012-05-13T16:01:04Z</time>
      </trkpt>
      <trkpt lat="42.164922" lon="1.676875">
        <ele>1046.8</ele>
        <time>2012-05-13T16:01:44Z</time>
      </trkpt>
      <trkpt lat="42.164881" lon="1.677041">
        <ele>1052.5</ele>
        <time>2012-05-13T16:02:24Z</time>
      </trkpt>
      <trkpt lat="42.164838" lon="1.677174">
        <ele>1056.4</ele>
        <time>2012-05-13T16:03:04Z</time>
      </trkpt>
      <trkpt lat="42.164795" lon="1.677308">
        <ele>1060.4</ele>
        <time>2012-05-13T16:03:44Z</time>
      </trkpt>
      <trkpt lat="42.164752" lon="1.677441">
        <ele>1065.0</ele>
        <time>2012-05-13T16:04:24Z</time>
      </trkpt>
      <trkpt lat="42.164760" lon="1.677576">
        <ele>1073.3</ele>
        <time>2012-05-13T16:05:04Z</time>
      </trkpt>
      <trkpt lat="42.164768" lon="1.677711">
        <ele>1075.2</ele>
        <time>2012-05-13T16:05:44Z</time>
      </trkpt>
      <trkpt lat="42.164804" lon="1.677872">
        <ele>1074.4</ele>
        <time>2012-05-13T16:06:24Z</time>
      </trkpt>
      <trkpt lat="42.164839" lon="1.678033">
        <ele>1069.8</ele>
        <time>2012-05-13T16:07:04Z</time>
      </trkpt>
      <trkpt lat="42.164874" lon="1.678195">
        <ele>1065.5</ele>
        <time>2012-05-13T16:07:44Z</time>
      </trkpt>
      <trkpt lat="42.164910" lon="1.678356">
        <ele>1063.0</ele>
        <time>2012-05-13T16:08:24Z</time>
      </trkpt>
      <trkpt lat="42.164938" lon="1.678530">
        <ele>1064.6</ele>
        <time>2012-05-13T16:09:04Z</time>
      </trkpt>
      <trkpt lat="42.164967" lon="1.678703">
        <ele>1068.6</ele>
        <time>2012-05-13T16:09:44Z</time>
      </trkpt>
      <trkpt lat="42.164996" lon="1.678877">
        <ele>1072.6</ele>
        <time>2012-05-13T16:10:24Z</time>
      </trkpt>
      <trkpt lat="42.164957" lon="1.678932">
        <ele>1073.4</ele>
        <time>2012-05-13T16:11:04Z</time>
      </trkpt>
      <trkpt lat="42.164862" lon="1.678857">
        <ele>1070.2</ele>
        <time>2012-05-13T16:11:44Z</time>
      </trkpt>
      <trkpt lat="42.164767" lon="1.678783">
        <ele>1071.0</ele>
        <time>2012-05-13T16:12:24Z</time>
      </trkpt>
      <trkpt lat="42.164672" lon="1.678708">
        <ele>1072.2</ele>
        <time>2012-05-13T16:13:04Z</time>
      </trkpt>
      <trkpt lat="42.164578" lon="1.678634">
        <ele>1074.2</ele>
        <time>2012-05-13T16:13:44Z</time>
      </trkpt>
      <trkpt lat="42.164453" lon="1.678600">
        <ele>1079.5</ele>
        <time>2012-05-13T16:14:24Z</time>
      </trkpt>
      <trkpt lat="42.164329" lon="1.678567">
        <ele>1081.7</ele>
        <time>2012-05-13T16:15:04Z</time>
      </trkpt>
      <trkpt lat="42.164205" lon="1.678533">
        <ele>1080.2</ele>
        <time>2012-05-13T16:15:44Z</time>
      </trkpt>
      <trkpt lat="42.164080" lon="1.678500">
        <ele>1080.7</ele>
        <time>2012-05-13T16:16:24Z</time>
      </trkpt>
      <trkpt lat="42.163986" lon="1.678496">
        <ele>1083.5</ele>
        <time>2012-05-13T16:17:04Z</time>
      </trkpt>
      <trkpt lat="42.163893" lon="1.678492">
        <ele>1083.3</ele>
        <time>2012-05-13T16:17:44Z</time>
      </trkpt>
      <trkpt lat="42.163799" lon="1.678488">
        <ele>1078.3</ele>
        <time>2012-05-13T16:18:24Z</time>
      </trkpt>
      <trkpt lat="42.163679" lon="1.678544">
        <ele>1080.1</ele>
        <time>2012-05-13T16:19:04Z</time>
      </trkpt>
      <trkpt lat="42.163621" lon="1.678668">
        <ele>1084.4</ele>
        <time>2012-05-13T16:19:44Z</time>
      </trkpt>
      <trkpt lat="42.163563" lon="1.678792">
        <ele>1088.0</ele>
        <time>2012-05-13T16:20:24Z</time>
      </trkpt>
      <trkpt lat="42.163506" lon="1.678915">
        <ele>1097.2</ele>
        <time>2012-05-13T16:21:04Z</time>
      </trkpt>
      <trkpt lat="42.163448" lon="1.679039">
        <ele>1091.1</ele>
        <time>2012-05-13T16:21:44Z</time>
      </trkpt>
      <trkpt lat="42.163391" lon="1.679163">
        <ele>1091.0</ele>
        <time>2012-05-13T16:22:24Z</time>
      </trkpt>
      <trkpt lat="42.163303" lon="1.679279">
        <ele>1090.7</ele>
        <time>2012-05-13T16:23:04Z</time>
      </trkpt>
      <trkpt lat="42.163215" lon="1.679395">
        <ele>1094.5</ele>
        <time>2012-05-13T16:23:44Z</time>
      </trkpt>
      <trkpt lat="42.163127" lon="1.679511">
        <ele>1099.7</ele>
        <time>2012-05-13T16:24:24Z</time>
      </trkpt>
      <trkpt lat="42.163028" lon="1.679501">
        <ele>1095.5</ele>
        <time>2012-05-13T16:25:04Z</time>
      </trkpt>
      <trkpt lat="42.162930" lon="1.679491">
        <ele>1089.9</ele>
        <time>2012-05-13T16:25:44Z</time>
      </trkpt>
      <trkpt lat="42.162831" lon="1.679481">
        <ele>1084.3</ele>
        <time>2012-05-13T16:26:24Z</time>
      </trkpt>
      <trkpt lat="42.162811" lon="1.679607">
        <ele>1089.9</ele>
        <time>2012-05-13T16:27:04Z</time>
      </trkpt>
      <trkpt lat="42.162790" lon="1.679734">
        <ele>1092.0</ele>
        <time>2012-05-13T16:27:44Z</time>
      </trkpt>
      <trkpt lat="42.162769" lon="1.679860">
        <ele>1091.5</ele>
        <time>2012-05-13T16:28:24Z</time>
      </trkpt>
      <trkpt lat="42.162837" lon="1.679967">
        <ele>1105.2</ele>
        <time>2012-05-13T16:29:04Z</time>
      </trkpt>
      <trkpt lat="42.162905" lon="1.680074">
        <ele>1108.1</ele>
        <time>2012-05-13T16:29:44Z</time>
      </trkpt>
      <trkpt lat="42.162974" lon="1.680180">
        <ele>1110.6</ele>
        <time>2012-05-13T16:30:24Z</time>
      </trkpt>
      <trkpt lat="42.163042" lon="1.680287">
        <ele>1117.2</ele>
        <time>2012-05-13T16:31:04Z</time>
      </trkpt>
      <trkpt lat="42.163027" lon="1.680431">
        <ele>1118.9</ele>
        <time>2012-05-13T16:31:44Z</time>
      </trkpt>
      <trkpt lat="42.163012" lon="1.680576">
        <ele>1123.6</ele>
        <time>2012-05-13T16:32:24Z</time>
      </trkpt>
      <trkpt lat="42.162997" lon="1.680720">
        <ele>1128.6</ele>
        <time>2012-05-13T16:33:04Z</time>
      </trkpt>
      <trkpt lat="42.162981" lon="1.680865">
        <ele>1134.5</ele>
        <time>2012-05-13T16:33:44Z</time>
      </trkpt>
      <trkpt lat="42.162916" lon="1.680968">
        <ele>1135.3</ele>
        <time>2012-05-13T16:34:24Z</time>
      </trkpt>
      <trkpt lat="42.162850" lon="1.681072">
        <ele>1138.4</ele>
        <time>2012-05-13T16:35:04Z</time>
      </trkpt>
      <trkpt lat="42.162784" lon="1.681175">
        <ele>1145.4</ele>
        <time>2012-05-13T16:35:44Z</time>
      </trkpt>
      <trkpt lat="42.162686" lon="1.681207">
        <ele>1148.1</ele>
        <time>2012-05-13T16:36:24Z</time>
      </trkpt>
      <trkpt lat="42.162588" lon="1.681239">
        <ele>1150.4</ele>
        <time>2012-05-13T16:37:04Z</time>
      </trkpt>
      <trkpt lat="42.162490" lon="1.681271">
        <ele>1150.8</ele>
        <time>2012-05-13T16:37:44Z</time>
      </trkpt>
      <trkpt lat="42.162433" lon="1.681393">
        <ele>1158.3</ele>
        <time>2012-05-13T16:38:24Z</time>
      </trkpt>
      <trkpt lat="42.162377" lon="1.681514">
        <ele>1165.4</ele>
        <time>2012-05-13T16:39:04Z</time>
      </trkpt>
      <trkpt lat="42.162320" lon="1.681635">
        <ele>1168.8</ele>
        <time>2012-05-13T16:39:44Z</time>
      </trkpt>
      <trkpt lat="42.162345" lon="1.681783">
        <ele>1167.3</ele>
        <time>2012-05-13T16:40:24Z</time>
      </trkpt>
      <trkpt lat="42.162370" lon="1.681932">
        <ele>1162.0</ele>
        <time>2012-05-13T16:41:04Z</time>
      </trkpt>
      <trkpt lat="42.162396" lon="1.682080">
        <ele>1153.8</ele>
        <time>2012-05-13T16:41:44Z</time>
      </trkpt>
      <trkpt lat="42.162421" lon="1.682228">
        <ele>1146.6</ele>
        <time>2012-05-13T16:42:24Z</time>
      </trkpt>
      <trkpt lat="42.162460" lon="1.682374">
        <ele>1147.1</ele>
        <time>2012-05-13T16:43:04Z</time>
      </trkpt>
      <trkpt lat="42.162500" lon="1.682521">
        <ele>1146.1</ele>
        <time>2012-05-13T16:43:44Z</time>
      </trkpt>
      <trkpt lat="42.162540" lon="1.682667">
        <ele>1145.9</ele>
        <time>2012-05-13T16:44:24Z</time>
      </trkpt>
      <trkpt lat="42.162579" lon="1.682813">
        <ele>1145.0</ele>
        <time>2012-05-13T16:45:04Z</time>
      </trkpt>
      <trkpt lat="42.162619" lon="1.682959">
        <ele>1143.6</ele>
        <time>2012-05-13T16:45:44Z</time>
      </trkpt>
      <trkpt lat="42.162659" lon="1.683106">
        <ele>1142.5</ele>
        <time>2012-05-13T16:46:24Z</time>
      </trkpt>
      <trkpt lat="42.162703" lon="1.683253">
        <ele>1140.8</ele>
        <time>2012-05-13T16:47:04Z</time>
      </trkpt>
      <trkpt lat="42.162748" lon="1.683399">
        <ele>1133.1</ele>
        <time>2012-05-13T16:47:44Z</time>
      </trkpt>
      <trkpt lat="42.162792" lon="1.683546">
        <ele>1124.5</ele>
        <time>2012-05-13T16:48:24Z</time>
      </trkpt>
      <trkpt lat="42.162837" lon="1.683693">
        <ele>1119.1</ele>
        <time>2012-05-13T16:49:04Z</time>
      </trkpt>
      <trkpt lat="42.162882" lon="1.683840">
        <ele>1127.3</ele>
        <time>2012-05-13T16:49:44Z</time>
      </trkpt>
      <trkpt lat="42.162899" lon="1.683993">
        <ele>1130.0</ele>
        <time>2012-05-13T16:50:24Z</time>
      </trkpt>
      <trkpt lat="42.162916" lon="1.684145">
        <ele>1130.1</ele>
        <time>2012-05-13T16:51:04Z</time>
      </trkpt>
      <trkpt lat="42.162934" lon="1.684298">
        <ele>1120.9</ele>
        <time>2012-05-13T16:51:44Z</time>
      </trkpt>
      <trkpt lat="42.162951" lon="1.684451">
        <ele>1112.9</ele>
        <time>2012-05-13T16:52:24Z</time>
      </trkpt>
      <trkpt lat="42.162969" lon="1.684604">
        <ele>1108.2</ele>
        <time>2012-05-13T16:53:04Z</time>
      </trkpt>
      <trkpt lat="42.162986" lon="1.684757">
        <ele>1106.5</ele>
        <time>2012-05-13T16:53:44Z</time>
      </trkpt>
      <trkpt lat="42.162983" lon="1.684925">
        <ele>1103.9</ele>
        <time>2012-05-13T16:54:24Z</time>
      </trkpt>
      <trkpt lat="42.162981" lon="1.685093">
        <ele>1098.2</ele>
        <time>2012-05-13T16:55:04Z</time>
      </trkpt>
      <trkpt lat="42.162978" lon="1.685261">
        <ele>1084.4</ele>
        <time>2012-05-13T16:55:44Z</time>
      </trkpt>
      <trkpt lat="42.163065" lon="1.685378">
        <ele>1082.0</ele>
        <time>2012-05-13T16:56:24Z</time>
      </trkpt>
      <trkpt lat="42.163152" lon="1.685495">
        <ele>1083.7</ele>
        <time>2012-05-13T16:57:04Z</time>
      </trkpt>
      <trkpt lat="42.163240" lon="1.685613">
        <ele>1082.6</ele>
        <time>2012-05-13T16:57:44Z</time>
      </trkpt>
      <trkpt lat="42.163327" lon="1.685730">
        <ele>1082.3</ele>
        <time>2012-05-13T16:58:24Z</time>
      </trkpt>
      <trkpt lat="42.163414" lon="1.685847">
        <ele>1077.8</ele>
        <time>2012-05-13T16:59:04Z</time>
      </trkpt>
      <trkpt lat="42.163538" lon="1.685835">
        <ele>1077.8</ele>
        <time>2012-05-13T16:59:44Z</time>
      </trkpt>
      <trkpt lat="42.163662" lon="1.685824">
        <ele>1075.3</ele>
        <time>2012-05-13T17:00:24Z</time>
      </trkpt>
      <trkpt lat="42.163785" lon="1.685812">
        <ele>1072.7</ele>
        <time>2012-05-13T17:01:04Z</time>
      </trkpt>
      <trkpt lat="42.163909" lon="1.685801">
        <ele>1069.5</ele>
        <time>2012-05-13T17:01:44Z</time>
      </trkpt>
      <trkpt lat="42.163985" lon="1.685925">
        <ele>1065.2</ele>
        <time>2012-05-13T17:02:24Z</time>
      </trkpt>
      <trkpt lat="42.164060" lon="1.686050">
        <ele>1068.3</ele>
        <time>2012-05-13T17:03:04Z</time>
      </trkpt>
      <trkpt lat="42.164135" lon="1.686174">
        <ele>1073.4</ele>
        <time>2012-05-13T17:03:44Z</time>
      </trkpt>
      <trkpt lat="42.164210" lon="1.686299">
        <ele>1072.4</ele>
        <time>2012-05-13T17:04:24Z</time>
      </trkpt>
      <trkpt lat="42.164324" lon="1.686332">
        <ele>1073.6</ele>
        <time>2012-05-13T17:05:04Z</time>
      </trkpt>
      <trkpt lat="42.164439" lon="1.686366">
        <ele>1073.9</ele>
        <time>2012-05-13T17:05:44Z</time>
      </trkpt>
      <trkpt lat="42.164553" lon="1.686400">
        <ele>1076.2</ele>
        <time>2012-05-13T17:06:24Z</time>
      </trkpt>
      <trkpt lat="42.164667" lon="1.686434">
        <ele>1080.0</ele>
        <time>2012-05-13T17:07:04Z</time>
      </trkpt>
      <trkpt lat="42.164791" lon="1.686503">
        <ele>1083.3</ele>
        <time>2012-05-13T17:07:44Z</time>
      </trkpt>
      <trkpt lat="42.164915" lon="1.686573">
        <ele>1088.7</ele>
        <time>2012-05-13T17:08:24Z</time>
      </trkpt>
      <trkpt lat="42.165040" lon="1.686642">
        <ele>1094.0</ele>
        <time>2012-05-13T17:09:04Z</time>
      </trkpt>
      <trkpt lat="42.165164" lon="1.686711">
        <ele>1096.9</ele>
        <time>2012-05-13T17:09:44Z</time>
      </trkpt>
      <trkpt lat="42.165288" lon="1.686781">
        <ele>1094.8</ele>
        <time>2012-05-13T17:10:24Z</time>
      </trkpt>
      <trkpt lat="42.165397" lon="1.686707">
        <ele>1095.4</ele>
        <time>2012-05-13T17:11:04Z</time>
      </trkpt>
      <trkpt lat="42.165506" lon="1.686632">
        <ele>1095.2</ele>
        <time>2012-05-13T17:11:44Z</time>
      </trkpt>
      <trkpt lat="42.165615" lon="1.686558">
        <ele>1094.3</ele>
        <time>2012-05-13T17:12:24Z</time>
      </trkpt>
      <trkpt lat="42.165724" lon="1.686484">
        <ele>1091.9</ele>
        <time>2012-05-13T17:13:04Z</time>
      </trkpt>
      <trkpt lat="42.165833" lon="1.686409">
        <ele>1091.1</ele>
        <time>2012-05-13T17:13:44Z</time>
      </trkpt>
      <trkpt lat="42.165949" lon="1.686418">
        <ele>1087.0</ele>
        <time>2012-05-13T17:14:24Z</time>
      </trkpt>
      <trkpt lat="42.166064" lon="1.686426">
        <ele>1085.0</ele>
        <time>2012-05-13T17:15:04Z</time>
      </trkpt>
      <trkpt lat="42.166179" lon="1.686435">
        <ele>1084.6</ele>
        <time>2012-05-13T17:15:44Z</time>
      </trkpt>
      <trkpt lat="42.166295" lon="1.686443">
        <ele>1085.8</ele>
        <time>2012-05-13T17:16:24Z</time>
      </trkpt>
      <trkpt lat="42.166410" lon="1.686451">
        <ele>1094.2</ele>
        <time>2012-05-13T17:17:04Z</time>
      </trkpt>
      <trkpt lat="42.166460" lon="1.686609">
        <ele>1086.4</ele>
        <time>2012-05-13T17:17:44Z</time>
      </trkpt>
      <trkpt lat="42.166510" lon="1.686767">
        <ele>1075.3</ele>
        <time>2012-05-13T17:18:24Z</time>
      </trkpt>
      <trkpt lat="42.166561" lon="1.686924">
        <ele>1060.7</ele>
        <time>2012-05-13T17:19:04Z</time>
      </trkpt>
      <trkpt lat="42.166610" lon="1.687082">
        <ele>1048.3</ele>
        <time>2012-05-13T17:19:44Z</time>
      </trkpt>
      <trkpt lat="42.166661" lon="1.687239">
        <ele>1048.9</ele>
        <time>2012-05-13T17:20:24Z</time>
      </trkpt>
      <trkpt lat="42.166716" lon="1.687394">
        <ele>1057.6</ele>
        <time>2012-05-13T17:21:04Z</time>
      </trkpt>
      <trkpt lat="42.166771" lon="1.687549">
        <ele>1066.4</ele>
        <time>2012-05-13T17:21:44Z</time>
      </trkpt>
      <trkpt lat="42.166827" lon="1.687704">
        <ele>1074.0</ele>
        <time>2012-05-13T17:22:24Z</time>
      </trkpt>
      <trkpt lat="42.166938" lon="1.687715">
        <ele>1079.6</ele>
        <time>2012-05-13T17:23:04Z</time>
      </trkpt>
      <trkpt lat="42.167048" lon="1.687727">
        <ele>1081.9</ele>
        <time>2012-05-13T17:23:44Z</time>
      </trkpt>
      <trkpt lat="42.167159" lon="1.687738">
        <ele>1080.9</ele>
        <time>2012-05-13T17:24:24Z</time>
      </trkpt>
      <trkpt lat="42.167270" lon="1.687749">
        <ele>1073.5</ele>
        <time>2012-05-13T17:25:04Z</time>
      </trkpt>
      <trkpt lat="42.167385" lon="1.687776">
        <ele>1065.3</ele>
        <time>2012-05-13T17:25:44Z</time>
      </trkpt>
      <trkpt lat="42.167501" lon="1.687802">
        <ele>1058.6</ele>
        <time>2012-05-13T17:26:24Z</time>
      </trkpt>
      <trkpt lat="42.167616" lon="1.687828">
        <ele>1051.4</ele>
        <time>2012-05-13T17:27:04Z</time>
      </trkpt>
      <trkpt lat="42.167732" lon="1.687855">
        <ele>1045.3</ele>
        <time>2012-05-13T17:27:44Z</time>
      </trkpt>
      <trkpt lat="42.167847" lon="1.687881">
        <ele>1043.3</ele>
        <time>2012-05-13T17:28:24Z</time>
      </trkpt>
      <trkpt lat="42.167964" lon="1.687933">
        <ele>1046.8</ele>
        <time>2012-05-13T17:29:04Z</time>
      </trkpt>
      <trkpt lat="42.168081" lon="1.687985">
        <ele>1045.0</ele>
        <time>2012-05-13T17:29:44Z</time>
      </trkpt>
      <trkpt lat="42.168198" lon="1.688036">
        <ele>1043.2</ele>
        <time>2012-05-13T17:30:24Z</time>
      </trkpt>
      <trkpt lat="42.168173" lon="1.688181">
        <ele>1042.3</ele>
        <time>2012-05-13T17:31:04Z</time>
      </trkpt>
      <trkpt lat="42.168148" lon="1.688326">
        <ele>1043.1</ele>
        <time>2012-05-13T17:31:44Z</time>
      </trkpt>
      <trkpt lat="42.168113" lon="1.688471">
        <ele>1047.1</ele>
        <time>2012-05-13T17:32:24Z</time>
      </trkpt>
      <trkpt lat="42.168079" lon="1.688615">
        <ele>1052.4</ele>
        <time>2012-05-13T17:33:04Z</time>
      </trkpt>
      <trkpt lat="42.168045" lon="1.688760">
        <ele>1058.1</ele>
        <time>2012-05-13T17:33:44Z</time>
      </trkpt>
      <trkpt lat="42.167960" lon="1.688897">
        <ele>1061.5</ele>
        <time>2012-05-13T17:34:24Z</time>
      </trkpt>
      <trkpt lat="42.167874" lon="1.689034">
        <ele>1064.5</ele>
        <time>2012-05-13T17:35:04Z</time>
      </trkpt>
      <trkpt lat="42.167869" lon="1.689151">
        <ele>1067.9</ele>
        <time>2012-05-13T17:35:44Z</time>
      </trkpt>
      <trkpt lat="42.167863" lon="1.689268">
        <ele>1066.0</ele>
        <time>2012-05-13T17:36:24Z</time>
      </trkpt>
      <trkpt lat="42.167945" lon="1.689375">
        <ele>1064.6</ele>
        <time>2012-05-13T17:37:04Z</time>
      </trkpt>
      <trkpt lat="42.168027" lon="1.689481">
        <ele>1057.7</ele>
        <time>2012-05-13T17:37:44Z</time>
      </trkpt>
      <trkpt lat="42.168148" lon="1.689521">
        <ele>1054.7</ele>
        <time>2012-05-13T17:38:24Z</time>
      </trkpt>
      <trkpt lat="42.168269" lon="1.689561">
        <ele>1053.6</ele>
        <time>2012-05-13T17:39:04Z</time>
      </trkpt>
      <trkpt lat="42.168390" lon="1.689600">
        <ele>1060.3</ele>
        <time>2012-05-13T17:39:44Z</time>
      </trkpt>
      <trkpt lat="42.168435" lon="1.689748">
        <ele>1062.4</ele>
        <time>2012-05-13T17:40:24Z</time>
      </trkpt>
      <trkpt lat="42.168480" lon="1.689895">
        <ele>1066.5</ele>
        <time>2012-05-13T17:41:04Z</time>
      </trkpt>
      <trkpt lat="42.168526" lon="1.690043">
        <ele>1070.2</ele>
        <time>2012-05-13T17:41:44Z</time>
      </trkpt>
      <trkpt lat="42.168571" lon="1.690191">
        <ele>1077.8</ele>
        <time>2012-05-13T17:42:24Z</time>
      </trkpt>
      <trkpt lat="42.168623" lon="1.690357">
        <ele>1078.3</ele>
        <time>2012-05-13T17:43:04Z</time>
      </trkpt>
      <trkpt lat="42.168675" lon="1.690522">
        <ele>1076.9</ele>
        <time>2012-05-13T17:43:44Z</time>
      </trkpt>
      <trkpt lat="42.168727" lon="1.690688">
        <ele>1075.8</ele>
        <time>2012-05-13T17:44:24Z</time>
      </trkpt>
      <trkpt lat="42.168780" lon="1.690853">
        <ele>1078.0</ele>
        <time>2012-05-13T17:45:04Z</time>
      </trkpt>
      <trkpt lat="42.168781" lon="1.690991">
        <ele>1081.5</ele>
        <time>2012-05-13T17:45:44Z</time>
      </trkpt>
      <trkpt lat="42.168783" lon="1.691130">
        <ele>1084.1</ele>
        <time>2012-05-13T17:46:24Z</time>
      </trkpt>
      <trkpt lat="42.168784" lon="1.691268">
        <ele>1087.7</ele>
        <time>2012-05-13T17:47:04Z</time>
      </trkpt>
      <trkpt lat="42.168786" lon="1.691424">
        <ele>1084.9</ele>
        <time>2012-05-13T17:47:44Z</time>
      </trkpt>
      <trkpt lat="42.168788" lon="1.691580">
        <ele>1081.7</ele>
        <time>2012-05-13T17:48:24Z</time>
      </trkpt>
      <trkpt lat="42.168790" lon="1.691736">
        <ele>1078.3</ele>
        <time>2012-05-13T17:49:04Z</time>
      </trkpt>
      <trkpt lat="42.168865" lon="1.691870">
        <ele>1078.6</ele>
        <time>2012-05-13T17:49:44Z</time>
      </trkpt>
      <trkpt lat="42.168940" lon="1.692003">
        <ele>1086.5</ele>
        <time>2012-05-13T17:50:24Z</time>
      </trkpt>
      <trkpt lat="42.168995" lon="1.692158">
        <ele>1087.4</ele>
        <time>2012-05-13T17:51:04Z</time>
      </trkpt>
      <trkpt lat="42.169051" lon="1.692313">
        <ele>1087.3</ele>
        <time>2012-05-13T17:51:44Z</time>
      </trkpt>
      <trkpt lat="42.169106" lon="1.692469">
        <ele>1090.1</ele>
        <time>2012-05-13T17:52:24Z</time>
      </trkpt>
      <trkpt lat="42.169118" lon="1.692630">
        <ele>1091.9</ele>
        <time>2012-05-13T17:53:04Z</time>
      </trkpt>
      <trkpt lat="42.169130" lon="1.692792">
        <ele>1097.1</ele>
        <time>2012-05-13T17:53:44Z</time>
      </trkpt>
      <trkpt lat="42.169142" lon="1.692954">
        <ele>1104.6</ele>
        <time>2012-05-13T17:54:24Z</time>
      </trkpt>
      <trkpt lat="42.169154" lon="1.693116">
        <ele>1103.9</ele>
        <time>2012-05-13T17:55:04Z</time>
      </trkpt>
      <trkpt lat="42.169234" lon="1.693115">
        <ele>1109.1</ele>
        <time>2012-05-13T17:55:44Z</time>
      </trkpt>
      <trkpt lat="42.169315" lon="1.693113">
        <ele>1110.1</ele>
        <time>2012-05-13T17:56:24Z</time>
      </trkpt>
      <trkpt lat="42.169445" lon="1.693088">
        <ele>1107.7</ele>
        <time>2012-05-13T17:57:04Z</time>
      </trkpt>
      <trkpt lat="42.169575" lon="1.693063">
        <ele>1104.0</ele>
        <time>2012-05-13T17:57:44Z</time>
      </trkpt>
      <trkpt lat="42.169706" lon="1.693037">
        <ele>1105.8</ele>
        <time>2012-05-13T17:58:24Z</time>
      </trkpt>
      <trkpt lat="42.169836" lon="1.693012">
        <ele>1109.8</ele>
        <time>2012-05-13T17:59:04Z</time>
      </trkpt>
      <trkpt lat="42.169935" lon="1.693034">
        <ele>1107.6</ele>
        <time>2012-05-13T17:59:44Z</time>
      </trkpt>
      <trkpt lat="42.170033" lon="1.693056">
        <ele>1104.5</ele>
        <time>2012-05-13T18:00:24Z</time>
      </trkpt>
      <trkpt lat="42.170132" lon="1.693078">
        <ele>1102.2</ele>
        <time>2012-05-13T18:01:04Z</time>
      </trkpt>
      <trkpt lat="42.170240" lon="1.693160">
        <ele>1095.3</ele>
        <time>2012-05-13T18:01:44Z</time>
      </trkpt>
      <trkpt lat="42.170348" lon="1.693242">
        <ele>1089.0</ele>
        <time>2012-05-13T18:02:24Z</time>
      </trkpt>
      <trkpt lat="42.170457" lon="1.693324">
        <ele>1090.2</ele>
        <time>2012-05-13T18:03:04Z</time>
      </trkpt>
      <trkpt lat="42.170476" lon="1.693473">
        <ele>1089.0</ele>
        <time>2012-05-13T18:03:44Z</time>
      </trkpt>
      <trkpt lat="42.170496" lon="1.693623">
        <ele>1090.4</ele>
        <time>2012-05-13T18:04:24Z</time>
      </trkpt>
      <trkpt lat="42.170515" lon="1.693773">
        <ele>1090.6</ele>
        <time>2012-05-13T18:05:04Z</time>
      </trkpt>
      <trkpt lat="42.170508" lon="1.693917">
        <ele>1091.4</ele>
        <time>2012-05-13T18:05:44Z</time>
      </trkpt>
      <trkpt lat="42.170501" lon="1.694062">
        <ele>1092.4</ele>
        <time>2012-05-13T18:06:24Z</time>
      </trkpt>
      <trkpt lat="42.170493" lon="1.694206">
        <ele>1091.3</ele>
        <time>2012-05-13T18:07:04Z</time>
      </trkpt>
      <trkpt lat="42.170527" lon="1.694373">
        <ele>1095.0</ele>
        <time>2012-05-13T18:07:44Z</time>
      </trkpt>
      <trkpt lat="42.170560" lon="1.694541">
        <ele>1093.8</ele>
        <time>2012-05-13T18:08:24Z</time>
      </trkpt>
      <trkpt lat="42.170593" lon="1.694708">
        <ele>1083.3</ele>
        <time>2012-05-13T18:09:04Z</time>
      </trkpt>
      <trkpt lat="42.170681" lon="1.694815">
        <ele>1089.1</ele>
        <time>2012-05-13T18:09:44Z</time>
      </trkpt>
      <trkpt lat="42.170770" lon="1.694921">
        <ele>1092.7</ele>
        <time>2012-05-13T18:10:24Z</time>
      </trkpt>
      <trkpt lat="42.170842" lon="1.695004">
        <ele>1097.3</ele>
        <time>2012-05-13T18:11:04Z</time>
      </trkpt>
      <trkpt lat="42.170915" lon="1.695086">
        <ele>1099.1</ele>
        <time>2012-05-13T18:11:44Z</time>
      </trkpt>
      <trkpt lat="42.170987" lon="1.695169">
        <ele>1097.3</ele>
        <time>2012-05-13T18:12:24Z</time>
      </trkpt>
      <trkpt lat="42.171099" lon="1.695185">
        <ele>1101.5</ele>
        <time>2012-05-13T18:13:04Z</time>
      </trkpt>
      <trkpt lat="42.171211" lon="1.695200">
        <ele>1105.1</ele>
        <time>2012-05-13T18:13:44Z</time>
      </trkpt>
      <trkpt lat="42.171323" lon="1.695216">
        <ele>1108.0</ele>
        <time>2012-05-13T18:14:24Z</time>
      </trkpt>
      <trkpt lat="42.171430" lon="1.695214">
        <ele>1112.1</ele>
        <time>2012-05-13T18:15:04Z</time>
      </trkpt>
      <trkpt lat="42.171537" lon="1.695212">
        <ele>1119.0</ele>
        <time>2012-05-13T18:15:44Z</time>
      </trkpt>
      <trkpt lat="42.171539" lon="1.695356">
        <ele>1116.4</ele>
        <time>2012-05-13T18:16:24Z</time>
      </trkpt>
      <trkpt lat="42.171540" lon="1.695500">
        <ele>1115.1</ele>
        <time>2012-05-13T18:17:04Z</time>
      </trkpt>
      <trkpt lat="42.171542" lon="1.695644">
        <ele>1113.3</ele>
        <time>2012-05-13T18:17:44Z</time>
      </trkpt>
      <trkpt lat="42.171590" lon="1.695778">
        <ele>1111.2</ele>
        <time>2012-05-13T18:18:24Z</time>
      </trkpt>
      <trkpt lat="42.171639" lon="1.695912">
        <ele>1108.8</ele>
        <time>2012-05-13T18:19:04Z</time>
      </trkpt>
      <trkpt lat="42.171687" lon="1.696047">
        <ele>1105.9</ele>
        <time>2012-05-13T18:19:44Z</time>
      </trkpt>
      <trkpt lat="42.171736" lon="1.696181">
        <ele>1101.3</ele>
        <time>2012-05-13T18:20:24Z</time>
      </trkpt>
      <trkpt lat="42.171798" lon="1.696342">
        <ele>1096.8</ele>
        <time>2012-05-13T18:21:04Z</time>
      </trkpt>
      <trkpt lat="42.171860" lon="1.696503">
        <ele>1094.3</ele>
        <time>2012-05-13T18:21:44Z</time>
      </trkpt>
      <trkpt lat="42.171974" lon="1.696532">
        <ele>1084.4</ele>
        <time>2012-05-13T18:22:24Z</time>
      </trkpt>
      <trkpt lat="42.172089" lon="1.696561">
        <ele>1077.1</ele>
        <time>2012-05-13T18:23:04Z</time>
      </trkpt>
      <trkpt lat="42.172203" lon="1.696590">
        <ele>1070.2</ele>
        <time>2012-05-13T18:23:44Z</time>
      </trkpt>
      <trkpt lat="42.172317" lon="1.696619">
        <ele>1063.9</ele>
        <time>2012-05-13T18:24:24Z</time>
      </trkpt>
      <trkpt lat="42.172407" lon="1.696677">
        <ele>1057.1</ele>
        <time>2012-05-13T18:25:04Z</time>
      </trkpt>
      <trkpt lat="42.172497" lon="1.696736">
        <ele>1051.7</ele>
        <time>2012-05-13T18:25:44Z</time>
      </trkpt>
      <trkpt lat="42.172587" lon="1.696794">
        <ele>1048.7</ele>
        <time>2012-05-13T18:26:24Z</time>
      </trkpt>
      <trkpt lat="42.172662" lon="1.696864">
        <ele>1045.3</ele>
        <time>2012-05-13T18:27:04Z</time>
      </trkpt>
      <trkpt lat="42.172736" lon="1.696935">
        <ele>1042.4</ele>
        <time>2012-05-13T18:27:44Z</time>
      </trkpt>
      <trkpt lat="42.172858" lon="1.696993">
        <ele>1040.9</ele>
        <time>2012-05-13T18:28:24Z</time>
      </trkpt>
      <trkpt lat="42.172979" lon="1.697050">
        <ele>1042.5</ele>
        <time>2012-05-13T18:29:04Z</time>
      </trkpt>
      <trkpt lat="42.173100" lon="1.697108">
        <ele>1047.5</ele>
        <time>2012-05-13T18:29:44Z</time>
      </trkpt>
      <trkpt lat="42.173207" lon="1.697044">
        <ele>1056.9</ele>
        <time>2012-05-13T18:30:24Z</time>
      </trkpt>
      <trkpt lat="42.173313" lon="1.696981">
        <ele>1062.2</ele>
        <time>2012-05-13T18:31:04Z</time>
      </trkpt>
      <trkpt lat="42.173420" lon="1.696917">
        <ele>1058.4</ele>
        <time>2012-05-13T18:31:44Z</time>
      </trkpt>
      <trkpt lat="42.173526" lon="1.696854">
        <ele>1051.9</ele>
        <time>2012-05-13T18:32:24Z</time>
      </trkpt>
      <trkpt lat="42.173633" lon="1.696790">
        <ele>1046.9</ele>
        <time>2012-05-13T18:33:04Z</time>
      </trkpt>
      <trkpt lat="42.173643" lon="1.696928">
        <ele>1042.4</ele>
        <time>2012-05-13T18:33:44Z</time>
      </trkpt>
      <trkpt lat="42.173654" lon="1.697066">
        <ele>1041.3</ele>
        <time>2012-05-13T18:34:24Z</time>
      </trkpt>
      <trkpt lat="42.173664" lon="1.697204">
        <ele>1043.4</ele>
        <time>2012-05-13T18:35:04Z</time>
      </trkpt>
      <trkpt lat="42.173724" lon="1.697329">
        <ele>1050.4</ele>
        <time>2012-05-13T18:35:44Z</time>
      </trkpt>
      <trkpt lat="42.173783" lon="1.697454">
        <ele>1054.6</ele>
        <time>2012-05-13T18:36:24Z</time>
      </trkpt>
      <trkpt lat="42.173843" lon="1.697579">
        <ele>1052.7</ele>
        <time>2012-05-13T18:37:04Z</time>
      </trkpt>
      <trkpt lat="42.173933" lon="1.697643">
        <ele>1046.5</ele>
        <time>2012-05-13T18:37:44Z</time>
      </trkpt>
      <trkpt lat="42.174023" lon="1.697708">
        <ele>1040.5</ele>
        <time>2012-05-13T18:38:24Z</time>
      </trkpt>
      <trkpt lat="42.174113" lon="1.697772">
        <ele>1035.2</ele>
        <time>2012-05-13T18:39:04Z</time>
      </trkpt>
      <trkpt lat="42.174236" lon="1.697811">
        <ele>1032.2</ele>
        <time>2012-05-13T18:39:44Z</time>
      </trkpt>
      <trkpt lat="42.174360" lon="1.697851">
        <ele>1030.7</ele>
        <time>2012-05-13T18:40:24Z</time>
      </trkpt>
      <trkpt lat="42.174483" lon="1.697890">
        <ele>1031.4</ele>
        <time>2012-05-13T18:41:04Z</time>
      </trkpt>
      <trkpt lat="42.174606" lon="1.697930">
        <ele>1033.8</ele>
        <time>2012-05-13T18:41:44Z</time>
      </trkpt>
      <trkpt lat="42.174730" lon="1.697969">
        <ele>1035.8</ele>
        <time>2012-05-13T18:42:24Z</time>
      </trkpt>
      <trkpt lat="42.174853" lon="1.698009">
        <ele>1035.8</ele>
        <time>2012-05-13T18:43:04Z</time>
      </trkpt>
      <trkpt lat="42.174987" lon="1.698012">
        <ele>1036.6</ele>
        <time>2012-05-13T18:43:44Z</time>
      </trkpt>
      <trkpt lat="42.175121" lon="1.698015">
        <ele>1035.9</ele>
        <time>2012-05-13T18:44:24Z</time>
      </trkpt>
      <trkpt lat="42.175255" lon="1.698019">
        <ele>1033.8</ele>
        <time>2012-05-13T18:45:04Z</time>
      </trkpt>
      <trkpt lat="42.175371" lon="1.698004">
        <ele>1032.2</ele>
        <time>2012-05-13T18:45:44Z</time>
      </trkpt>
      <trkpt lat="42.175487" lon="1.697990">
        <ele>1030.3</ele>
        <time>2012-05-13T18:46:24Z</time>
      </trkpt>
      <trkpt lat="42.175603" lon="1.697975">
        <ele>1030.7</ele>
        <time>2012-05-13T18:47:04Z</time>
      </trkpt>
      <trkpt lat="42.175734" lon="1.697959">
        <ele>1031.3</ele>
        <time>2012-05-13T18:47:44Z</time>
      </trkpt>
      <trkpt lat="42.175864" lon="1.697943">
        <ele>1031.8</ele>
        <time>2012-05-13T18:48:24Z</time>
      </trkpt>
      <trkpt lat="42.175995" lon="1.697927">
        <ele>1030.6</ele>
        <time>2012-05-13T18:49:04Z</time>
      </trkpt>
      <trkpt lat="42.176125" lon="1.697911">
        <ele>1029.8</ele>
        <time>2012-05-13T18:49:44Z</time>
      </trkpt>
      <trkpt lat="42.176219" lon="1.697850">
        <ele>1030.5</ele>
        <time>2012-05-13T18:50:24Z</time>
      </trkpt>
      <trkpt lat="42.176312" lon="1.697790">
        <ele>1031.7</ele>
        <time>2012-05-13T18:51:04Z</time>
      </trkpt>
      <trkpt lat="42.176405" lon="1.697729">
        <ele>1034.1</ele>
        <time>2012-05-13T18:51:44Z</time>
      </trkpt>
      <trkpt lat="42.176498" lon="1.697669">
        <ele>1035.7</ele>
        <time>2012-05-13T18:52:24Z</time>
      </trkpt>
      <trkpt lat="42.176608" lon="1.697594">
        <ele>1036.2</ele>
        <time>2012-05-13T18:53:04Z</time>
      </trkpt>
      <trkpt lat="42.176718" lon="1.697520">
        <ele>1036.9</ele>
        <time>2012-05-13T18:53:44Z</time>
      </trkpt>
      <trkpt lat="42.176827" lon="1.697446">
        <ele>1037.6</ele>
        <time>2012-05-13T18:54:24Z</time>
      </trkpt>
      <trkpt lat="42.176937" lon="1.697371">
        <ele>1037.4</ele>
        <time>2012-05-13T18:55:04Z</time>
      </trkpt>
      <trkpt lat="42.177023" lon="1.697243">
        <ele>1036.4</ele>
        <time>2012-05-13T18:55:44Z</time>
      </trkpt>
      <trkpt lat="42.177108" lon="1.697115">
        <ele>1038.4</ele>
        <time>2012-05-13T18:56:24Z</time>
      </trkpt>
      <trkpt lat="42.177108" lon="1.697115">
        <ele>1038.4</ele>
        <time>2012-05-13T18:57:04Z</time>
      </trkpt>
      <trkpt lat="42.177100" lon="1.697273">
        <ele>1040.6</ele>
        <time>2012-05-13T18:57:44Z</time>
      </trkpt>
      <trkpt lat="42.177092" lon="1.697431">
        <ele>1045.8</ele>
        <time>2012-05-13T18:58:24Z</time>
      </trkpt>
      <trkpt lat="42.177084" lon="1.697589">
        <ele>1055.1</ele>
        <time>2012-05-13T18:59:04Z</time>
      </trkpt>
      <trkpt lat="42.177075" lon="1.697747">
        <ele>1069.9</ele>
        <time>2012-05-13T18:59:44Z</time>
      </trkpt>
      <trkpt lat="42.177030" lon="1.697883">
        <ele>1084.4</ele>
        <time>2012-05-13T19:00:24Z</time>
      </trkpt>
      <trkpt lat="42.176985" lon="1.698019">
        <ele>1092.2</ele>
        <time>2012-05-13T19:01:04Z</time>
      </trkpt>
      <trkpt lat="42.176905" lon="1.698111">
        <ele>1092.2</ele>
        <time>2012-05-13T19:01:44Z</time>
      </trkpt>
      <trkpt lat="42.176826" lon="1.698203">
        <ele>1091.4</ele>
        <time>2012-05-13T19:02:24Z</time>
      </trkpt>
      <trkpt lat="42.176726" lon="1.698223">
        <ele>1085.5</ele>
        <time>2012-05-13T19:03:04Z</time>
      </trkpt>
      <trkpt lat="42.176625" lon="1.698243">
        <ele>1079.6</ele>
        <time>2012-05-13T19:03:44Z</time>
      </trkpt>
      <trkpt lat="42.176532" lon="1.698308">
        <ele>1077.7</ele>
        <time>2012-05-13T19:04:24Z</time>
      </trkpt>
      <trkpt lat="42.176439" lon="1.698373">
        <ele>1076.1</ele>
        <time>2012-05-13T19:05:04Z</time>
      </trkpt>
      <trkpt lat="42.176359" lon="1.698458">
        <ele>1078.8</ele>
        <time>2012-05-13T19:05:44Z</time>
      </trkpt>
      <trkpt lat="42.176280" lon="1.698544">
        <ele>1081.3</ele>
        <time>2012-05-13T19:06:24Z</time>
      </trkpt>
      <trkpt lat="42.176201" lon="1.698630">
        <ele>1081.3</ele>
        <time>2012-05-13T19:07:04Z</time>
      </trkpt>
      <trkpt lat="42.176120" lon="1.698650">
        <ele>1076.2</ele>
        <time>2012-05-13T19:07:44Z</time>
      </trkpt>
      <trkpt lat="42.176040" lon="1.698669">
        <ele>1070.6</ele>
        <time>2012-05-13T19:08:24Z</time>
      </trkpt>
      <trkpt lat="42.175948" lon="1.698797">
        <ele>1065.4</ele>
        <time>2012-05-13T19:09:04Z</time>
      </trkpt>
      <trkpt lat="42.175855" lon="1.698925">
        <ele>1061.2</ele>
        <time>2012-05-13T19:09:44Z</time>
      </trkpt>
      <trkpt lat="42.175747" lon="1.698819">
        <ele>1055.4</ele>
        <time>2012-05-13T19:10:24Z</time>
      </trkpt>
      <trkpt lat="42.175639" lon="1.698714">
        <ele>1052.1</ele>
        <time>2012-05-13T19:11:04Z</time>
      </trkpt>
      <trkpt lat="42.175557" lon="1.698625">
        <ele>1048.2</ele>
        <time>2012-05-13T19:11:44Z</time>
      </trkpt>
      <trkpt lat="42.175476" lon="1.698537">
        <ele>1043.3</ele>
        <time>2012-05-13T19:12:24Z</time>
      </trkpt>
      <trkpt lat="42.175348" lon="1.698494">
        <ele>1038.5</ele>
        <time>2012-05-13T19:13:04Z</time>
      </trkpt>
      <trkpt lat="42.175220" lon="1.698452">
        <ele>1033.2</ele>
        <time>2012-05-13T19:13:44Z</time>
      </trkpt>
      <trkpt lat="42.175091" lon="1.698484">
        <ele>1033.9</ele>
        <time>2012-05-13T19:14:24Z</time>
      </trkpt>
      <trkpt lat="42.174962" lon="1.698517">
        <ele>1034.4</ele>
        <time>2012-05-13T19:15:04Z</time>
      </trkpt>
      <trkpt lat="42.174832" lon="1.698550">
        <ele>1035.5</ele>
        <time>2012-05-13T19:15:44Z</time>
      </trkpt>
      <trkpt lat="42.174741" lon="1.698475">
        <ele>1033.1</ele>
        <time>2012-05-13T19:16:24Z</time>
      </trkpt>
      <trkpt lat="42.174650" lon="1.698401">
        <ele>1032.0</ele>
        <time>2012-05-13T19:17:04Z</time>
      </trkpt>
      <trkpt lat="42.174558" lon="1.698326">
        <ele>1031.7</ele>
        <time>2012-05-13T19:17:44Z</time>
      </trkpt>
      <trkpt lat="42.174467" lon="1.698251">
        <ele>1030.0</ele>
        <time>2012-05-13T19:18:24Z</time>
      </trkpt>
      <trkpt lat="42.174350" lon="1.698249">
        <ele>1031.4</ele>
        <time>2012-05-13T19:19:04Z</time>
      </trkpt>
      <trkpt lat="42.174232" lon="1.698247">
        <ele>1032.0</ele>
        <time>2012-05-13T19:19:44Z</time>
      </trkpt>
      <trkpt lat="42.174115" lon="1.698245">
        <ele>1030.9</ele>
        <time>2012-05-13T19:20:24Z</time>
      </trkpt>
      <trkpt lat="42.173998" lon="1.698243">
        <ele>1027.0</ele>
        <time>2012-05-13T19:21:04Z</time>
      </trkpt>
      <trkpt lat="42.173868" lon="1.698239">
        <ele>1024.6</ele>
        <time>2012-05-13T19:21:44Z</time>
      </trkpt>
      <trkpt lat="42.173739" lon="1.698236">
        <ele>1024.4</ele>
        <time>2012-05-13T19:22:24Z</time>
      </trkpt>
      <trkpt lat="42.173609" lon="1.698233">
        <ele>1025.5</ele>
        <time>2012-05-13T19:23:04Z</time>
      </trkpt>
      <trkpt lat="42.173499" lon="1.698217">
        <ele>1024.7</ele>
        <time>2012-05-13T19:23:44Z</time>
      </trkpt>
      <trkpt lat="42.173389" lon="1.698201">
        <ele>1024.1</ele>
        <time>2012-05-13T19:24:24Z</time>
      </trkpt>
      <trkpt lat="42.173279" lon="1.698185">
        <ele>1022.7</ele>
        <time>2012-05-13T19:25:04Z</time>
      </trkpt>
      <trkpt lat="42.173169" lon="1.698170">
        <ele>1021.4</ele>
        <time>2012-05-13T19:25:44Z</time>
      </trkpt>
      <trkpt lat="42.173058" lon="1.698154">
        <ele>1023.3</ele>
        <time>2012-05-13T19:26:24Z</time>
      </trkpt>
      <trkpt lat="42.173024" lon="1.698064">
        <ele>1027.0</ele>
        <time>2012-05-13T19:27:04Z</time>
      </trkpt>
      <trkpt lat="42.172989" lon="1.697975">
        <ele>1028.5</ele>
        <time>2012-05-13T19:27:44Z</time>
      </trkpt>
      <trkpt lat="42.172930" lon="1.697880">
        <ele>1029.8</ele>
        <time>2012-05-13T19:28:24Z</time>
      </trkpt>
      <trkpt lat="42.172871" lon="1.697785">
        <ele>1029.2</ele>
        <time>2012-05-13T19:29:04Z</time>
      </trkpt>
      <trkpt lat="42.172812" lon="1.697690">
        <ele>1027.4</ele>
        <time>2012-05-13T19:29:44Z</time>
      </trkpt>
      <trkpt lat="42.172700" lon="1.697645">
        <ele>1030.8</ele>
        <time>2012-05-13T19:30:24Z</time>
      </trkpt>
      <trkpt lat="42.172587" lon="1.697599">
        <ele>1029.8</ele>
        <time>2012-05-13T19:31:04Z</time>
      </trkpt>
      <trkpt lat="42.172475" lon="1.697553">
        <ele>1029.8</ele>
        <time>2012-05-13T19:31:44Z</time>
      </trkpt>
      <trkpt lat="42.172346" lon="1.697556">
        <ele>1032.0</ele>
        <time>2012-05-13T19:32:24Z</time>
      </trkpt>
      <trkpt lat="42.172216" lon="1.697558">
        <ele>1029.1</ele>
        <time>2012-05-13T19:33:04Z</time>
      </trkpt>
      <trkpt lat="42.172087" lon="1.697561">
        <ele>1029.0</ele>
        <time>2012-05-13T19:33:44Z</time>
      </trkpt>
      <trkpt lat="42.171956" lon="1.697595">
        <ele>1033.8</ele>
        <time>2012-05-13T19:34:24Z</time>
      </trkpt>
      <trkpt lat="42.171826" lon="1.697629">
        <ele>1039.2</ele>
        <time>2012-05-13T19:35:04Z</time>
      </trkpt>
      <trkpt lat="42.171696" lon="1.697664">
        <ele>1047.0</ele>
        <time>2012-05-13T19:35:44Z</time>
      </trkpt>
      <trkpt lat="42.171565" lon="1.697698">
        <ele>1052.3</ele>
        <time>2012-05-13T19:36:24Z</time>
      </trkpt>
      <trkpt lat="42.171431" lon="1.697687">
        <ele>1049.2</ele>
        <time>2012-05-13T19:37:04Z</time>
      </trkpt>
      <trkpt lat="42.171297" lon="1.697676">
        <ele>1045.7</ele>
        <time>2012-05-13T19:37:44Z</time>
      </trkpt>
      <trkpt lat="42.171163" lon="1.697666">
        <ele>1040.9</ele>
        <time>2012-05-13T19:38:24Z</time>
      </trkpt>
      <trkpt lat="42.171029" lon="1.697655">
        <ele>1039.2</ele>
        <time>2012-05-13T19:39:04Z</time>
      </trkpt>
      <trkpt lat="42.170961" lon="1.697572">
        <ele>1036.4</ele>
        <time>2012-05-13T19:39:44Z</time>
      </trkpt>
      <trkpt lat="42.170893" lon="1.697489">
        <ele>1037.9</ele>
        <time>2012-05-13T19:40:24Z</time>
      </trkpt>
      <trkpt lat="42.170825" lon="1.697407">
        <ele>1040.5</ele>
        <time>2012-05-13T19:41:04Z</time>
      </trkpt>
      <trkpt lat="42.170746" lon="1.697278">
        <ele>1044.5</ele>
        <time>2012-05-13T19:41:44Z</time>
      </trkpt>
      <trkpt lat="42.170668" lon="1.697149">
        <ele>1040.7</ele>
        <time>2012-05-13T19:42:24Z</time>
      </trkpt>
      <trkpt lat="42.170589" lon="1.697020">
        <ele>1038.0</ele>
        <time>2012-05-13T19:43:04Z</time>
      </trkpt>
      <trkpt lat="42.170511" lon="1.696891">
        <ele>1036.8</ele>
        <time>2012-05-13T19:43:44Z</time>
      </trkpt>
      <trkpt lat="42.170415" lon="1.696780">
        <ele>1036.0</ele>
        <time>2012-05-13T19:44:24Z</time>
      </trkpt>
      <trkpt lat="42.170320" lon="1.696669">
        <ele>1038.6</ele>
        <time>2012-05-13T19:45:04Z</time>
      </trkpt>
      <trkpt lat="42.170225" lon="1.696559">
        <ele>1036.6</ele>
        <time>2012-05-13T19:45:44Z</time>
      </trkpt>
      <trkpt lat="42.170130" lon="1.696448">
        <ele>1037.0</ele>
        <time>2012-05-13T19:46:24Z</time>
      </trkpt>
      <trkpt lat="42.170038" lon="1.696333">
        <ele>1034.1</ele>
        <time>2012-05-13T19:47:04Z</time>
      </trkpt>
      <trkpt lat="42.169947" lon="1.696217">
        <ele>1031.8</ele>
        <time>2012-05-13T19:47:44Z</time>
      </trkpt>
      <trkpt lat="42.169855" lon="1.696102">
        <ele>1026.1</ele>
        <time>2012-05-13T19:48:24Z</time>
      </trkpt>
      <trkpt lat="42.169763" lon="1.695987">
        <ele>1021.2</ele>
        <time>2012-05-13T19:49:04Z</time>
      </trkpt>
      <trkpt lat="42.169684" lon="1.695840">
        <ele>1017.3</ele>
        <time>2012-05-13T19:49:44Z</time>
      </trkpt>
      <trkpt lat="42.169606" lon="1.695693">
        <ele>1016.2</ele>
        <time>2012-05-13T19:50:24Z</time>
      </trkpt>
      <trkpt lat="42.169527" lon="1.695546">
        <ele>1016.9</ele>
        <time>2012-05-13T19:51:04Z</time>
      </trkpt>
      <trkpt lat="42.169448" lon="1.695399">
        <ele>1018.4</ele>
        <time>2012-05-13T19:51:44Z</time>
      </trkpt>
      <trkpt lat="42.169379" lon="1.695278">
        <ele>1020.4</ele>
        <time>2012-05-13T19:52:24Z</time>
      </trkpt>
      <trkpt lat="42.169311" lon="1.695158">
        <ele>1021.6</ele>
        <time>2012-05-13T19:53:04Z</time>
      </trkpt>
      <trkpt lat="42.169243" lon="1.695038">
        <ele>1021.2</ele>
        <time>2012-05-13T19:53:44Z</time>
      </trkpt>
      <trkpt lat="42.169174" lon="1.694918">
        <ele>1019.9</ele>
        <time>2012-05-13T19:54:24Z</time>
      </trkpt>
      <trkpt lat="42.169057" lon="1.694854">
        <ele>1021.2</ele>
        <time>2012-05-13T19:55:04Z</time>
      </trkpt>
      <trkpt lat="42.168941" lon="1.694790">
        <ele>1019.8</ele>
        <time>2012-05-13T19:55:44Z</time>
      </trkpt>
      <trkpt lat="42.168824" lon="1.694727">
        <ele>1014.4</ele>
        <time>2012-05-13T19:56:24Z</time>
      </trkpt>
      <trkpt lat="42.168716" lon="1.694681">
        <ele>1010.8</ele>
        <time>2012-05-13T19:57:04Z</time>
      </trkpt>
      <trkpt lat="42.168608" lon="1.694635">
        <ele>1007.1</ele>
        <time>2012-05-13T19:57:44Z</time>
      </trkpt>
      <trkpt lat="42.168500" lon="1.694589">
        <ele>1002.1</ele>
        <time>2012-05-13T19:58:24Z</time>
      </trkpt>
      <trkpt lat="42.168407" lon="1.694582">
        <ele>1000.4</ele>
        <time>2012-05-13T19:59:04Z</time>
      </trkpt>
      <trkpt lat="42.168312" lon="1.694575">
        <ele>999.5</ele>
        <time>2012-05-13T19:59:44Z</time>
      </trkpt>
      <trkpt lat="42.168248" lon="1.694420">
        <ele>997.9</ele>
        <time>2012-05-13T20:00:24Z</time>
      </trkpt>
      <trkpt lat="42.168184" lon="1.694265">
        <ele>997.8</ele>
        <time>2012-05-13T20:01:04Z</time>
      </trkpt>
      <trkpt lat="42.168120" lon="1.694111">
        <ele>996.4</ele>
        <time>2012-05-13T20:01:44Z</time>
      </trkpt>
      <trkpt lat="42.168038" lon="1.694016">
        <ele>995.5</ele>
        <time>2012-05-13T20:02:24Z</time>
      </trkpt>
      <trkpt lat="42.167957" lon="1.693922">
        <ele>994.1</ele>
        <time>2012-05-13T20:03:04Z</time>
      </trkpt>
      <trkpt lat="42.167875" lon="1.693827">
        <ele>995.1</ele>
        <time>2012-05-13T20:03:44Z</time>
      </trkpt>
      <trkpt lat="42.167823" lon="1.693698">
        <ele>997.1</ele>
        <time>2012-05-13T20:04:24Z</time>
      </trkpt>
      <trkpt lat="42.167772" lon="1.693568">
        <ele>994.8</ele>
        <time>2012-05-13T20:05:04Z</time>
      </trkpt>
      <trkpt lat="42.167720" lon="1.693439">
        <ele>993.4</ele>
        <time>2012-05-13T20:05:44Z</time>
      </trkpt>
      <trkpt lat="42.167668" lon="1.693309">
        <ele>995.6</ele>
        <time>2012-05-13T20:06:24Z</time>
      </trkpt>
      <trkpt lat="42.167657" lon="1.693170">
        <ele>996.0</ele>
        <time>2012-05-13T20:07:04Z</time>
      </trkpt>
      <trkpt lat="42.167645" lon="1.693030">
        <ele>998.2</ele>
        <time>2012-05-13T20:07:44Z</time>
      </trkpt>
      <trkpt lat="42.167633" lon="1.692891">
        <ele>999.8</ele>
        <time>2012-05-13T20:08:24Z</time>
      </trkpt>
      <trkpt lat="42.167622" lon="1.692751">
        <ele>1000.4</ele>
        <time>2012-05-13T20:09:04Z</time>
      </trkpt>
      <trkpt lat="42.167618" lon="1.692598">
        <ele>1000.6</ele>
        <time>2012-05-13T20:09:44Z</time>
      </trkpt>
      <trkpt lat="42.167614" lon="1.692445">
        <ele>1000.4</ele>
        <time>2012-05-13T20:10:24Z</time>
      </trkpt>
      <trkpt lat="42.167610" lon="1.692292">
        <ele>1000.2</ele>
        <time>2012-05-13T20:11:04Z</time>
      </trkpt>
      <trkpt lat="42.167606" lon="1.692139">
        <ele>1000.4</ele>
        <time>2012-05-13T20:11:44Z</time>
      </trkpt>
      <trkpt lat="42.167602" lon="1.691986">
        <ele>998.2</ele>
        <time>2012-05-13T20:12:24Z</time>
      </trkpt>
      <trkpt lat="42.167598" lon="1.691833">
        <ele>994.7</ele>
        <time>2012-05-13T20:13:04Z</time>
      </trkpt>
      <trkpt lat="42.167579" lon="1.691671">
        <ele>995.4</ele>
        <time>2012-05-13T20:13:44Z</time>
      </trkpt>
      <trkpt lat="42.167560" lon="1.691509">
        <ele>995.9</ele>
        <time>2012-05-13T20:14:24Z</time>
      </trkpt>
      <trkpt lat="42.167542" lon="1.691348">
        <ele>996.1</ele>
        <time>2012-05-13T20:15:04Z</time>
      </trkpt>
      <trkpt lat="42.167523" lon="1.691186">
        <ele>995.9</ele>
        <time>2012-05-13T20:15:44Z</time>
      </trkpt>
      <trkpt lat="42.167485" lon="1.691033">
        <ele>997.3</ele>
        <time>2012-05-13T20:16:24Z</time>
      </trkpt>
      <trkpt lat="42.167446" lon="1.690881">
        <ele>995.7</ele>
        <time>2012-05-13T20:17:04Z</time>
      </trkpt>
      <trkpt lat="42.167408" lon="1.690729">
        <ele>993.3</ele>
        <time>2012-05-13T20:17:44Z</time>
      </trkpt>
      <trkpt lat="42.167369" lon="1.690576">
        <ele>991.3</ele>
        <time>2012-05-13T20:18:24Z</time>
      </trkpt>
      <trkpt lat="42.167287" lon="1.690476">
        <ele>993.6</ele>
        <time>2012-05-13T20:19:04Z</time>
      </trkpt>
      <trkpt lat="42.167206" lon="1.690375">
        <ele>995.5</ele>
        <time>2012-05-13T20:19:44Z</time>
      </trkpt>
      <trkpt lat="42.167124" lon="1.690275">
        <ele>993.0</ele>
        <time>2012-05-13T20:20:24Z</time>
      </trkpt>
      <trkpt lat="42.167034" lon="1.690187">
        <ele>992.0</ele>
        <time>2012-05-13T20:21:04Z</time>
      </trkpt>
      <trkpt lat="42.166943" lon="1.690099">
        <ele>993.6</ele>
        <time>2012-05-13T20:21:44Z</time>
      </trkpt>
      <trkpt lat="42.166853" lon="1.690010">
        <ele>997.6</ele>
        <time>2012-05-13T20:22:24Z</time>
      </trkpt>
      <trkpt lat="42.166791" lon="1.689863">
        <ele>996.1</ele>
        <time>2012-05-13T20:23:04Z</time>
      </trkpt>
      <trkpt lat="42.166729" lon="1.689715">
        <ele>994.9</ele>
        <time>2012-05-13T20:23:44Z</time>
      </trkpt>
      <trkpt lat="42.166667" lon="1.689568">
        <ele>997.8</ele>
        <time>2012-05-13T20:24:24Z</time>
      </trkpt>
      <trkpt lat="42.166605" lon="1.689421">
        <ele>994.8</ele>
        <time>2012-05-13T20:25:04Z</time>
      </trkpt>
      <trkpt lat="42.166528" lon="1.689345">
        <ele>999.9</ele>
        <time>2012-05-13T20:25:44Z</time>
      </trkpt>
      <trkpt lat="42.166451" lon="1.689270">
        <ele>1001.2</ele>
        <time>2012-05-13T20:26:24Z</time>
      </trkpt>
      <trkpt lat="42.166374" lon="1.689195">
        <ele>1000.3</ele>
        <time>2012-05-13T20:27:04Z</time>
      </trkpt>
      <trkpt lat="42.166317" lon="1.689189">
        <ele>1005.0</ele>
        <time>2012-05-13T20:27:44Z</time>
      </trkpt>
      <trkpt lat="42.166257" lon="1.689048">
        <ele>993.1</ele>
        <time>2012-05-13T20:28:24Z</time>
      </trkpt>
      <trkpt lat="42.166197" lon="1.688907">
        <ele>985.9</ele>
        <time>2012-05-13T20:29:04Z</time>
      </trkpt>
      <trkpt lat="42.166095" lon="1.688858">
        <ele>986.6</ele>
        <time>2012-05-13T20:29:44Z</time>
      </trkpt>
      <trkpt lat="42.165992" lon="1.688810">
        <ele>986.0</ele>
        <time>2012-05-13T20:30:24Z</time>
      </trkpt>
      <trkpt lat="42.165890" lon="1.688762">
        <ele>987.1</ele>
        <time>2012-05-13T20:31:04Z</time>
      </trkpt>
      <trkpt lat="42.165787" lon="1.688713">
        <ele>988.9</ele>
        <time>2012-05-13T20:31:44Z</time>
      </trkpt>
      <trkpt lat="42.165685" lon="1.688665">
        <ele>987.3</ele>
        <time>2012-05-13T20:32:24Z</time>
      </trkpt>
      <trkpt lat="42.165573" lon="1.688640">
        <ele>985.6</ele>
        <time>2012-05-13T20:33:04Z</time>
      </trkpt>
      <trkpt lat="42.165461" lon="1.688616">
        <ele>985.6</ele>
        <time>2012-05-13T20:33:44Z</time>
      </trkpt>
      <trkpt lat="42.165349" lon="1.688591">
        <ele>985.9</ele>
        <time>2012-05-13T20:34:24Z</time>
      </trkpt>
      <trkpt lat="42.165237" lon="1.688566">
        <ele>985.9</ele>
        <time>2012-05-13T20:35:04Z</time>
      </trkpt>
      <trkpt lat="42.165125" lon="1.688541">
        <ele>984.5</ele>
        <time>2012-05-13T20:35:44Z</time>
      </trkpt>
      <trkpt lat="42.165013" lon="1.688517">
        <ele>982.5</ele>
        <time>2012-05-13T20:36:24Z</time>
      </trkpt>
      <trkpt lat="42.164903" lon="1.688515">
        <ele>981.6</ele>
        <time>2012-05-13T20:37:04Z</time>
      </trkpt>
      <trkpt lat="42.164793" lon="1.688514">
        <ele>981.1</ele>
        <time>2012-05-13T20:37:44Z</time>
      </trkpt>
      <trkpt lat="42.164683" lon="1.688513">
        <ele>981.1</ele>
        <time>2012-05-13T20:38:24Z</time>
      </trkpt>
      <trkpt lat="42.164573" lon="1.688511">
        <ele>981.8</ele>
        <time>2012-05-13T20:39:04Z</time>
      </trkpt>
      <trkpt lat="42.164463" lon="1.688510">
        <ele>981.8</ele>
        <time>2012-05-13T20:39:44Z</time>
      </trkpt>
      <trkpt lat="42.164365" lon="1.688417">
        <ele>980.7</ele>
        <time>2012-05-13T20:40:24Z</time>
      </trkpt>
      <trkpt lat="42.164267" lon="1.688325">
        <ele>979.3</ele>
        <time>2012-05-13T20:41:04Z</time>
      </trkpt>
      <trkpt lat="42.164168" lon="1.688232">
        <ele>979.6</ele>
        <time>2012-05-13T20:41:44Z</time>
      </trkpt>
      <trkpt lat="42.164070" lon="1.688140">
        <ele>980.3</ele>
        <time>2012-05-13T20:42:24Z</time>
      </trkpt>
      <trkpt lat="42.163972" lon="1.688029">
        <ele>981.7</ele>
        <time>2012-05-13T20:43:04Z</time>
      </trkpt>
      <trkpt lat="42.163873" lon="1.687919">
        <ele>982.1</ele>
        <time>2012-05-13T20:43:44Z</time>
      </trkpt>
      <trkpt lat="42.163775" lon="1.687808">
        <ele>981.3</ele>
        <time>2012-05-13T20:44:24Z</time>
      </trkpt>
      <trkpt lat="42.163676" lon="1.687697">
        <ele>980.2</ele>
        <time>2012-05-13T20:45:04Z</time>
      </trkpt>
      <trkpt lat="42.163568" lon="1.687614">
        <ele>980.4</ele>
        <time>2012-05-13T20:45:44Z</time>
      </trkpt>
      <trkpt lat="42.163460" lon="1.687531">
        <ele>979.7</ele>
        <time>2012-05-13T20:46:24Z</time>
      </trkpt>
      <trkpt lat="42.163352" lon="1.687447">
        <ele>979.1</ele>
        <time>2012-05-13T20:47:04Z</time>
      </trkpt>
      <trkpt lat="42.163244" lon="1.687364">
        <ele>977.3</ele>
        <time>2012-05-13T20:47:44Z</time>
      </trkpt>
      <trkpt lat="42.163154" lon="1.687279">
        <ele>975.9</ele>
        <time>2012-05-13T20:48:24Z</time>
      </trkpt>
      <trkpt lat="42.163065" lon="1.687195">
        <ele>976.6</ele>
        <time>2012-05-13T20:49:04Z</time>
      </trkpt>
      <trkpt lat="42.162975" lon="1.687110">
        <ele>977.5</ele>
        <time>2012-05-13T20:49:44Z</time>
      </trkpt>
      <trkpt lat="42.162886" lon="1.687025">
        <ele>979.9</ele>
        <time>2012-05-13T20:50:24Z</time>
      </trkpt>
      <trkpt lat="42.162796" lon="1.686941">
        <ele>980.5</ele>
        <time>2012-05-13T20:51:04Z</time>
      </trkpt>
      <trkpt lat="42.162712" lon="1.686822">
        <ele>979.6</ele>
        <time>2012-05-13T20:51:44Z</time>
      </trkpt>
      <trkpt lat="42.162628" lon="1.686704">
        <ele>978.2</ele>
        <time>2012-05-13T20:52:24Z</time>
      </trkpt>
      <trkpt lat="42.162544" lon="1.686586">
        <ele>976.9</ele>
        <time>2012-05-13T20:53:04Z</time>
      </trkpt>
      <trkpt lat="42.162460" lon="1.686467">
        <ele>976.6</ele>
        <time>2012-05-13T20:53:44Z</time>
      </trkpt>
      <trkpt lat="42.162376" lon="1.686349">
        <ele>976.1</ele>
        <time>2012-05-13T20:54:24Z</time>
      </trkpt>
      <trkpt lat="42.162292" lon="1.686231">
        <ele>978.6</ele>
        <time>2012-05-13T20:55:04Z</time>
      </trkpt>
      <trkpt lat="42.162219" lon="1.686091">
        <ele>977.8</ele>
        <time>2012-05-13T20:55:44Z</time>
      </trkpt>
      <trkpt lat="42.162146" lon="1.685951">
        <ele>975.8</ele>
        <time>2012-05-13T20:56:24Z</time>
      </trkpt>
      <trkpt lat="42.162073" lon="1.685812">
        <ele>973.0</ele>
        <time>2012-05-13T20:57:04Z</time>
      </trkpt>
      <trkpt lat="42.162000" lon="1.685672">
        <ele>970.4</ele>
        <time>2012-05-13T20:57:44Z</time>
      </trkpt>
      <trkpt lat="42.161927" lon="1.685533">
        <ele>968.4</ele>
        <time>2012-05-13T20:58:24Z</time>
      </trkpt>
      <trkpt lat="42.161854" lon="1.685393">
        <ele>968.2</ele>
        <time>2012-05-13T20:59:04Z</time>
      </trkpt>
      <trkpt lat="42.161830" lon="1.685231">
        <ele>967.7</ele>
        <time>2012-05-13T20:59:44Z</time>
      </trkpt>
      <trkpt lat="42.161805" lon="1.685069">
        <ele>966.3</ele>
        <time>2012-05-13T21:00:24Z</time>
      </trkpt>
      <trkpt lat="42.161781" lon="1.684908">
        <ele>964.1</ele>
        <time>2012-05-13T21:01:04Z</time>
      </trkpt>
      <trkpt lat="42.161703" lon="1.684788">
        <ele>965.4</ele>
        <time>2012-05-13T21:01:44Z</time>
      </trkpt>
      <trkpt lat="42.161624" lon="1.684668">
        <ele>965.3</ele>
        <time>2012-05-13T21:02:24Z</time>
      </trkpt>
      <trkpt lat="42.161546" lon="1.684548">
        <ele>963.2</ele>
        <time>2012-05-13T21:03:04Z</time>
      </trkpt>
      <trkpt lat="42.161467" lon="1.684428">
        <ele>962.7</ele>
        <time>2012-05-13T21:03:44Z</time>
      </trkpt>
      <trkpt lat="42.161389" lon="1.684308">
        <ele>961.6</ele>
        <time>2012-05-13T21:04:24Z</time>
      </trkpt>
      <trkpt lat="42.161310" lon="1.684188">
        <ele>959.4</ele>
        <time>2012-05-13T21:05:04Z</time>
      </trkpt>
      <trkpt lat="42.161232" lon="1.684068">
        <ele>959.9</ele>
        <time>2012-05-13T21:05:44Z</time>
      </trkpt>
      <trkpt lat="42.161153" lon="1.683948">
        <ele>959.8</ele>
        <time>2012-05-13T21:06:24Z</time>
      </trkpt>
      <trkpt lat="42.161132" lon="1.683791">
        <ele>958.2</ele>
        <time>2012-05-13T21:07:04Z</time>
      </trkpt>
      <trkpt lat="42.161110" lon="1.683633">
        <ele>956.7</ele>
        <time>2012-05-13T21:07:44Z</time>
      </trkpt>
      <trkpt lat="42.161088" lon="1.683476">
        <ele>955.8</ele>
        <time>2012-05-13T21:08:24Z</time>
      </trkpt>
      <trkpt lat="42.161066" lon="1.683319">
        <ele>954.7</ele>
        <time>2012-05-13T21:09:04Z</time>
      </trkpt>
      <trkpt lat="42.160989" lon="1.683180">
        <ele>954.0</ele>
        <time>2012-05-13T21:09:44Z</time>
      </trkpt>
      <trkpt lat="42.160913" lon="1.683041">
        <ele>952.2</ele>
        <time>2012-05-13T21:10:24Z</time>
      </trkpt>
      <trkpt lat="42.160836" lon="1.682902">
        <ele>951.4</ele>
        <time>2012-05-13T21:11:04Z</time>
      </trkpt>
      <trkpt lat="42.160759" lon="1.682763">
        <ele>950.2</ele>
        <time>2012-05-13T21:11:44Z</time>
      </trkpt>
      <trkpt lat="42.160683" lon="1.682624">
        <ele>950.6</ele>
        <time>2012-05-13T21:12:24Z</time>
      </trkpt>
      <trkpt lat="42.160608" lon="1.682495">
        <ele>950.1</ele>
        <time>2012-05-13T21:13:04Z</time>
      </trkpt>
      <trkpt lat="42.160534" lon="1.682365">
        <ele>949.3</ele>
        <time>2012-05-13T21:13:44Z</time>
      </trkpt>
      <trkpt lat="42.160460" lon="1.682235">
        <ele>947.8</ele>
        <time>2012-05-13T21:14:24Z</time>
      </trkpt>
      <trkpt lat="42.160386" lon="1.682105">
        <ele>947.0</ele>
        <time>2012-05-13T21:15:04Z</time>
      </trkpt>
      <trkpt lat="42.160311" lon="1.681976">
        <ele>946.7</ele>
        <time>2012-05-13T21:15:44Z</time>
      </trkpt>
      <trkpt lat="42.160237" lon="1.681846">
        <ele>946.7</ele>
        <time>2012-05-13T21:16:24Z</time>
      </trkpt>
      <trkpt lat="42.160163" lon="1.681716">
        <ele>946.5</ele>
        <time>2012-05-13T21:17:04Z</time>
      </trkpt>
      <trkpt lat="42.160089" lon="1.681610">
        <ele>946.0</ele>
        <time>2012-05-13T21:17:44Z</time>
      </trkpt>
      <trkpt lat="42.160015" lon="1.681503">
        <ele>945.8</ele>
        <time>2012-05-13T21:18:24Z</time>
      </trkpt>
      <trkpt lat="42.159942" lon="1.681396">
        <ele>946.2</ele>
        <time>2012-05-13T21:19:04Z</time>
      </trkpt>
      <trkpt lat="42.159868" lon="1.681290">
        <ele>946.0</ele>
        <time>2012-05-13T21:19:44Z</time>
      </trkpt>
      <trkpt lat="42.159795" lon="1.681183">
        <ele>944.4</ele>
        <time>2012-05-13T21:20:24Z</time>
      </trkpt>
      <trkpt lat="42.159669" lon="1.681144">
        <ele>944.3</ele>
        <time>2012-05-13T21:21:04Z</time>
      </trkpt>
      <trkpt lat="42.159543" lon="1.681104">
        <ele>941.5</ele>
        <time>2012-05-13T21:21:44Z</time>
      </trkpt>
      <trkpt lat="42.159418" lon="1.681065">
        <ele>940.5</ele>
        <time>2012-05-13T21:22:24Z</time>
      </trkpt>
      <trkpt lat="42.159300" lon="1.681089">
        <ele>942.5</ele>
        <time>2012-05-13T21:23:04Z</time>
      </trkpt>
      <trkpt lat="42.159182" lon="1.681113">
        <ele>942.7</ele>
        <time>2012-05-13T21:23:44Z</time>
      </trkpt>
      <trkpt lat="42.159065" lon="1.681137">
        <ele>942.1</ele>
        <time>2012-05-13T21:24:24Z</time>
      </trkpt>
      <trkpt lat="42.158947" lon="1.681161">
        <ele>943.4</ele>
        <time>2012-05-13T21:25:04Z</time>
      </trkpt>
      <trkpt lat="42.158829" lon="1.681185">
        <ele>946.6</ele>
        <time>2012-05-13T21:25:44Z</time>
      </trkpt>
      <trkpt lat="42.158708" lon="1.681107">
        <ele>945.5</ele>
        <time>2012-05-13T21:26:24Z</time>
      </trkpt>
      <trkpt lat="42.158586" lon="1.681028">
        <ele>944.2</ele>
        <time>2012-05-13T21:27:04Z</time>
      </trkpt>
      <trkpt lat="42.158465" lon="1.680950">
        <ele>943.2</ele>
        <time>2012-05-13T21:27:44Z</time>
      </trkpt>
      <trkpt lat="42.158343" lon="1.680871">
        <ele>941.6</ele>
        <time>2012-05-13T21:28:24Z</time>
      </trkpt>
      <trkpt lat="42.158224" lon="1.680802">
        <ele>939.9</ele>
        <time>2012-05-13T21:29:04Z</time>
      </trkpt>
      <trkpt lat="42.158105" lon="1.680732">
        <ele>939.6</ele>
        <time>2012-05-13T21:29:44Z</time>
      </trkpt>
      <trkpt lat="42.157986" lon="1.680662">
        <ele>938.9</ele>
        <time>2012-05-13T21:30:24Z</time>
      </trkpt>
      <trkpt lat="42.157866" lon="1.680593">
        <ele>936.4</ele>
        <time>2012-05-13T21:31:04Z</time>
      </trkpt>
      <trkpt lat="42.157747" lon="1.680523">
        <ele>934.8</ele>
        <time>2012-05-13T21:31:44Z</time>
      </trkpt>
      <trkpt lat="42.157628" lon="1.680454">
        <ele>933.5</ele>
        <time>2012-05-13T21:32:24Z</time>
      </trkpt>
      <trkpt lat="42.157559" lon="1.680305">
        <ele>929.1</ele>
        <time>2012-05-13T21:33:04Z</time>
      </trkpt>
      <trkpt lat="42.157490" lon="1.680156">
        <ele>925.7</ele>
        <time>2012-05-13T21:33:44Z</time>
      </trkpt>
      <trkpt lat="42.157422" lon="1.680007">
        <ele>922.9</ele>
        <time>2012-05-13T21:34:24Z</time>
      </trkpt>
      <trkpt lat="42.157308" lon="1.679928">
        <ele>924.4</ele>
        <time>2012-05-13T21:35:04Z</time>
      </trkpt>
      <trkpt lat="42.157194" lon="1.679848">
        <ele>924.4</ele>
        <time>2012-05-13T21:35:44Z</time>
      </trkpt>
      <trkpt lat="42.157080" lon="1.679768">
        <ele>923.3</ele>
        <time>2012-05-13T21:36:24Z</time>
      </trkpt>
      <trkpt lat="42.156966" lon="1.679688">
        <ele>922.5</ele>
        <time>2012-05-13T21:37:04Z</time>
      </trkpt>
      <trkpt lat="42.156852" lon="1.679608">
        <ele>922.0</ele>
        <time>2012-05-13T21:37:44Z</time>
      </trkpt>
      <trkpt lat="42.156738" lon="1.679528">
        <ele>920.9</ele>
        <time>2012-05-13T21:38:24Z</time>
      </trkpt>
      <trkpt lat="42.156624" lon="1.679448">
        <ele>921.0</ele>
        <time>2012-05-13T21:39:04Z</time>
      </trkpt>
      <trkpt lat="42.156522" lon="1.679383">
        <ele>919.0</ele>
        <time>2012-05-13T21:39:44Z</time>
      </trkpt>
      <trkpt lat="42.156419" lon="1.679318">
        <ele>919.1</ele>
        <time>2012-05-13T21:40:24Z</time>
      </trkpt>
      <trkpt lat="42.156316" lon="1.679253">
        <ele>917.7</ele>
        <time>2012-05-13T21:41:04Z</time>
      </trkpt>
      <trkpt lat="42.156213" lon="1.679189">
        <ele>914.8</ele>
        <time>2012-05-13T21:41:44Z</time>
      </trkpt>
      <trkpt lat="42.156213" lon="1.679189">
        <ele>914.8</ele>
        <time>2012-05-13T21:42:24Z</time>
      </trkpt>
      <trkpt lat="42.156098" lon="1.679116">
        <ele>914.7</ele>
        <time>2012-05-13T21:43:04Z</time>
      </trkpt>
      <trkpt lat="42.156103" lon="1.678945">
        <ele>916.6</ele>
        <time>2012-05-13T21:43:44Z</time>
      </trkpt>
      <trkpt lat="42.156107" lon="1.678774">
        <ele>918.3</ele>
        <time>2012-05-13T21:44:24Z</time>
      </trkpt>
      <trkpt lat="42.156006" lon="1.678713">
        <ele>920.5</ele>
        <time>2012-05-13T21:45:04Z</time>
      </trkpt>
      <trkpt lat="42.155905" lon="1.678652">
        <ele>924.4</ele>
        <time>2012-05-13T21:45:44Z</time>
      </trkpt>
      <trkpt lat="42.155815" lon="1.678567">
        <ele>927.2</ele>
        <time>2012-05-13T21:46:24Z</time>
      </trkpt>
      <trkpt lat="42.155726" lon="1.678483">
        <ele>929.1</ele>
        <time>2012-05-13T21:47:04Z</time>
      </trkpt>
      <trkpt lat="42.155637" lon="1.678398">
        <ele>930.5</ele>
        <time>2012-05-13T21:47:44Z</time>
      </trkpt>
      <trkpt lat="42.155547" lon="1.678313">
        <ele>936.3</ele>
        <time>2012-05-13T21:48:24Z</time>
      </trkpt>
      <trkpt lat="42.155458" lon="1.678229">
        <ele>939.6</ele>
        <time>2012-05-13T21:49:04Z</time>
      </trkpt>
      <trkpt lat="42.155391" lon="1.678284">
        <ele>937.9</ele>
        <time>2012-05-13T21:49:44Z</time>
      </trkpt>
      <trkpt lat="42.155325" lon="1.678340">
        <ele>934.0</ele>
        <time>2012-05-13T21:50:24Z</time>
      </trkpt>
      <trkpt lat="42.155231" lon="1.678306">
        <ele>935.1</ele>
        <time>2012-05-13T21:51:04Z</time>
      </trkpt>
      <trkpt lat="42.155136" lon="1.678271">
        <ele>937.2</ele>
        <time>2012-05-13T21:51:44Z</time>
      </trkpt>
      <trkpt lat="42.155042" lon="1.678237">
        <ele>935.4</ele>
        <time>2012-05-13T21:52:24Z</time>
      </trkpt>
      <trkpt lat="42.154948" lon="1.678239">
        <ele>932.9</ele>
        <time>2012-05-13T21:53:04Z</time>
      </trkpt>
      <trkpt lat="42.154854" lon="1.678241">
        <ele>932.0</ele>
        <time>2012-05-13T21:53:44Z</time>
      </trkpt>
      <trkpt lat="42.154752" lon="1.678279">
        <ele>931.5</ele>
        <time>2012-05-13T21:54:24Z</time>
      </trkpt>
      <trkpt lat="42.154650" lon="1.678318">
        <ele>930.9</ele>
        <time>2012-05-13T21:55:04Z</time>
      </trkpt>
      <trkpt lat="42.154548" lon="1.678356">
        <ele>927.8</ele>
        <time>2012-05-13T21:55:44Z</time>
      </trkpt>
      <trkpt lat="42.154433" lon="1.678318">
        <ele>926.4</ele>
        <time>2012-05-13T21:56:24Z</time>
      </trkpt>
      <trkpt lat="42.154319" lon="1.678279">
        <ele>926.9</ele>
        <time>2012-05-13T21:57:04Z</time>
      </trkpt>
      <trkpt lat="42.154204" lon="1.678241">
        <ele>927.3</ele>
        <time>2012-05-13T21:57:44Z</time>
      </trkpt>
      <trkpt lat="42.154090" lon="1.678203">
        <ele>928.7</ele>
        <time>2012-05-13T21:58:24Z</time>
      </trkpt>
      <trkpt lat="42.153969" lon="1.678183">
        <ele>928.7</ele>
        <time>2012-05-13T21:59:04Z</time>
      </trkpt>
      <trkpt lat="42.153848" lon="1.678163">
        <ele>926.9</ele>
        <time>2012-05-13T21:59:44Z</time>
      </trkpt>
      <trkpt lat="42.153727" lon="1.678143">
        <ele>925.6</ele>
        <time>2012-05-13T22:00:24Z</time>
      </trkpt>
      <trkpt lat="42.153606" lon="1.678123">
        <ele>926.3</ele>
        <time>2012-05-13T22:01:04Z</time>
      </trkpt>
      <trkpt lat="42.153500" lon="1.678197">
        <ele>924.6</ele>
        <time>2012-05-13T22:01:44Z</time>
      </trkpt>
      <trkpt lat="42.153394" lon="1.678272">
        <ele>925.0</ele>
        <time>2012-05-13T22:02:24Z</time>
      </trkpt>
      <trkpt lat="42.153266" lon="1.678270">
        <ele>925.0</ele>
        <time>2012-05-13T22:03:04Z</time>
      </trkpt>
      <trkpt lat="42.153139" lon="1.678268">
        <ele>924.8</ele>
        <time>2012-05-13T22:03:44Z</time>
      </trkpt>
      <trkpt lat="42.153011" lon="1.678266">
        <ele>925.2</ele>
        <time>2012-05-13T22:04:24Z</time>
      </trkpt>
      <trkpt lat="42.152884" lon="1.678264">
        <ele>925.2</ele>
        <time>2012-05-13T22:05:04Z</time>
      </trkpt>
      <trkpt lat="42.152772" lon="1.678277">
        <ele>923.6</ele>
        <time>2012-05-13T22:05:44Z</time>
      </trkpt>
      <trkpt lat="42.152659" lon="1.678291">
        <ele>922.0</ele>
        <time>2012-05-13T22:06:24Z</time>
      </trkpt>
      <trkpt lat="42.152547" lon="1.678304">
        <ele>920.7</ele>
        <time>2012-05-13T22:07:04Z</time>
      </trkpt>
      <trkpt lat="42.152434" lon="1.678317">
        <ele>919.0</ele>
        <time>2012-05-13T22:07:44Z</time>
      </trkpt>
      <trkpt lat="42.152322" lon="1.678330">
        <ele>917.0</ele>
        <time>2012-05-13T22:08:24Z</time>
      </trkpt>
      <trkpt lat="42.152215" lon="1.678350">
        <ele>915.4</ele>
        <time>2012-05-13T22:09:04Z</time>
      </trkpt>
      <trkpt lat="42.152108" lon="1.678370">
        <ele>915.0</ele>
        <time>2012-05-13T22:09:44Z</time>
      </trkpt>
      <trkpt lat="42.152001" lon="1.678391">
        <ele>914.4</ele>
        <time>2012-05-13T22:10:24Z</time>
      </trkpt>
      <trkpt lat="42.151894" lon="1.678411">
        <ele>913.4</ele>
        <time>2012-05-13T22:11:04Z</time>
      </trkpt>
      <trkpt lat="42.151787" lon="1.678431">
        <ele>916.9</ele>
        <time>2012-05-13T22:11:44Z</time>
      </trkpt>
      <trkpt lat="42.151673" lon="1.678397">
        <ele>923.0</ele>
        <time>2012-05-13T22:12:24Z</time>
      </trkpt>
      <trkpt lat="42.151558" lon="1.678364">
        <ele>923.1</ele>
        <time>2012-05-13T22:13:04Z</time>
      </trkpt>
      <trkpt lat="42.151431" lon="1.678412">
        <ele>914.1</ele>
        <time>2012-05-13T22:13:44Z</time>
      </trkpt>
      <trkpt lat="42.151305" lon="1.678459">
        <ele>908.8</ele>
        <time>2012-05-13T22:14:24Z</time>
      </trkpt>
      <trkpt lat="42.151209" lon="1.678453">
        <ele>907.0</ele>
        <time>2012-05-13T22:15:04Z</time>
      </trkpt>
      <trkpt lat="42.151114" lon="1.678447">
        <ele>905.3</ele>
        <time>2012-05-13T22:15:44Z</time>
      </trkpt>
      <trkpt lat="42.151019" lon="1.678441">
        <ele>904.5</ele>
        <time>2012-05-13T22:16:24Z</time>
      </trkpt>
      <trkpt lat="42.151019" lon="1.678441">
        <ele>904.5</ele>
        <time>2012-05-13T22:17:04Z</time>
      </trkpt>
      <trkpt lat="42.150904" lon="1.678433">
        <ele>904.4</ele>
        <time>2012-05-13T22:17:44Z</time>
      </trkpt>
      <trkpt lat="42.150789" lon="1.678426">
        <ele>905.2</ele>
        <time>2012-05-13T22:18:24Z</time>
      </trkpt>
      <trkpt lat="42.150674" lon="1.678418">
        <ele>905.9</ele>
        <time>2012-05-13T22:19:04Z</time>
      </trkpt>
      <trkpt lat="42.150557" lon="1.678470">
        <ele>904.2</ele>
        <time>2012-05-13T22:19:44Z</time>
      </trkpt>
      <trkpt lat="42.150441" lon="1.678522">
        <ele>903.3</ele>
        <time>2012-05-13T22:20:24Z</time>
      </trkpt>
      <trkpt lat="42.150324" lon="1.678574">
        <ele>902.8</ele>
        <time>2012-05-13T22:21:04Z</time>
      </trkpt>
      <trkpt lat="42.150207" lon="1.678626">
        <ele>901.3</ele>
        <time>2012-05-13T22:21:44Z</time>
      </trkpt>
      <trkpt lat="42.150108" lon="1.678705">
        <ele>900.0</ele>
        <time>2012-05-13T22:22:24Z</time>
      </trkpt>
      <trkpt lat="42.150008" lon="1.678783">
        <ele>898.8</ele>
        <time>2012-05-13T22:23:04Z</time>
      </trkpt>
      <trkpt lat="42.149908" lon="1.678862">
        <ele>899.0</ele>
        <time>2012-05-13T22:23:44Z</time>
      </trkpt>
      <trkpt lat="42.149809" lon="1.678941">
        <ele>897.2</ele>
        <time>2012-05-13T22:24:24Z</time>
      </trkpt>
      <trkpt lat="42.149694" lon="1.678975">
        <ele>897.2</ele>
        <time>2012-05-13T22:25:04Z</time>
      </trkpt>
      <trkpt lat="42.149579" lon="1.679010">
        <ele>897.5</ele>
        <time>2012-05-13T22:25:44Z</time>
      </trkpt>
      <trkpt lat="42.149464" lon="1.679045">
        <ele>898.2</ele>
        <time>2012-05-13T22:26:24Z</time>
      </trkpt>
      <trkpt lat="42.149349" lon="1.679080">
        <ele>897.8</ele>
        <time>2012-05-13T22:27:04Z</time>
      </trkpt>
      <trkpt lat="42.149234" lon="1.679115">
        <ele>898.2</ele>
        <time>2012-05-13T22:27:44Z</time>
      </trkpt>
      <trkpt lat="42.149119" lon="1.679074">
        <ele>901.0</ele>
        <time>2012-05-13T22:28:24Z</time>
      </trkpt>
      <trkpt lat="42.149003" lon="1.679033">
        <ele>902.5</ele>
        <time>2012-05-13T22:29:04Z</time>
      </trkpt>
      <trkpt lat="42.148887" lon="1.678992">
        <ele>905.1</ele>
        <time>2012-05-13T22:29:44Z</time>
      </trkpt>
      <trkpt lat="42.148771" lon="1.678951">
        <ele>908.8</ele>
        <time>2012-05-13T22:30:24Z</time>
      </trkpt>
      <trkpt lat="42.148656" lon="1.678911">
        <ele>914.3</ele>
        <time>2012-05-13T22:31:04Z</time>
      </trkpt>
      <trkpt lat="42.148557" lon="1.678974">
        <ele>912.4</ele>
        <time>2012-05-13T22:31:44Z</time>
      </trkpt>
      <trkpt lat="42.148459" lon="1.679037">
        <ele>911.9</ele>
        <time>2012-05-13T22:32:24Z</time>
      </trkpt>
      <trkpt lat="42.148360" lon="1.679101">
        <ele>913.1</ele>
        <time>2012-05-13T22:33:04Z</time>
      </trkpt>
      <trkpt lat="42.148262" lon="1.679164">
        <ele>910.7</ele>
        <time>2012-05-13T22:33:44Z</time>
      </trkpt>
      <trkpt lat="42.148163" lon="1.679227">
        <ele>908.5</ele>
        <time>2012-05-13T22:34:24Z</time>
      </trkpt>
      <trkpt lat="42.148056" lon="1.679252">
        <ele>910.8</ele>
        <time>2012-05-13T22:35:04Z</time>
      </trkpt>
      <trkpt lat="42.147949" lon="1.679277">
        <ele>910.2</ele>
        <time>2012-05-13T22:35:44Z</time>
      </trkpt>
      <trkpt lat="42.147842" lon="1.679301">
        <ele>907.8</ele>
        <time>2012-05-13T22:36:24Z</time>
      </trkpt>
      <trkpt lat="42.147735" lon="1.679326">
        <ele>905.1</ele>
        <time>2012-05-13T22:37:04Z</time>
      </trkpt>
      <trkpt lat="42.147632" lon="1.679351">
        <ele>903.8</ele>
        <time>2012-05-13T22:37:44Z</time>
      </trkpt>
      <trkpt lat="42.147528" lon="1.679375">
        <ele>901.1</ele>
        <time>2012-05-13T22:38:24Z</time>
      </trkpt>
      <trkpt lat="42.147425" lon="1.679400">
        <ele>896.8</ele>
        <time>2012-05-13T22:39:04Z</time>
      </trkpt>
      <trkpt lat="42.147321" lon="1.679425">
        <ele>892.3</ele>
        <time>2012-05-13T22:39:44Z</time>
      </trkpt>
      <trkpt lat="42.147237" lon="1.679329">
        <ele>893.7</ele>
        <time>2012-05-13T22:40:24Z</time>
      </trkpt>
      <trkpt lat="42.147153" lon="1.679234">
        <ele>893.2</ele>
        <time>2012-05-13T22:41:04Z</time>
      </trkpt>
      <trkpt lat="42.147068" lon="1.679138">
        <ele>893.2</ele>
        <time>2012-05-13T22:41:44Z</time>
      </trkpt>
      <trkpt lat="42.146984" lon="1.679043">
        <ele>892.3</ele>
        <time>2012-05-13T22:42:24Z</time>
      </trkpt>
      <trkpt lat="42.146900" lon="1.678947">
        <ele>891.3</ele>
        <time>2012-05-13T22:43:04Z</time>
      </trkpt>
      <trkpt lat="42.146822" lon="1.678832">
        <ele>893.1</ele>
        <time>2012-05-13T22:43:44Z</time>
      </trkpt>
      <trkpt lat="42.146743" lon="1.678716">
        <ele>892.5</ele>
        <time>2012-05-13T22:44:24Z</time>
      </trkpt>
      <trkpt lat="42.146665" lon="1.678601">
        <ele>893.6</ele>
        <time>2012-05-13T22:45:04Z</time>
      </trkpt>
      <trkpt lat="42.146586" lon="1.678485">
        <ele>892.4</ele>
        <time>2012-05-13T22:45:44Z</time>
      </trkpt>
      <trkpt lat="42.146491" lon="1.678388">
        <ele>890.9</ele>
        <time>2012-05-13T22:46:24Z</time>
      </trkpt>
      <trkpt lat="42.146396" lon="1.678291">
        <ele>889.5</ele>
        <time>2012-05-13T22:47:04Z</time>
      </trkpt>
      <trkpt lat="42.146301" lon="1.678194">
        <ele>889.5</ele>
        <time>2012-05-13T22:47:44Z</time>
      </trkpt>
      <trkpt lat="42.146207" lon="1.678097">
        <ele>890.9</ele>
        <time>2012-05-13T22:48:24Z</time>
      </trkpt>
      <trkpt lat="42.146115" lon="1.678016">
        <ele>890.5</ele>
        <time>2012-05-13T22:49:04Z</time>
      </trkpt>
      <trkpt lat="42.146022" lon="1.677935">
        <ele>889.1</ele>
        <time>2012-05-13T22:49:44Z</time>
      </trkpt>
      <trkpt lat="42.145930" lon="1.677854">
        <ele>888.8</ele>
        <time>2012-05-13T22:50:24Z</time>
      </trkpt>
      <trkpt lat="42.145838" lon="1.677773">
        <ele>889.6</ele>
        <time>2012-05-13T22:51:04Z</time>
      </trkpt>
      <trkpt lat="42.145746" lon="1.677692">
        <ele>890.1</ele>
        <time>2012-05-13T22:51:44Z</time>
      </trkpt>
      <trkpt lat="42.145648" lon="1.677604">
        <ele>890.3</ele>
        <time>2012-05-13T22:52:24Z</time>
      </trkpt>
      <trkpt lat="42.145551" lon="1.677516">
        <ele>891.3</ele>
        <time>2012-05-13T22:53:04Z</time>
      </trkpt>
      <trkpt lat="42.145453" lon="1.677428">
        <ele>892.0</ele>
        <time>2012-05-13T22:53:44Z</time>
      </trkpt>
      <trkpt lat="42.145356" lon="1.677340">
        <ele>893.4</ele>
        <time>2012-05-13T22:54:24Z</time>
      </trkpt>
      <trkpt lat="42.145258" lon="1.677252">
        <ele>892.2</ele>
        <time>2012-05-13T22:55:04Z</time>
      </trkpt>
      <trkpt lat="42.145130" lon="1.677196">
        <ele>891.0</ele>
        <time>2012-05-13T22:55:44Z</time>
      </trkpt>
      <trkpt lat="42.145002" lon="1.677140">
        <ele>889.6</ele>
        <time>2012-05-13T22:56:24Z</time>
      </trkpt>
      <trkpt lat="42.144874" lon="1.677085">
        <ele>889.1</ele>
        <time>2012-05-13T22:57:04Z</time>
      </trkpt>
      <trkpt lat="42.144746" lon="1.677029">
        <ele>890.1</ele>
        <time>2012-05-13T22:57:44Z</time>
      </trkpt>
      <trkpt lat="42.144621" lon="1.677025">
        <ele>889.1</ele>
        <time>2012-05-13T22:58:24Z</time>
      </trkpt>
      <trkpt lat="42.144496" lon="1.677022">
        <ele>889.2</ele>
        <time>2012-05-13T22:59:04Z</time>
      </trkpt>
      <trkpt lat="42.144371" lon="1.677018">
        <ele>890.0</ele>
        <time>2012-05-13T22:59:44Z</time>
      </trkpt>
      <trkpt lat="42.144283" lon="1.676957">
        <ele>891.7</ele>
        <time>2012-05-13T23:00:24Z</time>
      </trkpt>
      <trkpt lat="42.144195" lon="1.676896">
        <ele>891.3</ele>
        <time>2012-05-13T23:01:04Z</time>
      </trkpt>
      <trkpt lat="42.144120" lon="1.676794">
        <ele>894.6</ele>
        <time>2012-05-13T23:01:44Z</time>
      </trkpt>
      <trkpt lat="42.144045" lon="1.676692">
        <ele>897.0</ele>
        <time>2012-05-13T23:02:24Z</time>
      </trkpt>
      <trkpt lat="42.143971" lon="1.676590">
        <ele>899.4</ele>
        <time>2012-05-13T23:03:04Z</time>
      </trkpt>
      <trkpt lat="42.143896" lon="1.676488">
        <ele>901.3</ele>
        <time>2012-05-13T23:03:44Z</time>
      </trkpt>
      <trkpt lat="42.143810" lon="1.676442">
        <ele>901.6</ele>
        <time>2012-05-13T23:04:24Z</time>
      </trkpt>
      <trkpt lat="42.143725" lon="1.676395">
        <ele>903.7</ele>
        <time>2012-05-13T23:05:04Z</time>
      </trkpt>
      <trkpt lat="42.143639" lon="1.676349">
        <ele>907.0</ele>
        <time>2012-05-13T23:05:44Z</time>
      </trkpt>
      <trkpt lat="42.143551" lon="1.676261">
        <ele>906.2</ele>
        <time>2012-05-13T23:06:24Z</time>
      </trkpt>
      <trkpt lat="42.143463" lon="1.676173">
        <ele>902.5</ele>
        <time>2012-05-13T23:07:04Z</time>
      </trkpt>
      <trkpt lat="42.143455" lon="1.676029">
        <ele>905.1</ele>
        <time>2012-05-13T23:07:44Z</time>
      </trkpt>
      <trkpt lat="42.143446" lon="1.675885">
        <ele>908.7</ele>
        <time>2012-05-13T23:08:24Z</time>
      </trkpt>
      <trkpt lat="42.143438" lon="1.675741">
        <ele>907.0</ele>
        <time>2012-05-13T23:09:04Z</time>
      </trkpt>
      <trkpt lat="42.143430" lon="1.675597">
        <ele>901.9</ele>
        <time>2012-05-13T23:09:44Z</time>
      </trkpt>
      <trkpt lat="42.143468" lon="1.675457">
        <ele>899.3</ele>
        <time>2012-05-13T23:10:24Z</time>
      </trkpt>
      <trkpt lat="42.143507" lon="1.675316">
        <ele>895.6</ele>
        <time>2012-05-13T23:11:04Z</time>
      </trkpt>
      <trkpt lat="42.143545" lon="1.675176">
        <ele>894.2</ele>
        <time>2012-05-13T23:11:44Z</time>
      </trkpt>
      <trkpt lat="42.143584" lon="1.675035">
        <ele>895.1</ele>
        <time>2012-05-13T23:12:24Z</time>
      </trkpt>
      <trkpt lat="42.143483" lon="1.675019">
        <ele>893.0</ele>
        <time>2012-05-13T23:13:04Z</time>
      </trkpt>
      <trkpt lat="42.143383" lon="1.675004">
        <ele>897.0</ele>
        <time>2012-05-13T23:13:44Z</time>
      </trkpt>
      <trkpt lat="42.143289" lon="1.675042">
        <ele>899.3</ele>
        <time>2012-05-13T23:14:24Z</time>
      </trkpt>
      <trkpt lat="42.143196" lon="1.675080">
        <ele>901.6</ele>
        <time>2012-05-13T23:15:04Z</time>
      </trkpt>
      <trkpt lat="42.143102" lon="1.675117">
        <ele>904.8</ele>
        <time>2012-05-13T23:15:44Z</time>
      </trkpt>
      <trkpt lat="42.143062" lon="1.675154">
        <ele>905.1</ele>
        <time>2012-05-13T23:16:24Z</time>
      </trkpt>
      <trkpt lat="42.143017" lon="1.675169">
        <ele>906.3</ele>
        <time>2012-05-13T23:17:04Z</time>
      </trkpt>
      <trkpt lat="42.143017" lon="1.675169">
        <ele>906.3</ele>
        <time>2012-05-13T23:17:44Z</time>
      </trkpt>
      <trkpt lat="42.142893" lon="1.675210">
        <ele>905.3</ele>
        <time>2012-05-13T23:18:24Z</time>
      </trkpt>
      <trkpt lat="42.142769" lon="1.675251">
        <ele>895.5</ele>
        <time>2012-05-13T23:19:04Z</time>
      </trkpt>
      <trkpt lat="42.142724" lon="1.675121">
        <ele>894.0</ele>
        <time>2012-05-13T23:19:44Z</time>
      </trkpt>
      <trkpt lat="42.142679" lon="1.674991">
        <ele>890.6</ele>
        <time>2012-05-13T23:20:24Z</time>
      </trkpt>
      <trkpt lat="42.142634" lon="1.674862">
        <ele>889.8</ele>
        <time>2012-05-13T23:21:04Z</time>
      </trkpt>
      <trkpt lat="42.142588" lon="1.674732">
        <ele>890.8</ele>
        <time>2012-05-13T23:21:44Z</time>
      </trkpt>
      <trkpt lat="42.142511" lon="1.674613">
        <ele>888.2</ele>
        <time>2012-05-13T23:22:24Z</time>
      </trkpt>
      <trkpt lat="42.142434" lon="1.674495">
        <ele>887.3</ele>
        <time>2012-05-13T23:23:04Z</time>
      </trkpt>
      <trkpt lat="42.142357" lon="1.674377">
        <ele>886.2</ele>
        <time>2012-05-13T23:23:44Z</time>
      </trkpt>
      <trkpt lat="42.142296" lon="1.674234">
        <ele>886.4</ele>
        <time>2012-05-13T23:24:24Z</time>
      </trkpt>
      <trkpt lat="42.142235" lon="1.674091">
        <ele>886.2</ele>
        <time>2012-05-13T23:25:04Z</time>
      </trkpt>
      <trkpt lat="42.142175" lon="1.673948">
        <ele>885.8</ele>
        <time>2012-05-13T23:25:44Z</time>
      </trkpt>
      <trkpt lat="42.142114" lon="1.673805">
        <ele>884.0</ele>
        <time>2012-05-13T23:26:24Z</time>
      </trkpt>
      <trkpt lat="42.142053" lon="1.673662">
        <ele>883.6</ele>
        <time>2012-05-13T23:27:04Z</time>
      </trkpt>
      <trkpt lat="42.141964" lon="1.673549">
        <ele>881.3</ele>
        <time>2012-05-13T23:27:44Z</time>
      </trkpt>
      <trkpt lat="42.141874" lon="1.673436">
        <ele>879.9</ele>
        <time>2012-05-13T23:28:24Z</time>
      </trkpt>
      <trkpt lat="42.141784" lon="1.673322">
        <ele>878.5</ele>
        <time>2012-05-13T23:29:04Z</time>
      </trkpt>
      <trkpt lat="42.141694" lon="1.673209">
        <ele>877.5</ele>
        <time>2012-05-13T23:29:44Z</time>
      </trkpt>
      <trkpt lat="42.141604" lon="1.673095">
        <ele>878.8</ele>
        <time>2012-05-13T23:30:24Z</time>
      </trkpt>
      <trkpt lat="42.141483" lon="1.673056">
        <ele>877.8</ele>
        <time>2012-05-13T23:31:04Z</time>
      </trkpt>
      <trkpt lat="42.141362" lon="1.673016">
        <ele>876.1</ele>
        <time>2012-05-13T23:31:44Z</time>
      </trkpt>
      <trkpt lat="42.141241" lon="1.672977">
        <ele>873.3</ele>
        <time>2012-05-13T23:32:24Z</time>
      </trkpt>
      <trkpt lat="42.141193" lon="1.672843">
        <ele>873.9</ele>
        <time>2012-05-13T23:33:04Z</time>
      </trkpt>
      <trkpt lat="42.141144" lon="1.672709">
        <ele>872.1</ele>
        <time>2012-05-13T23:33:44Z</time>
      </trkpt>
      <trkpt lat="42.141129" lon="1.672554">
        <ele>871.7</ele>
        <time>2012-05-13T23:34:24Z</time>
      </trkpt>
      <trkpt lat="42.141114" lon="1.672400">
        <ele>871.6</ele>
        <time>2012-05-13T23:35:04Z</time>
      </trkpt>
      <trkpt lat="42.141099" lon="1.672245">
        <ele>872.4</ele>
        <time>2012-05-13T23:35:44Z</time>
      </trkpt>
      <trkpt lat="42.141083" lon="1.672090">
        <ele>873.3</ele>
        <time>2012-05-13T23:36:24Z</time>
      </trkpt>
      <trkpt lat="42.141068" lon="1.671936">
        <ele>874.4</ele>
        <time>2012-05-13T23:37:04Z</time>
      </trkpt>
      <trkpt lat="42.140980" lon="1.671811">
        <ele>871.5</ele>
        <time>2012-05-13T23:37:44Z</time>
      </trkpt>
      <trkpt lat="42.140891" lon="1.671687">
        <ele>871.4</ele>
        <time>2012-05-13T23:38:24Z</time>
      </trkpt>
      <trkpt lat="42.140802" lon="1.671563">
        <ele>870.8</ele>
        <time>2012-05-13T23:39:04Z</time>
      </trkpt>
      <trkpt lat="42.140714" lon="1.671439">
        <ele>871.3</ele>
        <time>2012-05-13T23:39:44Z</time>
      </trkpt>
      <trkpt lat="42.140636" lon="1.671311">
        <ele>871.6</ele>
        <time>2012-05-13T23:40:24Z</time>
      </trkpt>
      <trkpt lat="42.140559" lon="1.671184">
        <ele>871.6</ele>
        <time>2012-05-13T23:41:04Z</time>
      </trkpt>
      <trkpt lat="42.140482" lon="1.671056">
        <ele>870.9</ele>
        <time>2012-05-13T23:41:44Z</time>
      </trkpt>
      <trkpt lat="42.140404" lon="1.670929">
        <ele>870.3</ele>
        <time>2012-05-13T23:42:24Z</time>
      </trkpt>
      <trkpt lat="42.140327" lon="1.670802">
        <ele>869.2</ele>
        <time>2012-05-13T23:43:04Z</time>
      </trkpt>
      <trkpt lat="42.140249" lon="1.670674">
        <ele>870.5</ele>
        <time>2012-05-13T23:43:44Z</time>
      </trkpt>
      <trkpt lat="42.140133" lon="1.670655">
        <ele>869.9</ele>
        <time>2012-05-13T23:44:24Z</time>
      </trkpt>
      <trkpt lat="42.140016" lon="1.670637">
        <ele>869.1</ele>
        <time>2012-05-13T23:45:04Z</time>
      </trkpt>
      <trkpt lat="42.139900" lon="1.670618">
        <ele>868.2</ele>
        <time>2012-05-13T23:45:44Z</time>
      </trkpt>
      <trkpt lat="42.139784" lon="1.670600">
        <ele>868.2</ele>
        <time>2012-05-13T23:46:24Z</time>
      </trkpt>
      <trkpt lat="42.139667" lon="1.670581">
        <ele>867.5</ele>
        <time>2012-05-13T23:47:04Z</time>
      </trkpt>
      <trkpt lat="42.139551" lon="1.670563">
        <ele>867.4</ele>
        <time>2012-05-13T23:47:44Z</time>
      </trkpt>
      <trkpt lat="42.139425" lon="1.670569">
        <ele>867.1</ele>
        <time>2012-05-13T23:48:24Z</time>
      </trkpt>
      <trkpt lat="42.139299" lon="1.670575">
        <ele>865.6</ele>
        <time>2012-05-13T23:49:04Z</time>
      </trkpt>
      <trkpt lat="42.139173" lon="1.670581">
        <ele>864.3</ele>
        <time>2012-05-13T23:49:44Z</time>
      </trkpt>
      <trkpt lat="42.139047" lon="1.670588">
        <ele>863.6</ele>
        <time>2012-05-13T23:50:24Z</time>
      </trkpt>
      <trkpt lat="42.138921" lon="1.670594">
        <ele>863.0</ele>
        <time>2012-05-13T23:51:04Z</time>
      </trkpt>
      <trkpt lat="42.138787" lon="1.670588">
        <ele>863.4</ele>
        <time>2012-05-13T23:51:44Z</time>
      </trkpt>
      <trkpt lat="42.138653" lon="1.670581">
        <ele>864.6</ele>
        <time>2012-05-13T23:52:24Z</time>
      </trkpt>
      <trkpt lat="42.138519" lon="1.670575">
        <ele>864.4</ele>
        <time>2012-05-13T23:53:04Z</time>
      </trkpt>
      <trkpt lat="42.138385" lon="1.670569">
        <ele>861.6</ele>
        <time>2012-05-13T23:53:44Z</time>
      </trkpt>
      <trkpt lat="42.138259" lon="1.670521">
        <ele>860.5</ele>
        <time>2012-05-13T23:54:24Z</time>
      </trkpt>
      <trkpt lat="42.138133" lon="1.670472">
        <ele>860.5</ele>
        <time>2012-05-13T23:55:04Z</time>
      </trkpt>
      <trkpt lat="42.138008" lon="1.670424">
        <ele>860.4</ele>
        <time>2012-05-13T23:55:44Z</time>
      </trkpt>
      <trkpt lat="42.137882" lon="1.670375">
        <ele>859.0</ele>
        <time>2012-05-13T23:56:24Z</time>
      </trkpt>
      <trkpt lat="42.137756" lon="1.670327">
        <ele>857.9</ele>
        <time>2012-05-13T23:57:04Z</time>
      </trkpt>
      <trkpt lat="42.137631" lon="1.670279">
        <ele>858.3</ele>
        <time>2012-05-13T23:57:44Z</time>
      </trkpt>
      <trkpt lat="42.137507" lon="1.670299">
        <ele>855.7</ele>
        <time>2012-05-13T23:58:24Z</time>
      </trkpt>
      <trkpt lat="42.137383" lon="1.670320">
        <ele>854.9</ele>
        <time>2012-05-13T23:59:04Z</time>
      </trkpt>
      <trkpt lat="42.137259" lon="1.670340">
        <ele>855.2</ele>
        <time>2012-05-13T23:59:44Z</time>
      </trkpt>
      <trkpt lat="42.137136" lon="1.670361">
        <ele>855.8</ele>
        <time>2012-05-14T00:00:24Z</time>
      </trkpt>
      <trkpt lat="42.137092" lon="1.670476">
        <ele>854.9</ele>
        <time>2012-05-14T00:01:04Z</time>
      </trkpt>
      <trkpt lat="42.137049" lon="1.670591">
        <ele>854.7</ele>
        <time>2012-05-14T00:01:44Z</time>
      </trkpt>
      <trkpt lat="42.137006" lon="1.670706">
        <ele>855.0</ele>
        <time>2012-05-14T00:02:24Z</time>
      </trkpt>
      <trkpt lat="42.136984" lon="1.670850">
        <ele>854.6</ele>
        <time>2012-05-14T00:03:04Z</time>
      </trkpt>
      <trkpt lat="42.136962" lon="1.670995">
        <ele>854.4</ele>
        <time>2012-05-14T00:03:44Z</time>
      </trkpt>
      <trkpt lat="42.136940" lon="1.671139">
        <ele>854.6</ele>
        <time>2012-05-14T00:04:24Z</time>
      </trkpt>
      <trkpt lat="42.136918" lon="1.671284">
        <ele>854.2</ele>
        <time>2012-05-14T00:05:04Z</time>
      </trkpt>
      <trkpt lat="42.136869" lon="1.671423">
        <ele>854.3</ele>
        <time>2012-05-14T00:05:44Z</time>
      </trkpt>
      <trkpt lat="42.136819" lon="1.671561">
        <ele>854.2</ele>
        <time>2012-05-14T00:06:24Z</time>
      </trkpt>
      <trkpt lat="42.136770" lon="1.671700">
        <ele>853.7</ele>
        <time>2012-05-14T00:07:04Z</time>
      </trkpt>
      <trkpt lat="42.136770" lon="1.671700">
        <ele>853.7</ele>
        <time>2012-05-14T00:07:44Z</time>
      </trkpt>
      <trkpt lat="42.136724" lon="1.671828">
        <ele>853.2</ele>
        <time>2012-05-14T00:08:24Z</time>
      </trkpt>
      <trkpt lat="42.136647" lon="1.671764">
        <ele>853.9</ele>
        <time>2012-05-14T00:09:04Z</time>
      </trkpt>
      <trkpt lat="42.136570" lon="1.671700">
        <ele>853.6</ele>
        <time>2012-05-14T00:09:44Z</time>
      </trkpt>
      <trkpt lat="42.136494" lon="1.671635">
        <ele>853.2</ele>
        <time>2012-05-14T00:10:24Z</time>
      </trkpt>
      <trkpt lat="42.136441" lon="1.671474">
        <ele>853.3</ele>
        <time>2012-05-14T00:11:04Z</time>
      </trkpt>
      <trkpt lat="42.136388" lon="1.671313">
        <ele>852.6</ele>
        <time>2012-05-14T00:11:44Z</time>
      </trkpt>
      <trkpt lat="42.136335" lon="1.671152">
        <ele>852.1</ele>
        <time>2012-05-14T00:12:24Z</time>
      </trkpt>
      <trkpt lat="42.136282" lon="1.670991">
        <ele>851.7</ele>
        <time>2012-05-14T00:13:04Z</time>
      </trkpt>
      <trkpt lat="42.136230" lon="1.670830">
        <ele>851.6</ele>
        <time>2012-05-14T00:13:44Z</time>
      </trkpt>
      <trkpt lat="42.136169" lon="1.670693">
        <ele>851.0</ele>
        <time>2012-05-14T00:14:24Z</time>
      </trkpt>
      <trkpt lat="42.136108" lon="1.670555">
        <ele>850.5</ele>
        <time>2012-05-14T00:15:04Z</time>
      </trkpt>
      <trkpt lat="42.136047" lon="1.670417">
        <ele>850.2</ele>
        <time>2012-05-14T00:15:44Z</time>
      </trkpt>
      <trkpt lat="42.135986" lon="1.670279">
        <ele>849.7</ele>
        <time>2012-05-14T00:16:24Z</time>
      </trkpt>
      <trkpt lat="42.135925" lon="1.670142">
        <ele>849.6</ele>
        <time>2012-05-14T00:17:04Z</time>
      </trkpt>
      <trkpt lat="42.135864" lon="1.670004">
        <ele>849.1</ele>
        <time>2012-05-14T00:17:44Z</time>
      </trkpt>
      <trkpt lat="42.135803" lon="1.669867">
        <ele>849.7</ele>
        <time>2012-05-14T00:18:24Z</time>
      </trkpt>
      <trkpt lat="42.135713" lon="1.669746">
        <ele>848.2</ele>
        <time>2012-05-14T00:19:04Z</time>
      </trkpt>
      <trkpt lat="42.135623" lon="1.669625">
        <ele>848.0</ele>
        <time>2012-05-14T00:19:44Z</time>
      </trkpt>
      <trkpt lat="42.135533" lon="1.669505">
        <ele>847.1</ele>
        <time>2012-05-14T00:20:24Z</time>
      </trkpt>
      <trkpt lat="42.135443" lon="1.669384">
        <ele>847.3</ele>
        <time>2012-05-14T00:21:04Z</time>
      </trkpt>
      <trkpt lat="42.135354" lon="1.669264">
        <ele>847.1</ele>
        <time>2012-05-14T00:21:44Z</time>
      </trkpt>
      <trkpt lat="42.135261" lon="1.669183">
        <ele>846.7</ele>
        <time>2012-05-14T00:22:24Z</time>
      </trkpt>
      <trkpt lat="42.135169" lon="1.669102">
        <ele>847.4</ele>
        <time>2012-05-14T00:23:04Z</time>
      </trkpt>
      <trkpt lat="42.135077" lon="1.669021">
        <ele>846.0</ele>
        <time>2012-05-14T00:23:44Z</time>
      </trkpt>
      <trkpt lat="42.134985" lon="1.668940">
        <ele>844.1</ele>
        <time>2012-05-14T00:24:24Z</time>
      </trkpt>
      <trkpt lat="42.134893" lon="1.668859">
        <ele>842.4</ele>
        <time>2012-05-14T00:25:04Z</time>
      </trkpt>
      <trkpt lat="42.134858" lon="1.668729">
        <ele>842.7</ele>
        <time>2012-05-14T00:25:44Z</time>
      </trkpt>
      <trkpt lat="42.134823" lon="1.668599">
        <ele>843.1</ele>
        <time>2012-05-14T00:26:24Z</time>
      </trkpt>
      <trkpt lat="42.134788" lon="1.668469">
        <ele>843.3</ele>
        <time>2012-05-14T00:27:04Z</time>
      </trkpt>
      <trkpt lat="42.134753" lon="1.668340">
        <ele>845.3</ele>
        <time>2012-05-14T00:27:44Z</time>
      </trkpt>
      <trkpt lat="42.134632" lon="1.668306">
        <ele>842.0</ele>
        <time>2012-05-14T00:28:24Z</time>
      </trkpt>
      <trkpt lat="42.134511" lon="1.668273">
        <ele>840.5</ele>
        <time>2012-05-14T00:29:04Z</time>
      </trkpt>
      <trkpt lat="42.134390" lon="1.668239">
        <ele>840.9</ele>
        <time>2012-05-14T00:29:44Z</time>
      </trkpt>
      <trkpt lat="42.134269" lon="1.668206">
        <ele>843.8</ele>
        <time>2012-05-14T00:30:24Z</time>
      </trkpt>
      <trkpt lat="42.134145" lon="1.668217">
        <ele>844.9</ele>
        <time>2012-05-14T00:31:04Z</time>
      </trkpt>
      <trkpt lat="42.134021" lon="1.668229">
        <ele>845.2</ele>
        <time>2012-05-14T00:31:44Z</time>
      </trkpt>
      <trkpt lat="42.133897" lon="1.668240">
        <ele>843.2</ele>
        <time>2012-05-14T00:32:24Z</time>
      </trkpt>
      <trkpt lat="42.133773" lon="1.668252">
        <ele>840.3</ele>
        <time>2012-05-14T00:33:04Z</time>
      </trkpt>
      <trkpt lat="42.133686" lon="1.668160">
        <ele>843.1</ele>
        <time>2012-05-14T00:33:44Z</time>
      </trkpt>
      <trkpt lat="42.133600" lon="1.668068">
        <ele>842.3</ele>
        <time>2012-05-14T00:34:24Z</time>
      </trkpt>
      <trkpt lat="42.133513" lon="1.667977">
        <ele>841.7</ele>
        <time>2012-05-14T00:35:04Z</time>
      </trkpt>
      <trkpt lat="42.133426" lon="1.667885">
        <ele>840.5</ele>
        <time>2012-05-14T00:35:44Z</time>
      </trkpt>
      <trkpt lat="42.133339" lon="1.667793">
        <ele>839.8</ele>
        <time>2012-05-14T00:36:24Z</time>
      </trkpt>
      <trkpt lat="42.133267" lon="1.667664">
        <ele>838.9</ele>
        <time>2012-05-14T00:37:04Z</time>
      </trkpt>
      <trkpt lat="42.133195" lon="1.667535">
        <ele>839.4</ele>
        <time>2012-05-14T00:37:44Z</time>
      </trkpt>
      <trkpt lat="42.133123" lon="1.667406">
        <ele>839.6</ele>
        <time>2012-05-14T00:38:24Z</time>
      </trkpt>
      <trkpt lat="42.133051" lon="1.667277">
        <ele>840.4</ele>
        <time>2012-05-14T00:39:04Z</time>
      </trkpt>
      <trkpt lat="42.132934" lon="1.667195">
        <ele>839.8</ele>
        <time>2012-05-14T00:39:44Z</time>
      </trkpt>
      <trkpt lat="42.132817" lon="1.667113">
        <ele>839.7</ele>
        <time>2012-05-14T00:40:24Z</time>
      </trkpt>
      <trkpt lat="42.132700" lon="1.667032">
        <ele>839.1</ele>
        <time>2012-05-14T00:41:04Z</time>
      </trkpt>
      <trkpt lat="42.132633" lon="1.666890">
        <ele>838.7</ele>
        <time>2012-05-14T00:41:44Z</time>
      </trkpt>
      <trkpt lat="42.132565" lon="1.666747">
        <ele>838.1</ele>
        <time>2012-05-14T00:42:24Z</time>
      </trkpt>
      <trkpt lat="42.132498" lon="1.666605">
        <ele>837.8</ele>
        <time>2012-05-14T00:43:04Z</time>
      </trkpt>
      <trkpt lat="42.132498" lon="1.666605">
        <ele>837.8</ele>
        <time>2012-05-14T00:43:44Z</time>
      </trkpt>
      <trkpt lat="42.132480" lon="1.666568">
        <ele>837.8</ele>
        <time>2012-05-14T00:44:24Z</time>
      </trkpt>
      <trkpt lat="42.132414" lon="1.666451">
        <ele>837.8</ele>
        <time>2012-05-14T00:45:04Z</time>
      </trkpt>
      <trkpt lat="42.132349" lon="1.666333">
        <ele>837.9</ele>
        <time>2012-05-14T00:45:44Z</time>
      </trkpt>
      <trkpt lat="42.132283" lon="1.666216">
        <ele>837.8</ele>
        <time>2012-05-14T00:46:24Z</time>
      </trkpt>
      <trkpt lat="42.132217" lon="1.666098">
        <ele>837.8</ele>
        <time>2012-05-14T00:47:04Z</time>
      </trkpt>
      <trkpt lat="42.132152" lon="1.665981">
        <ele>837.8</ele>
        <time>2012-05-14T00:47:44Z</time>
      </trkpt>
      <trkpt lat="42.132046" lon="1.665890">
        <ele>838.4</ele>
        <time>2012-05-14T00:48:24Z</time>
      </trkpt>
      <trkpt lat="42.131940" lon="1.665799">
        <ele>837.8</ele>
        <time>2012-05-14T00:49:04Z</time>
      </trkpt>
      <trkpt lat="42.131833" lon="1.665708">
        <ele>837.3</ele>
        <time>2012-05-14T00:49:44Z</time>
      </trkpt>
      <trkpt lat="42.131727" lon="1.665618">
        <ele>836.3</ele>
        <time>2012-05-14T00:50:24Z</time>
      </trkpt>
      <trkpt lat="42.131621" lon="1.665527">
        <ele>837.2</ele>
        <time>2012-05-14T00:51:04Z</time>
      </trkpt>
      <trkpt lat="42.131515" lon="1.665436">
        <ele>837.0</ele>
        <time>2012-05-14T00:51:44Z</time>
      </trkpt>
      <trkpt lat="42.131385" lon="1.665400">
        <ele>835.6</ele>
        <time>2012-05-14T00:52:24Z</time>
      </trkpt>
      <trkpt lat="42.131255" lon="1.665363">
        <ele>835.9</ele>
        <time>2012-05-14T00:53:04Z</time>
      </trkpt>
      <trkpt lat="42.131125" lon="1.665327">
        <ele>835.5</ele>
        <time>2012-05-14T00:53:44Z</time>
      </trkpt>
      <trkpt lat="42.130995" lon="1.665291">
        <ele>834.4</ele>
        <time>2012-05-14T00:54:24Z</time>
      </trkpt>
      <trkpt lat="42.130865" lon="1.665255">
        <ele>833.2</ele>
        <time>2012-05-14T00:55:04Z</time>
      </trkpt>
      <trkpt lat="42.130735" lon="1.665218">
        <ele>832.6</ele>
        <time>2012-05-14T00:55:44Z</time>
      </trkpt>
      <trkpt lat="42.130619" lon="1.665167">
        <ele>832.0</ele>
        <time>2012-05-14T00:56:24Z</time>
      </trkpt>
      <trkpt lat="42.130502" lon="1.665115">
        <ele>831.3</ele>
        <time>2012-05-14T00:57:04Z</time>
      </trkpt>
      <trkpt lat="42.130385" lon="1.665064">
        <ele>831.3</ele>
        <time>2012-05-14T00:57:44Z</time>
      </trkpt>
      <trkpt lat="42.130266" lon="1.665069">
        <ele>831.0</ele>
        <time>2012-05-14T00:58:24Z</time>
      </trkpt>
      <trkpt lat="42.130148" lon="1.665074">
        <ele>830.9</ele>
        <time>2012-05-14T00:59:04Z</time>
      </trkpt>
      <trkpt lat="42.130029" lon="1.665079">
        <ele>830.7</ele>
        <time>2012-05-14T00:59:44Z</time>
      </trkpt>
      <trkpt lat="42.129910" lon="1.665084">
        <ele>830.7</ele>
        <time>2012-05-14T01:00:24Z</time>
      </trkpt>
      <trkpt lat="42.129792" lon="1.665089">
        <ele>830.8</ele>
        <time>2012-05-14T01:01:04Z</time>
      </trkpt>
      <trkpt lat="42.129673" lon="1.665094">
        <ele>830.9</ele>
        <time>2012-05-14T01:01:44Z</time>
      </trkpt>
      <trkpt lat="42.129554" lon="1.665099">
        <ele>831.2</ele>
        <time>2012-05-14T01:02:24Z</time>
      </trkpt>
      <trkpt lat="42.129426" lon="1.665102">
        <ele>831.6</ele>
        <time>2012-05-14T01:03:04Z</time>
      </trkpt>
      <trkpt lat="42.129297" lon="1.665104">
        <ele>832.3</ele>
        <time>2012-05-14T01:03:44Z</time>
      </trkpt>
      <trkpt lat="42.129168" lon="1.665107">
        <ele>832.9</ele>
        <time>2012-05-14T01:04:24Z</time>
      </trkpt>
      <trkpt lat="42.129040" lon="1.665110">
        <ele>833.1</ele>
        <time>2012-05-14T01:05:04Z</time>
      </trkpt>
      <trkpt lat="42.128911" lon="1.665112">
        <ele>833.0</ele>
        <time>2012-05-14T01:05:44Z</time>
      </trkpt>
      <trkpt lat="42.128799" lon="1.665118">
        <ele>832.9</ele>
        <time>2012-05-14T01:06:24Z</time>
      </trkpt>
      <trkpt lat="42.128686" lon="1.665124">
        <ele>832.4</ele>
        <time>2012-05-14T01:07:04Z</time>
      </trkpt>
      <trkpt lat="42.128573" lon="1.665130">
        <ele>831.6</ele>
        <time>2012-05-14T01:07:44Z</time>
      </trkpt>
    </trkseg>
  </trk>
</gpx>
